Time,TemperatureF,DewpointF,PressureIn,WindDirection,WindDirectionDegrees,WindSpeedMPH,WindSpeedGustMPH,Humidity,HourlyPrecipIn,Conditions,Clouds,dailyrainin,SolarRadiationWatts/m^2,SoftwareType,DateUTC
2013-08-23 00:00:00,67.2,65.8,30.03,WNW,286,5.4,6.8,95,0.00,,,0.00,0.00,VWS V14.01,2013-08-23 04:00:00,
2013-08-23 00:01:00,67.7,66.3,30.05,NW,306,6.8,6.8,95,0.00,,,0.00,0.00,VWS V14.01,2013-08-23 04:01:00,
2013-08-23 00:02:00,67.6,66.1,30.05,NW,323,4.9,4.9,95,0.00,,,0.00,0.00,VWS V14.01,2013-08-23 04:02:00,
2013-08-23 00:03:00,67.6,66.2,30.05,NNW,338,5.7,5.7,95,0.00,,,0.00,0.00,VWS V14.01,2013-08-23 04:03:00,
2013-08-23 00:04:00,67.1,65.8,30.02,NW,309,4.2,4.4,96,0.00,,,0.00,0.00,VWS V14.01,2013-08-23 04:04:00,
2013-08-23 00:05:00,67.0,65.8,30.03,NW,307,2.8,4.2,96,0.00,,,0.00,0.43,VWS V14.01,2013-08-23 04:05:00,
2013-08-23 00:06:00,67.7,66.3,30.04,NW,311,6.8,6.8,95,0.00,,,0.00,0.00,VWS V14.01,2013-08-23 04:06:00,
2013-08-23 00:07:00,67.7,66.3,30.04,NW,308,6.8,6.8,95,0.00,,,0.00,0.43,VWS V14.01,2013-08-23 04:07:00,
2013-08-23 00:08:00,67.2,66.0,30.02,NW,312,6.1,6.1,96,0.00,,,0.00,0.00,VWS V14.01,2013-08-23 04:08:00,
2013-08-23 00:09:00,67.7,66.3,30.04,NNW,329,7.6,7.6,95,0.00,,,0.00,0.43,VWS V14.01,2013-08-23 04:09:00,
2013-08-23 00:10:00,67.0,65.8,30.03,NW,322,4.0,4.2,96,0.00,,,0.00,0.00,VWS V14.01,2013-08-23 04:10:00,
2013-08-23 00:11:00,67.7,66.3,30.05,NW,318,6.1,6.6,95,0.00,,,0.00,0.00,VWS V14.01,2013-08-23 04:11:00,
2013-08-23 00:12:00,67.7,66.3,30.05,NW,324,6.6,6.6,95,0.00,,,0.00,0.00,VWS V14.01,2013-08-23 04:12:00,
2013-08-23 00:13:00,67.1,66.0,30.03,NW,318,5.6,5.6,96,0.00,,,0.00,0.73,VWS V14.01,2013-08-23 04:13:00,
2013-08-23 00:14:00,67.6,66.3,30.04,NNE,18,3.4,8.0,95,0.00,,,0.00,0.43,VWS V14.01,2013-08-23 04:14:00,
2013-08-23 00:15:00,67.7,66.3,30.06,WNW,296,3.2,3.4,95,0.00,,,0.00,0.00,VWS V14.01,2013-08-23 04:15:00,
2013-08-23 00:16:00,67.0,65.8,30.03,WNW,300,4.4,7.1,96,0.00,,,0.00,0.00,VWS V14.01,2013-08-23 04:16:00,
2013-08-23 00:17:00,67.5,66.2,30.05,North,351,0.0,3.7,96,0.00,,,0.00,0.00,VWS V14.01,2013-08-23 04:17:00,
2013-08-23 00:18:00,67.6,66.3,30.05,NW,318,4.0,4.0,96,0.00,,,0.00,0.98,VWS V14.01,2013-08-23 04:18:00,
2013-08-23 00:19:00,67.7,66.3,30.04,North,351,2.8,8.0,96,0.00,,,0.00,0.00,VWS V14.01,2013-08-23 04:19:00,
2013-08-23 00:20:00,67.7,66.4,30.04,NNW,329,6.4,6.4,96,0.00,,,0.00,0.00,VWS V14.01,2013-08-23 04:20:00,
2013-08-23 00:21:00,67.5,66.3,30.05,NW,308,4.4,6.4,96,0.00,,,0.00,0.00,VWS V14.01,2013-08-23 04:21:00,
2013-08-23 00:22:00,67.5,66.3,30.04,NNW,327,1.8,5.6,96,0.00,,,0.00,0.43,VWS V14.01,2013-08-23 04:22:00,
2013-08-23 00:23:00,66.9,64.7,30.03,NW,306,1.5,4.0,93,0.00,,,0.00,0.00,VWS V14.01,2013-08-23 04:23:00,
2013-08-23 00:24:00,67.7,66.5,30.05,NNW,336,8.0,8.0,96,0.00,,,0.00,0.00,VWS V14.01,2013-08-23 04:24:00,
2013-08-23 00:25:00,67.6,66.4,30.05,NNW,330,1.5,5.9,96,0.00,,,0.00,0.00,VWS V14.01,2013-08-23 04:25:00,
2013-08-23 00:26:00,67.7,66.5,30.05,NW,323,6.6,6.9,96,0.00,,,0.00,0.00,VWS V14.01,2013-08-23 04:26:00,
2013-08-23 00:27:00,67.2,66.1,30.03,North,0,1.1,3.4,96,0.00,,,0.00,0.00,VWS V14.01,2013-08-23 04:27:00,
2013-08-23 00:28:00,67.2,66.1,30.03,North,360,2.3,3.7,96,0.00,,,0.00,0.00,VWS V14.01,2013-08-23 04:28:00,
2013-08-23 00:29:00,67.7,66.5,30.05,NNW,335,8.3,8.3,96,0.00,,,0.00,0.12,VWS V14.01,2013-08-23 04:29:00,
2013-08-23 00:30:00,67.6,66.5,30.05,WNW,299,4.5,4.9,96,0.00,,,0.00,0.00,VWS V14.01,2013-08-23 04:30:00,
2013-08-23 00:31:00,67.5,66.4,30.05,NW,324,1.3,4.9,96,0.00,,,0.00,0.00,VWS V14.01,2013-08-23 04:31:00,
2013-08-23 00:32:00,67.6,66.6,30.05,NW,317,3.0,3.0,96,0.00,,,0.00,0.00,VWS V14.01,2013-08-23 04:32:00,
2013-08-23 00:33:00,67.2,66.0,30.04,NNE,24,1.0,3.9,96,0.00,,,0.00,0.12,VWS V14.01,2013-08-23 04:33:00,
2013-08-23 00:34:00,67.7,66.7,30.05,NW,309,3.7,5.6,96,0.00,,,0.00,0.73,VWS V14.01,2013-08-23 04:34:00,
2013-08-23 00:35:00,67.1,66.0,30.04,NNW,336,1.6,4.9,96,0.00,,,0.00,0.00,VWS V14.01,2013-08-23 04:35:00,
2013-08-23 00:36:00,67.5,66.4,30.06,NW,324,4.4,6.8,96,0.00,,,0.00,0.12,VWS V14.01,2013-08-23 04:36:00,
2013-08-23 00:37:00,67.6,66.5,30.05,NNW,327,6.3,6.3,96,0.00,,,0.00,0.00,VWS V14.01,2013-08-23 04:37:00,
2013-08-23 00:38:00,67.2,66.0,30.04,NE,37,1.1,5.9,96,0.00,,,0.00,0.43,VWS V14.01,2013-08-23 04:38:00,
2013-08-23 00:39:00,67.7,66.7,30.05,NNW,343,6.4,6.4,96,0.00,,,0.00,0.00,VWS V14.01,2013-08-23 04:39:00,
2013-08-23 00:40:00,67.4,66.3,30.03,North,9,2.5,2.7,96,0.00,,,0.00,0.00,VWS V14.01,2013-08-23 04:40:00,
2013-08-23 00:41:00,67.5,66.5,30.05,NNW,330,5.7,5.9,97,0.00,,,0.00,0.00,VWS V14.01,2013-08-23 04:41:00,
2013-08-23 00:42:00,67.2,65.9,30.04,NW,319,4.2,7.5,96,0.00,,,0.00,0.00,VWS V14.01,2013-08-23 04:42:00,
2013-08-23 00:43:00,67.5,66.6,30.05,NNW,342,7.1,7.1,97,0.00,,,0.00,0.43,VWS V14.01,2013-08-23 04:43:00,
2013-08-23 00:44:00,67.4,66.5,30.05,NW,320,5.4,7.1,97,0.00,,,0.00,0.12,VWS V14.01,2013-08-23 04:44:00,
2013-08-23 00:45:00,67.1,65.9,30.04,NNW,338,2.7,4.7,96,0.00,,,0.00,0.00,VWS V14.01,2013-08-23 04:45:00,
2013-08-23 00:46:00,67.6,66.7,30.06,NW,306,6.3,6.3,97,0.00,,,0.00,0.00,VWS V14.01,2013-08-23 04:46:00,
2013-08-23 00:47:00,67.2,66.1,30.04,North,351,4.4,5.6,96,0.00,,,0.00,0.00,VWS V14.01,2013-08-23 04:47:00,
2013-08-23 00:48:00,67.4,66.3,30.05,NW,318,4.7,4.9,96,0.00,,,0.00,0.00,VWS V14.01,2013-08-23 04:48:00,
2013-08-23 00:49:00,67.5,66.7,30.05,NW,317,5.4,5.4,97,0.00,,,0.00,0.00,VWS V14.01,2013-08-23 04:49:00,
2013-08-23 00:50:00,67.5,66.7,30.05,NW,312,5.1,6.1,97,0.00,,,0.00,0.67,VWS V14.01,2013-08-23 04:50:00,
2013-08-23 00:51:00,67.5,66.3,30.04,North,8,5.9,9.5,96,0.00,,,0.00,0.00,VWS V14.01,2013-08-23 04:51:00,
2013-08-23 00:52:00,67.6,66.3,30.04,NNW,329,6.1,6.1,96,0.00,,,0.00,0.00,VWS V14.01,2013-08-23 04:52:00,
2013-08-23 00:53:00,67.6,66.3,30.05,NW,318,7.1,7.1,96,0.00,,,0.00,0.00,VWS V14.01,2013-08-23 04:53:00,
2013-08-23 00:54:00,67.4,66.7,30.06,NW,323,1.0,3.9,98,0.00,,,0.00,0.12,VWS V14.01,2013-08-23 04:54:00,
2013-08-23 00:55:00,67.4,66.7,30.06,NW,323,1.0,3.9,98,0.00,,,0.00,0.12,VWS V14.01,2013-08-23 04:55:00,
2013-08-23 00:56:00,67.7,66.4,30.05,NW,319,6.3,6.8,95,0.00,,,0.00,0.00,VWS V14.01,2013-08-23 04:56:00,
2013-08-23 00:57:00,67.3,66.7,30.05,NNW,330,1.8,3.0,98,0.00,,,0.00,0.00,VWS V14.01,2013-08-23 04:57:00,
2013-08-23 00:58:00,67.7,66.3,30.05,NNW,343,5.2,5.2,95,0.00,,,0.00,0.00,VWS V14.01,2013-08-23 04:58:00,
2013-08-23 00:59:00,67.4,66.8,30.05,WNW,288,4.4,4.5,98,0.00,,,0.00,0.00,VWS V14.01,2013-08-23 04:59:00,
2013-08-23 01:00:00,67.4,66.8,30.05,WNW,288,4.4,4.5,98,0.00,,,0.00,0.00,VWS V14.01,2013-08-23 05:00:00,
2013-08-23 01:01:00,67.4,66.8,30.05,WNW,288,4.4,4.5,98,0.00,,,0.00,0.00,VWS V14.01,2013-08-23 05:01:00,
2013-08-23 01:02:00,67.6,66.2,30.05,NW,313,4.7,6.8,95,0.00,,,0.00,0.00,VWS V14.01,2013-08-23 05:02:00,
2013-08-23 01:03:00,67.6,66.1,30.05,NW,323,4.9,6.1,95,0.00,,,0.00,0.00,VWS V14.01,2013-08-23 05:03:00,
2013-08-23 01:04:00,67.6,66.2,30.05,NNW,338,5.7,5.7,95,0.00,,,0.00,0.00,VWS V14.01,2013-08-23 05:04:00,
2013-08-23 01:05:00,67.6,67.1,30.05,NW,309,4.9,4.9,98,0.00,,,0.00,0.00,VWS V14.01,2013-08-23 05:05:00,
2013-08-23 01:06:00,67.4,66.9,30.06,NNW,333,3.5,4.9,98,0.00,,,0.00,0.00,VWS V14.01,2013-08-23 05:06:00,
2013-08-23 01:07:00,67.6,67.0,30.06,NW,314,3.7,3.7,98,0.00,,,0.00,0.00,VWS V14.01,2013-08-23 05:07:00,
2013-08-23 01:08:00,67.7,66.3,30.04,NW,308,6.8,6.8,95,0.00,,,0.00,0.43,VWS V14.01,2013-08-23 05:08:00,
2013-08-23 01:09:00,67.7,66.2,30.04,NW,321,7.3,7.3,95,0.00,,,0.00,0.00,VWS V14.01,2013-08-23 05:09:00,
2013-08-23 01:10:00,67.6,66.2,30.05,NNW,330,2.7,7.6,95,0.00,,,0.00,0.00,VWS V14.01,2013-08-23 05:10:00,
2013-08-23 01:11:00,67.6,64.9,30.06,NW,309,5.4,5.4,91,0.00,,,0.00,0.00,VWS V14.01,2013-08-23 05:11:00,
2013-08-23 01:12:00,67.4,66.9,30.06,NNW,344,4.7,5.4,98,0.00,,,0.00,0.00,VWS V14.01,2013-08-23 05:12:00,
2013-08-23 01:13:00,67.5,67.0,30.06,NW,319,0.0,2.7,98,0.00,,,0.00,0.00,VWS V14.01,2013-08-23 05:13:00,
2013-08-23 01:14:00,67.4,66.9,30.05,NNE,21,0.0,2.7,98,0.00,,,0.00,0.00,VWS V14.01,2013-08-23 05:14:00,
2013-08-23 01:15:00,67.6,66.3,30.04,NNE,18,3.4,8.0,95,0.00,,,0.00,0.43,VWS V14.01,2013-08-23 05:15:00,
2013-08-23 01:16:00,67.6,67.1,30.06,NW,321,6.6,6.6,98,0.00,,,0.00,0.00,VWS V14.01,2013-08-23 05:16:00,
2013-08-23 01:17:00,67.5,67.0,30.06,NW,322,2.8,6.6,98,0.00,,,0.00,0.00,VWS V14.01,2013-08-23 05:17:00,
2013-08-23 01:18:00,67.4,66.9,30.06,NW,309,3.7,3.7,98,0.00,,,0.00,0.00,VWS V14.01,2013-08-23 05:18:00,
2013-08-23 01:19:00,67.7,66.4,30.05,NW,321,8.0,8.0,96,0.00,,,0.00,0.00,VWS V14.01,2013-08-23 05:19:00,
2013-08-23 01:20:00,67.5,67.0,30.05,NW,312,2.8,3.7,98,0.00,,,0.00,0.00,VWS V14.01,2013-08-23 05:20:00,
2013-08-23 01:21:00,67.5,67.0,30.05,NNW,333,3.4,3.4,98,0.00,,,0.00,0.00,VWS V14.01,2013-08-23 05:21:00,
2013-08-23 01:22:00,67.7,67.2,30.05,NNW,335,6.6,6.6,99,0.00,,,0.00,0.00,VWS V14.01,2013-08-23 05:22:00,
2013-08-23 01:23:00,67.4,67.0,30.05,North,6,2.8,6.6,99,0.00,,,0.00,0.00,VWS V14.01,2013-08-23 05:23:00,
2013-08-23 01:24:00,67.7,66.5,30.05,NNW,336,8.0,8.0,96,0.00,,,0.00,0.00,VWS V14.01,2013-08-23 05:24:00,
2013-08-23 01:25:00,67.6,66.4,30.04,NW,306,4.0,8.0,96,0.00,,,0.00,0.00,VWS V14.01,2013-08-23 05:25:00,
2013-08-23 01:26:00,67.6,67.2,30.06,NW,319,5.6,5.6,98,0.00,,,0.00,0.00,VWS V14.01,2013-08-23 05:26:00,
2013-08-23 01:27:00,67.7,66.5,30.05,NW,323,6.6,6.9,96,0.00,,,0.00,0.00,VWS V14.01,2013-08-23 05:27:00,
2013-08-23 01:28:00,67.6,67.1,30.06,NW,315,4.2,4.2,98,0.00,,,0.00,0.00,VWS V14.01,2013-08-23 05:28:00,
2013-08-23 01:29:00,67.5,67.1,30.05,NNW,334,0.0,2.8,98,0.00,,,0.00,0.00,VWS V14.01,2013-08-23 05:29:00,
2013-08-23 01:30:00,67.7,66.5,30.05,NNW,335,8.3,8.3,96,0.00,,,0.00,0.12,VWS V14.01,2013-08-23 05:30:00,
2013-08-23 01:31:00,67.5,66.4,30.04,NNW,347,4.9,8.3,96,0.00,,,0.00,0.00,VWS V14.01,2013-08-23 05:31:00,
2013-08-23 01:32:00,67.5,66.4,30.05,NW,324,1.3,4.9,96,0.00,,,0.00,0.00,VWS V14.01,2013-08-23 05:32:00,
2013-08-23 01:33:00,67.6,67.1,30.05,NW,319,4.2,4.2,98,0.00,,,0.00,0.00,VWS V14.01,2013-08-23 05:33:00,
2013-08-23 01:34:00,67.6,67.2,30.06,North,2,2.2,5.6,98,0.00,,,0.00,0.00,VWS V14.01,2013-08-23 05:34:00,
2013-08-23 01:35:00,67.7,67.2,30.06,NW,311,5.6,5.6,98,0.00,,,0.00,0.00,VWS V14.01,2013-08-23 05:35:00,
2013-08-23 01:36:00,67.6,66.5,30.05,WNW,302,6.8,6.8,96,0.00,,,0.00,0.00,VWS V14.01,2013-08-23 05:36:00,
2013-08-23 01:37:00,67.6,66.5,30.05,NNW,332,4.2,6.8,96,0.00,,,0.00,0.00,VWS V14.01,2013-08-23 05:37:00,
2013-08-23 01:38:00,67.6,66.5,30.05,NNW,327,6.3,6.3,96,0.00,,,0.00,0.00,VWS V14.01,2013-08-23 05:38:00,
2013-08-23 01:39:00,67.6,67.1,30.06,NE,44,5.7,5.7,98,0.00,,,0.00,0.43,VWS V14.01,2013-08-23 05:39:00,
2013-08-23 01:40:00,67.6,67.1,30.06,NNW,335,4.0,5.7,98,0.00,,,0.00,0.73,VWS V14.01,2013-08-23 05:40:00,
2013-08-23 01:41:00,67.6,67.1,30.06,NNW,347,3.5,3.5,98,0.00,,,0.00,0.00,VWS V14.01,2013-08-23 05:41:00,
2013-08-23 01:42:00,67.5,67.0,30.06,NNE,15,2.2,2.2,98,0.00,,,0.00,0.00,VWS V14.01,2013-08-23 05:42:00,
2013-08-23 01:43:00,67.6,66.6,30.06,NW,325,5.7,5.7,97,0.00,,,0.00,0.00,VWS V14.01,2013-08-23 05:43:00,
2013-08-23 01:44:00,67.5,66.6,30.05,NNW,342,7.1,7.1,97,0.00,,,0.00,0.43,VWS V14.01,2013-08-23 05:44:00,
2013-08-23 01:45:00,67.5,67.0,30.06,NW,316,2.2,5.1,98,0.00,,,0.00,0.00,VWS V14.01,2013-08-23 05:45:00,
2013-08-23 01:46:00,67.4,66.9,30.05,North,3,0.0,3.5,98,0.00,,,0.00,0.43,VWS V14.01,2013-08-23 05:46:00,
2013-08-23 01:47:00,67.5,67.1,30.07,NNW,335,1.6,1.8,98,0.00,,,0.00,0.00,VWS V14.01,2013-08-23 05:47:00,
2013-08-23 01:48:00,67.6,65.0,30.05,NNW,335,5.6,6.3,91,0.00,,,0.00,0.12,VWS V14.01,2013-08-23 05:48:00,
2013-08-23 01:49:00,67.5,66.6,30.05,NW,324,4.5,5.6,97,0.00,,,0.00,0.00,VWS V14.01,2013-08-23 05:49:00,
2013-08-23 01:50:00,67.6,67.2,30.06,NW,312,2.0,2.0,99,0.00,,,0.00,0.00,VWS V14.01,2013-08-23 05:50:00,
2013-08-23 01:51:00,67.5,66.7,30.05,NW,312,5.1,6.1,97,0.00,,,0.00,0.67,VWS V14.01,2013-08-23 05:51:00,
2013-08-23 01:52:00,67.4,67.0,30.06,North,360,3.9,3.9,99,0.00,,,0.00,0.00,VWS V14.01,2013-08-23 05:52:00,
2013-08-23 01:53:00,67.2,66.5,30.05,NW,312,4.5,4.5,97,0.00,,,0.00,0.00,VWS V14.01,2013-08-23 05:53:00,
2013-08-23 01:54:00,67.4,65.3,30.06,NNW,340,3.9,4.5,93,0.00,,,0.00,0.00,VWS V14.01,2013-08-23 05:54:00,
2013-08-23 01:55:00,67.5,67.1,30.06,NNW,332,6.3,6.3,99,0.00,,,0.00,0.12,VWS V14.01,2013-08-23 05:55:00,
2013-08-23 01:56:00,67.4,67.0,30.05,NNW,328,5.2,6.3,99,0.00,,,0.00,0.73,VWS V14.01,2013-08-23 05:56:00,
2013-08-23 01:57:00,67.3,66.9,30.06,NW,323,0.0,5.2,99,0.00,,,0.00,0.00,VWS V14.01,2013-08-23 05:57:00,
2013-08-23 01:58:00,67.3,66.7,30.05,NNW,330,1.8,3.0,98,0.00,,,0.00,0.00,VWS V14.01,2013-08-23 05:58:00,
2013-08-23 01:59:00,67.5,66.9,30.06,North,0,4.0,4.0,98,0.00,,,0.00,0.00,VWS V14.01,2013-08-23 05:59:00,
2013-08-23 02:00:00,67.4,66.8,30.05,WNW,288,4.4,4.5,98,0.00,,,0.00,0.00,VWS V14.01,2013-08-23 06:00:00,
2013-08-23 02:01:00,67.4,67.0,30.06,NNW,338,2.5,2.5,99,0.00,,,0.00,0.00,VWS V14.01,2013-08-23 06:01:00,
2013-08-23 02:02:00,67.3,66.9,30.06,North,351,1.3,2.5,99,0.00,,,0.00,0.73,VWS V14.01,2013-08-23 06:02:00,
2013-08-23 02:04:00,67.4,66.9,30.05,NW,324,2.7,4.4,98,0.00,,,0.00,0.00,VWS V14.01,2013-08-23 06:04:00,
2013-08-23 02:05:00,67.3,67.0,30.06,North,351,3.4,3.4,99,0.00,,,0.00,0.00,VWS V14.01,2013-08-23 06:05:00,
2013-08-23 02:06:00,67.3,67.0,30.06,NW,313,0.0,3.4,99,0.00,,,0.00,0.00,VWS V14.01,2013-08-23 06:06:00,
2013-08-23 02:07:00,67.3,67.0,30.06,NW,304,0.0,3.4,99,0.00,,,0.00,0.00,VWS V14.01,2013-08-23 06:07:00,
2013-08-23 02:08:00,67.4,66.8,30.06,NW,314,4.7,4.7,98,0.00,,,0.00,0.00,VWS V14.01,2013-08-23 06:08:00,
2013-08-23 02:09:00,67.5,66.9,30.05,NW,317,5.6,5.6,98,0.00,,,0.00,0.00,VWS V14.01,2013-08-23 06:09:00,
2013-08-23 02:10:00,67.3,67.0,30.06,NNW,331,1.0,4.4,99,0.00,,,0.00,0.00,VWS V14.01,2013-08-23 06:10:00,
2013-08-23 02:11:00,67.4,67.1,30.06,NNW,340,4.0,4.4,99,0.00,,,0.00,0.00,VWS V14.01,2013-08-23 06:11:00,
2013-08-23 02:12:00,67.3,67.0,30.05,NNW,329,0.0,4.4,99,0.00,,,0.00,0.00,VWS V14.01,2013-08-23 06:12:00,
2013-08-23 02:13:00,67.4,66.9,30.07,NNW,344,2.7,5.4,98,0.00,,,0.00,0.00,VWS V14.01,2013-08-23 06:13:00,
2013-08-23 02:14:00,67.4,66.9,30.05,NNW,328,2.7,2.7,98,0.00,,,0.00,0.00,VWS V14.01,2013-08-23 06:14:00,
2013-08-23 02:15:00,67.2,66.9,30.05,NW,325,2.5,4.4,99,0.00,,,0.00,0.00,VWS V14.01,2013-08-23 06:15:00,
2013-08-23 02:16:00,67.5,67.0,30.05,NNW,336,3.5,3.5,98,0.00,,,0.00,0.00,VWS V14.01,2013-08-23 06:16:00,
2013-08-23 02:17:00,67.3,67.0,30.04,NNW,332,5.4,5.4,99,0.00,,,0.00,0.00,VWS V14.01,2013-08-23 06:17:00,
2013-08-23 02:18:00,67.5,67.0,30.06,NW,322,2.8,6.6,98,0.00,,,0.00,0.00,VWS V14.01,2013-08-23 06:18:00,
2013-08-23 02:19:00,67.4,66.9,30.06,NW,309,3.7,3.7,98,0.00,,,0.00,0.00,VWS V14.01,2013-08-23 06:19:00,
2013-08-23 02:20:00,67.3,67.0,30.05,NW,312,0.0,5.4,99,0.00,,,0.00,0.00,VWS V14.01,2013-08-23 06:20:00,
2013-08-23 02:21:00,67.5,67.0,30.05,NNW,333,3.4,3.4,98,0.00,,,0.00,0.00,VWS V14.01,2013-08-23 06:21:00,
2013-08-23 02:22:00,67.2,66.8,30.05,NNW,336,0.0,5.4,99,0.00,,,0.00,0.00,VWS V14.01,2013-08-23 06:22:00,
2013-08-23 02:23:00,67.7,67.2,30.05,NNW,335,6.6,6.6,99,0.00,,,0.00,0.00,VWS V14.01,2013-08-23 06:23:00,
2013-08-23 02:24:00,67.6,67.2,30.05,NW,316,4.0,6.6,99,0.00,,,0.00,0.00,VWS V14.01,2013-08-23 06:24:00,
2013-08-23 02:25:00,67.1,66.8,30.05,North,349,0.0,5.4,99,0.00,,,0.00,0.00,VWS V14.01,2013-08-23 06:25:00,
2013-08-23 02:26:00,67.7,67.2,30.06,NW,307,3.9,3.9,98,0.00,,,0.00,0.00,VWS V14.01,2013-08-23 06:26:00,
2013-08-23 02:27:00,67.1,66.8,30.05,NW,322,1.8,5.4,99,0.00,,,0.00,0.00,VWS V14.01,2013-08-23 06:27:00,
2013-08-23 02:28:00,67.6,67.2,30.05,NNW,336,4.0,5.6,98,0.00,,,0.00,0.00,VWS V14.01,2013-08-23 06:28:00,
2013-08-23 02:29:00,67.5,67.1,30.06,NNW,341,1.6,4.2,98,0.00,,,0.00,0.00,VWS V14.01,2013-08-23 06:29:00,
2013-08-23 02:30:00,67.1,66.8,30.06,NW,321,2.2,5.4,99,0.00,,,0.00,0.00,VWS V14.01,2013-08-23 06:30:00,
2013-08-23 02:31:00,67.1,66.8,30.06,NW,324,1.3,5.4,99,0.00,,,0.00,0.12,VWS V14.01,2013-08-23 06:31:00,
2013-08-23 02:32:00,67.7,67.2,30.06,NW,326,5.9,5.9,98,0.00,,,0.00,0.00,VWS V14.01,2013-08-23 06:32:00,
2013-08-23 02:33:00,67.2,66.9,30.06,NNW,343,4.0,5.4,99,0.00,,,0.00,0.43,VWS V14.01,2013-08-23 06:33:00,
2013-08-23 02:34:00,67.6,67.1,30.05,NW,319,4.2,4.2,98,0.00,,,0.00,0.00,VWS V14.01,2013-08-23 06:34:00,
2013-08-23 02:35:00,67.6,67.2,30.06,North,2,2.2,5.6,98,0.00,,,0.00,0.00,VWS V14.01,2013-08-23 06:35:00,
2013-08-23 02:36:00,67.2,66.9,30.06,NNW,342,5.4,5.4,99,0.00,,,0.00,0.00,VWS V14.01,2013-08-23 06:36:00,
2013-08-23 02:37:00,67.1,66.8,30.06,NW,315,1.5,5.4,99,0.00,,,0.00,0.00,VWS V14.01,2013-08-23 06:37:00,
2013-08-23 02:38:00,67.7,67.2,30.06,NW,318,5.4,5.4,98,0.00,,,0.00,0.12,VWS V14.01,2013-08-23 06:38:00,
2013-08-23 02:39:00,66.9,66.7,30.06,NNE,33,2.3,6.1,99,0.00,,,0.00,0.00,VWS V14.01,2013-08-23 06:39:00,
2013-08-23 02:40:00,67.6,67.1,30.06,NE,44,5.7,5.7,98,0.00,,,0.00,0.43,VWS V14.01,2013-08-23 06:40:00,
2013-08-23 02:41:00,66.9,66.7,30.05,NW,316,0.0,6.1,99,0.00,,,0.00,0.00,VWS V14.01,2013-08-23 06:41:00,
2013-08-23 02:42:00,66.9,66.7,30.06,NW,325,2.0,6.1,99,0.00,,,0.00,0.00,VWS V14.01,2013-08-23 06:42:00,
2013-08-23 02:43:00,67.0,66.7,30.06,NW,317,2.7,6.1,99,0.00,,,0.00,0.43,VWS V14.01,2013-08-23 06:43:00,
2013-08-23 02:44:00,66.9,66.7,30.08,NW,322,4.7,6.1,99,0.00,,,0.00,0.00,VWS V14.01,2013-08-23 06:44:00,
2013-08-23 02:45:00,67.5,67.1,30.06,NW,315,5.1,5.1,98,0.00,,,0.00,0.12,VWS V14.01,2013-08-23 06:45:00,
2013-08-23 02:46:00,67.5,67.0,30.06,NW,322,3.5,5.1,98,0.00,,,0.00,0.00,VWS V14.01,2013-08-23 06:46:00,
2013-08-23 02:47:00,66.8,66.6,30.06,NNW,336,2.5,6.1,99,0.00,,,0.00,0.00,VWS V14.01,2013-08-23 06:47:00,
2013-08-23 02:48:00,66.8,66.6,30.06,NNW,336,2.5,6.1,99,0.00,,,0.00,0.00,VWS V14.01,2013-08-23 06:48:00,
2013-08-23 02:49:00,67.4,67.0,30.06,NNW,339,0.0,1.6,99,0.00,,,0.00,0.00,VWS V14.01,2013-08-23 06:49:00,
2013-08-23 02:50:00,66.9,66.7,30.06,NW,319,3.7,6.1,99,0.00,,,0.00,0.00,VWS V14.01,2013-08-23 06:50:00,
2013-08-23 02:51:00,66.9,66.7,30.05,NNW,338,1.0,6.1,99,0.00,,,0.00,0.12,VWS V14.01,2013-08-23 06:51:00,
2013-08-23 02:52:00,66.9,66.7,30.05,North,352,3.0,6.1,99,0.00,,,0.00,0.43,VWS V14.01,2013-08-23 06:52:00,
2013-08-23 02:53:00,67.1,66.8,30.04,NW,311,2.5,6.1,99,0.00,,,0.00,0.00,VWS V14.01,2013-08-23 06:53:00,
2013-08-23 02:54:00,67.5,67.1,30.05,NW,316,4.2,4.2,99,0.00,,,0.00,0.43,VWS V14.01,2013-08-23 06:54:00,
2013-08-23 02:55:00,66.9,66.7,30.06,NNW,338,1.1,6.1,99,0.00,,,0.00,0.00,VWS V14.01,2013-08-23 06:55:00,
2013-08-23 02:56:00,67.5,67.1,30.06,NNW,332,6.3,6.3,99,0.00,,,0.00,0.12,VWS V14.01,2013-08-23 06:56:00,
2013-08-23 02:57:00,67.4,67.0,30.05,NNW,328,5.2,6.3,99,0.00,,,0.00,0.73,VWS V14.01,2013-08-23 06:57:00,
2013-08-23 02:58:00,67.0,66.8,30.05,NW,315,6.6,6.8,99,0.00,,,0.00,0.12,VWS V14.01,2013-08-23 06:58:00,
2013-08-23 02:59:00,66.9,66.6,30.05,North,350,4.0,6.8,99,0.00,,,0.00,0.00,VWS V14.01,2013-08-23 06:59:00,
2013-08-23 03:00:00,66.8,66.6,30.05,NW,325,1.1,6.8,99,0.00,,,0.00,0.00,VWS V14.01,2013-08-23 07:00:00,
2013-08-23 03:01:00,66.8,66.6,30.05,NW,325,1.1,6.8,99,0.00,,,0.00,0.00,VWS V14.01,2013-08-23 07:01:00,
2013-08-23 03:03:00,66.8,66.6,30.05,NW,325,1.1,6.8,99,0.00,,,0.00,0.00,VWS V14.01,2013-08-23 07:03:00,
2013-08-23 03:04:00,66.8,66.6,30.04,North,0,0.0,6.8,99,0.00,,,0.00,0.00,VWS V14.01,2013-08-23 07:04:00,
2013-08-23 03:05:00,66.8,66.6,30.04,NW,308,3.0,6.8,99,0.00,,,0.00,0.00,VWS V14.01,2013-08-23 07:05:00,
2013-08-23 03:06:00,66.8,66.6,30.05,NW,317,2.0,6.8,99,0.00,,,0.00,0.00,VWS V14.01,2013-08-23 07:06:00,
2013-08-23 03:08:00,66.7,66.5,30.05,NNW,338,2.5,6.8,99,0.00,,,0.00,0.12,VWS V14.01,2013-08-23 07:08:00,
2013-08-23 03:11:00,66.6,66.5,30.05,NNW,327,2.8,6.8,99,0.00,,,0.00,0.00,VWS V14.01,2013-08-23 07:11:00,
2013-08-23 03:12:00,66.7,66.6,30.05,North,3,2.3,6.8,99,0.00,,,0.00,0.00,VWS V14.01,2013-08-23 07:12:00,
2013-08-23 03:13:00,66.6,66.4,30.05,NW,326,0.0,6.8,99,0.00,,,0.00,0.00,VWS V14.01,2013-08-23 07:13:00,
2013-08-23 03:16:00,66.7,66.5,30.06,NW,318,2.2,6.8,99,0.00,,,0.00,0.00,VWS V14.01,2013-08-23 07:16:00,
2013-08-23 03:17:00,66.6,66.4,30.04,NNE,12,1.5,6.8,100,0.00,,,0.00,0.00,VWS V14.01,2013-08-23 07:17:00,
2013-08-23 03:19:00,66.5,66.3,30.05,NNE,12,0.0,6.8,100,0.00,,,0.00,0.00,VWS V14.01,2013-08-23 07:19:00,
2013-08-23 03:20:00,66.5,66.4,30.07,NW,325,0.0,6.8,100,0.00,,,0.00,0.00,VWS V14.01,2013-08-23 07:20:00,
2013-08-23 03:22:00,66.5,66.4,30.04,NW,305,1.8,6.8,100,0.00,,,0.00,0.00,VWS V14.01,2013-08-23 07:22:00,
2013-08-23 03:23:00,66.5,66.5,30.04,NW,311,3.7,6.8,100,0.00,,,0.00,0.00,VWS V14.01,2013-08-23 07:23:00,
2013-08-23 03:24:00,66.6,66.5,30.05,NW,317,4.2,6.8,100,0.00,,,0.00,0.00,VWS V14.01,2013-08-23 07:24:00,
2013-08-23 03:28:00,66.4,66.3,30.05,North,352,0.0,6.8,100,0.00,,,0.00,0.00,VWS V14.01,2013-08-23 07:28:00,
2013-08-23 03:29:00,66.3,66.3,30.06,NNW,346,5.2,6.8,100,0.00,,,0.00,0.00,VWS V14.01,2013-08-23 07:29:00,
2013-08-23 03:30:00,66.3,66.3,30.04,North,350,0.0,6.8,100,0.00,,,0.00,0.00,VWS V14.01,2013-08-23 07:30:00,
2013-08-23 03:34:00,66.2,66.3,30.04,NW,313,0.0,6.8,100,0.00,,,0.00,0.06,VWS V14.01,2013-08-23 07:34:00,
2013-08-23 03:35:00,66.1,66.1,30.04,NNW,328,2.0,6.8,100,0.00,,,0.00,0.00,VWS V14.01,2013-08-23 07:35:00,
2013-08-23 03:36:00,66.1,66.1,30.04,NNE,17,0.0,6.8,100,0.00,,,0.00,0.00,VWS V14.01,2013-08-23 07:36:00,
2013-08-23 03:38:00,66.2,66.2,30.04,NNW,343,0.0,6.8,100,0.00,,,0.00,0.00,VWS V14.01,2013-08-23 07:38:00,
2013-08-23 03:41:00,66.2,66.2,30.04,West,276,1.0,6.8,100,0.00,,,0.00,0.00,VWS V14.01,2013-08-23 07:41:00,
2013-08-23 03:42:00,66.2,66.2,30.04,NNW,334,4.0,6.8,100,0.00,,,0.00,0.00,VWS V14.01,2013-08-23 07:42:00,
2013-08-23 03:43:00,66.2,66.2,30.03,North,349,4.7,6.8,100,0.00,,,0.00,0.00,VWS V14.01,2013-08-23 07:43:00,
2013-08-23 03:45:00,66.2,66.2,30.04,NW,316,1.5,6.8,100,0.00,,,0.00,0.00,VWS V14.01,2013-08-23 07:45:00,
2013-08-23 03:46:00,66.2,66.2,30.05,WNW,299,3.7,6.8,100,0.00,,,0.00,0.00,VWS V14.01,2013-08-23 07:46:00,
2013-08-23 03:48:00,66.1,66.2,30.05,NNW,342,0.0,6.8,100,0.00,,,0.00,0.00,VWS V14.01,2013-08-23 07:48:00,
2013-08-23 03:49:00,66.1,66.1,30.04,NNE,26,3.4,6.8,100,0.00,,,0.00,0.00,VWS V14.01,2013-08-23 07:49:00,
2013-08-23 03:52:00,66.1,66.1,30.03,NNW,331,2.3,6.8,100,0.00,,,0.00,0.00,VWS V14.01,2013-08-23 07:52:00,
2013-08-23 03:53:00,66.2,66.2,30.04,NNE,15,0.0,6.8,100,0.00,,,0.00,0.00,VWS V14.01,2013-08-23 07:53:00,
2013-08-23 03:55:00,66.0,66.0,30.04,NNW,329,1.6,6.8,100,0.00,,,0.00,0.00,VWS V14.01,2013-08-23 07:55:00,
2013-08-23 03:58:00,65.7,65.7,30.04,North,7,0.0,6.8,100,0.00,,,0.00,0.00,VWS V14.01,2013-08-23 07:58:00,
2013-08-23 03:59:00,65.9,65.9,30.03,NE,42,0.0,6.8,100,0.00,,,0.00,0.00,VWS V14.01,2013-08-23 07:59:00,
2013-08-23 04:00:00,65.9,65.9,30.03,NW,325,0.0,6.8,100,0.00,,,0.00,0.00,VWS V14.01,2013-08-23 08:00:00,
2013-08-23 04:01:00,66.1,66.1,30.04,NNE,14,1.5,6.8,100,0.00,,,0.00,0.00,VWS V14.01,2013-08-23 08:01:00,
2013-08-23 04:02:00,65.9,65.9,30.04,NW,325,0.0,1.5,100,0.00,,,0.00,0.00,VWS V14.01,2013-08-23 08:02:00,
2013-08-23 04:03:00,65.8,65.8,30.04,NNW,328,0.0,0.0,100,0.00,,,0.00,0.43,VWS V14.01,2013-08-23 08:03:00,
2013-08-23 04:04:00,65.8,65.8,30.04,NNW,328,0.0,0.0,100,0.00,,,0.00,0.73,VWS V14.01,2013-08-23 08:04:00,
2013-08-23 04:05:00,65.8,65.8,30.03,North,5,0.0,0.0,100,0.00,,,0.00,0.43,VWS V14.01,2013-08-23 08:05:00,
2013-08-23 04:06:00,65.8,65.8,30.04,NNE,16,1.0,1.0,100,0.00,,,0.00,0.00,VWS V14.01,2013-08-23 08:06:00,
2013-08-23 04:07:00,65.9,65.9,30.04,North,9,3.4,3.4,100,0.00,,,0.00,0.00,VWS V14.01,2013-08-23 08:07:00,
2013-08-23 04:08:00,65.7,65.7,30.04,NNE,31,0.0,3.4,100,0.00,,,0.00,0.00,VWS V14.01,2013-08-23 08:08:00,
2013-08-23 04:09:00,65.8,65.8,30.04,NNE,13,0.0,1.8,100,0.00,,,0.00,0.00,VWS V14.01,2013-08-23 08:09:00,
2013-08-23 04:10:00,65.5,65.5,30.05,NNE,15,0.0,0.0,100,0.00,,,0.00,0.00,VWS V14.01,2013-08-23 08:10:00,
2013-08-23 04:11:00,65.6,65.6,30.06,North,10,0.0,0.0,100,0.00,,,0.00,0.00,VWS V14.01,2013-08-23 08:11:00,
2013-08-23 04:12:00,65.6,65.6,30.05,WSW,247,0.0,0.0,100,0.00,,,0.00,0.00,VWS V14.01,2013-08-23 08:12:00,
2013-08-23 04:13:00,65.7,65.8,30.05,NW,325,0.0,0.0,100,0.00,,,0.00,0.00,VWS V14.01,2013-08-23 08:13:00,
2013-08-23 04:14:00,65.7,65.7,30.04,North,5,1.0,1.0,100,0.00,,,0.00,0.43,VWS V14.01,2013-08-23 08:14:00,
2013-08-23 04:15:00,65.4,65.4,30.05,North,8,0.0,0.0,100,0.00,,,0.00,0.00,VWS V14.01,2013-08-23 08:15:00,
2013-08-23 04:16:00,65.4,65.4,30.04,NNE,29,0.0,0.0,100,0.00,,,0.00,0.00,VWS V14.01,2013-08-23 08:16:00,
2013-08-23 04:17:00,65.4,65.4,30.04,NNE,29,0.0,0.0,100,0.00,,,0.00,0.00,VWS V14.01,2013-08-23 08:17:00,
2013-08-23 04:18:00,65.4,65.4,30.04,NNE,29,0.0,0.0,100,0.00,,,0.00,0.00,VWS V14.01,2013-08-23 08:18:00,
2013-08-23 04:19:00,65.6,65.6,30.04,NW,326,2.2,2.8,100,0.00,,,0.00,0.00,VWS V14.01,2013-08-23 08:19:00,
2013-08-23 04:20:00,65.4,65.4,30.04,NE,38,0.0,2.2,100,0.00,,,0.00,0.73,VWS V14.01,2013-08-23 08:20:00,
2013-08-23 04:21:00,65.2,65.2,30.04,NNE,27,0.0,1.3,100,0.00,,,0.00,0.00,VWS V14.01,2013-08-23 08:21:00,
2013-08-23 04:22:00,65.3,64.5,30.04,NW,311,0.0,0.0,97,0.00,,,0.00,0.00,VWS V14.01,2013-08-23 08:22:00,
2013-08-23 04:23:00,65.4,65.4,30.04,NNW,332,0.0,0.0,100,0.00,,,0.00,0.00,VWS V14.01,2013-08-23 08:23:00,
2013-08-23 04:24:00,65.4,65.4,30.04,NNW,332,0.0,0.0,100,0.00,,,0.00,0.00,VWS V14.01,2013-08-23 08:24:00,
2013-08-23 04:25:00,65.4,65.4,30.04,NNW,343,1.3,1.3,100,0.00,,,0.00,0.49,VWS V14.01,2013-08-23 08:25:00,
2013-08-23 04:26:00,65.4,65.4,30.05,NNW,337,0.0,1.3,100,0.00,,,0.00,0.00,VWS V14.01,2013-08-23 08:26:00,
2013-08-23 04:27:00,65.4,65.4,30.04,NE,51,0.0,0.0,100,0.00,,,0.00,0.43,VWS V14.01,2013-08-23 08:27:00,
2013-08-23 04:28:00,65.6,65.6,30.04,NW,305,0.0,0.0,100,0.00,,,0.00,0.00,VWS V14.01,2013-08-23 08:28:00,
2013-08-23 04:29:00,65.6,65.6,30.04,NW,311,0.0,0.0,100,0.00,,,0.00,0.00,VWS V14.01,2013-08-23 08:29:00,
2013-08-23 04:30:00,65.5,65.5,30.04,North,352,0.0,1.5,100,0.00,,,0.00,0.00,VWS V14.01,2013-08-23 08:30:00,
2013-08-23 04:31:00,65.5,65.5,30.04,NE,45,0.0,0.0,100,0.00,,,0.00,0.00,VWS V14.01,2013-08-23 08:31:00,
2013-08-23 04:32:00,65.5,65.5,30.04,NE,44,0.0,0.0,100,0.00,,,0.00,0.00,VWS V14.01,2013-08-23 08:32:00,
2013-08-23 04:33:00,65.3,65.3,30.04,NNE,18,0.0,0.0,100,0.00,,,0.00,0.00,VWS V14.01,2013-08-23 08:33:00,
2013-08-23 04:34:00,65.5,65.5,30.04,WNW,299,0.0,0.0,100,0.00,,,0.00,0.00,VWS V14.01,2013-08-23 08:34:00,
2013-08-23 04:35:00,65.4,65.4,30.06,West,280,0.0,0.0,100,0.00,,,0.00,0.00,VWS V14.01,2013-08-23 08:35:00,
2013-08-23 04:36:00,65.4,65.4,30.04,North,8,0.0,1.3,100,0.00,,,0.00,0.00,VWS V14.01,2013-08-23 08:36:00,
2013-08-23 04:37:00,65.5,65.5,30.04,NW,310,2.0,2.0,100,0.00,,,0.00,0.00,VWS V14.01,2013-08-23 08:37:00,
2013-08-23 04:38:00,65.3,65.3,30.04,North,10,1.3,2.0,100,0.00,,,0.00,0.00,VWS V14.01,2013-08-23 08:38:00,
2013-08-23 04:39:00,65.3,65.3,30.03,North,10,0.0,1.3,100,0.00,,,0.00,0.00,VWS V14.01,2013-08-23 08:39:00,
2013-08-23 04:40:00,65.4,65.4,30.04,WNW,302,0.0,0.0,100,0.00,,,0.00,0.00,VWS V14.01,2013-08-23 08:40:00,
2013-08-23 04:41:00,65.4,65.4,30.04,NE,50,0.0,0.0,100,0.00,,,0.00,0.00,VWS V14.01,2013-08-23 08:41:00,
2013-08-23 04:42:00,65.3,65.3,30.04,NNW,337,0.0,0.0,100,0.00,,,0.00,0.00,VWS V14.01,2013-08-23 08:42:00,
2013-08-23 04:43:00,65.3,65.3,30.04,NNW,327,1.0,1.0,100,0.00,,,0.00,0.00,VWS V14.01,2013-08-23 08:43:00,
2013-08-23 04:44:00,65.3,65.3,30.04,NNW,327,1.0,1.0,100,0.00,,,0.00,0.00,VWS V14.01,2013-08-23 08:44:00,
2013-08-23 04:45:00,65.2,65.2,30.04,North,6,2.7,2.7,100,0.00,,,0.00,0.00,VWS V14.01,2013-08-23 08:45:00,
2013-08-23 04:46:00,65.3,65.3,30.04,ESE,112,0.0,2.7,100,0.00,,,0.00,0.00,VWS V14.01,2013-08-23 08:46:00,
2013-08-23 04:47:00,65.3,65.3,30.04,North,351,0.0,0.0,100,0.00,,,0.00,0.00,VWS V14.01,2013-08-23 08:47:00,
2013-08-23 04:48:00,65.3,65.3,30.04,NE,41,0.0,1.0,100,0.00,,,0.00,0.00,VWS V14.01,2013-08-23 08:48:00,
2013-08-23 04:49:00,65.2,65.2,30.04,North,351,0.0,0.0,100,0.00,,,0.00,0.00,VWS V14.01,2013-08-23 08:49:00,
2013-08-23 04:50:00,65.3,65.3,30.03,NW,307,1.3,1.3,100,0.00,,,0.00,0.00,VWS V14.01,2013-08-23 08:50:00,
2013-08-23 04:51:00,65.4,65.4,30.04,NW,324,0.0,2.8,100,0.00,,,0.00,0.00,VWS V14.01,2013-08-23 08:51:00,
2013-08-23 04:52:00,65.1,65.1,30.04,NW,322,0.0,0.0,100,0.00,,,0.00,0.00,VWS V14.01,2013-08-23 08:52:00,
2013-08-23 04:53:00,65.3,65.4,30.04,WNW,293,2.2,2.2,100,0.00,,,0.00,0.00,VWS V14.01,2013-08-23 08:53:00,
2013-08-23 04:54:00,65.2,65.2,30.04,NNW,328,2.2,2.2,100,0.00,,,0.00,0.00,VWS V14.01,2013-08-23 08:54:00,
2013-08-23 04:55:00,64.9,64.9,30.05,NNW,339,0.0,2.2,100,0.00,,,0.00,0.12,VWS V14.01,2013-08-23 08:55:00,
2013-08-23 04:56:00,64.9,64.9,30.05,NNW,340,0.0,0.0,100,0.00,,,0.00,0.00,VWS V14.01,2013-08-23 08:56:00,
2013-08-23 04:57:00,65.0,65.0,30.04,NNW,340,0.0,0.0,100,0.00,,,0.00,0.00,VWS V14.01,2013-08-23 08:57:00,
2013-08-23 04:58:00,65.2,65.2,30.04,NNW,332,0.0,0.0,100,0.00,,,0.00,0.00,VWS V14.01,2013-08-23 08:58:00,
2013-08-23 04:59:00,64.8,64.8,30.04,NNW,332,0.0,0.0,100,0.00,,,0.00,0.00,VWS V14.01,2013-08-23 08:59:00,
2013-08-23 05:00:00,64.8,64.8,30.04,North,0,0.0,0.0,100,0.00,,,0.00,0.00,VWS V14.01,2013-08-23 09:00:00,
2013-08-23 05:01:00,65.0,65.0,30.04,NNE,19,0.0,0.0,100,0.00,,,0.00,0.43,VWS V14.01,2013-08-23 09:01:00,
2013-08-23 05:02:00,64.9,64.9,30.03,North,8,0.0,0.0,100,0.00,,,0.00,0.00,VWS V14.01,2013-08-23 09:02:00,
2013-08-23 05:03:00,64.7,64.7,30.04,North,8,0.0,0.0,100,0.00,,,0.00,0.00,VWS V14.01,2013-08-23 09:03:00,
2013-08-23 05:04:00,64.7,64.7,30.05,NE,37,0.0,0.0,100,0.00,,,0.00,0.43,VWS V14.01,2013-08-23 09:04:00,
2013-08-23 05:05:00,64.6,64.6,30.04,NE,37,0.0,0.0,100,0.00,,,0.00,0.00,VWS V14.01,2013-08-23 09:05:00,
2013-08-23 05:06:00,64.4,64.4,30.04,NE,37,0.0,0.0,100,0.00,,,0.00,0.43,VWS V14.01,2013-08-23 09:06:00,
2013-08-23 05:07:00,64.5,64.5,30.04,NE,42,0.0,0.0,100,0.00,,,0.00,0.00,VWS V14.01,2013-08-23 09:07:00,
2013-08-23 05:08:00,64.2,64.2,30.04,NE,42,0.0,0.0,100,0.00,,,0.00,0.00,VWS V14.01,2013-08-23 09:08:00,
2013-08-23 05:09:00,64.5,64.5,30.04,NNE,13,0.0,0.0,100,0.00,,,0.00,0.00,VWS V14.01,2013-08-23 09:09:00,
2013-08-23 05:10:00,64.4,64.4,30.04,NNE,13,0.0,0.0,100,0.00,,,0.00,0.43,VWS V14.01,2013-08-23 09:10:00,
2013-08-23 05:11:00,64.4,64.4,30.04,NNE,13,0.0,0.0,100,0.00,,,0.00,0.43,VWS V14.01,2013-08-23 09:11:00,
2013-08-23 05:12:00,64.7,64.7,30.04,NW,319,2.0,2.0,100,0.00,,,0.00,0.00,VWS V14.01,2013-08-23 09:12:00,
2013-08-23 05:13:00,64.5,64.5,30.04,NW,305,0.0,2.0,100,0.00,,,0.00,0.00,VWS V14.01,2013-08-23 09:13:00,
2013-08-23 05:14:00,64.6,64.6,30.04,NNE,30,0.0,0.0,100,0.00,,,0.00,0.00,VWS V14.01,2013-08-23 09:14:00,
2013-08-23 05:15:00,64.8,64.8,30.05,NNE,15,1.3,2.8,100,0.00,,,0.00,0.00,VWS V14.01,2013-08-23 09:15:00,
2013-08-23 05:16:00,64.6,64.6,30.05,WNW,289,0.0,1.3,100,0.00,,,0.00,0.00,VWS V14.01,2013-08-23 09:16:00,
2013-08-23 05:17:00,64.6,64.6,30.04,WNW,289,0.0,0.0,100,0.00,,,0.00,0.00,VWS V14.01,2013-08-23 09:17:00,
2013-08-23 05:18:00,64.6,64.6,30.04,SW,215,0.0,0.0,100,0.00,,,0.00,0.00,VWS V14.01,2013-08-23 09:18:00,
2013-08-23 05:19:00,64.6,64.6,30.05,North,360,0.0,1.6,100,0.00,,,0.00,0.00,VWS V14.01,2013-08-23 09:19:00,
2013-08-23 05:20:00,64.7,64.7,30.04,NE,51,0.0,0.0,100,0.00,,,0.00,0.00,VWS V14.01,2013-08-23 09:20:00,
2013-08-23 05:21:00,64.4,64.4,30.04,NNW,345,0.0,0.0,100,0.00,,,0.00,0.00,VWS V14.01,2013-08-23 09:21:00,
2013-08-23 05:22:00,64.8,64.8,30.04,NNE,25,3.5,3.5,100,0.00,,,0.00,0.00,VWS V14.01,2013-08-23 09:22:00,
2013-08-23 05:23:00,64.6,64.6,30.06,NNW,347,0.0,3.5,100,0.00,,,0.00,0.12,VWS V14.01,2013-08-23 09:23:00,
2013-08-23 05:24:00,64.6,64.6,30.05,NNW,347,0.0,0.0,100,0.00,,,0.00,0.12,VWS V14.01,2013-08-23 09:24:00,
2013-08-23 05:25:00,64.7,64.7,30.05,ENE,58,1.0,1.0,100,0.00,,,0.00,0.00,VWS V14.01,2013-08-23 09:25:00,
2013-08-23 05:26:00,64.3,64.3,30.05,NNE,29,0.0,0.0,100,0.00,,,0.00,0.00,VWS V14.01,2013-08-23 09:26:00,
2013-08-23 05:27:00,64.6,64.6,30.04,NNW,327,1.0,1.0,100,0.00,,,0.00,0.00,VWS V14.01,2013-08-23 09:27:00,
2013-08-23 05:28:00,64.6,64.6,30.04,NW,312,0.0,1.0,100,0.00,,,0.00,0.43,VWS V14.01,2013-08-23 09:28:00,
2013-08-23 05:29:00,64.4,64.4,30.05,NW,312,0.0,0.0,100,0.00,,,0.00,0.00,VWS V14.01,2013-08-23 09:29:00,
2013-08-23 05:30:00,64.7,64.7,30.03,North,360,2.0,2.0,100,0.00,,,0.00,0.00,VWS V14.01,2013-08-23 09:30:00,
2013-08-23 05:31:00,64.6,64.6,30.04,NE,44,0.0,0.0,100,0.00,,,0.00,0.00,VWS V14.01,2013-08-23 09:31:00,
2013-08-23 05:32:00,64.5,64.5,30.04,NNE,23,0.0,0.0,100,0.00,,,0.00,0.00,VWS V14.01,2013-08-23 09:32:00,
2013-08-23 05:33:00,64.4,64.4,30.05,NNE,23,0.0,0.0,100,0.00,,,0.00,0.00,VWS V14.01,2013-08-23 09:33:00,
2013-08-23 05:34:00,64.5,64.5,30.05,North,2,0.0,0.0,100,0.00,,,0.00,0.00,VWS V14.01,2013-08-23 09:34:00,
2013-08-23 05:35:00,64.4,64.4,30.04,North,0,0.0,0.0,100,0.00,,,0.00,0.12,VWS V14.01,2013-08-23 09:35:00,
2013-08-23 05:36:00,64.6,64.6,30.04,North,351,0.0,3.9,100,0.00,,,0.00,0.00,VWS V14.01,2013-08-23 09:36:00,
2013-08-23 05:37:00,64.5,64.5,30.06,NE,40,0.0,0.0,100,0.00,,,0.00,0.00,VWS V14.01,2013-08-23 09:37:00,
2013-08-23 05:38:00,64.4,64.4,30.05,NNE,13,0.0,0.0,100,0.00,,,0.00,0.12,VWS V14.01,2013-08-23 09:38:00,
2013-08-23 05:39:00,64.3,64.3,30.05,NNE,13,0.0,0.0,100,0.00,,,0.00,0.43,VWS V14.01,2013-08-23 09:39:00,
2013-08-23 05:40:00,64.3,64.3,30.05,NE,36,0.0,0.0,100,0.00,,,0.00,0.43,VWS V14.01,2013-08-23 09:40:00,
2013-08-23 05:41:00,64.2,64.2,30.05,NE,36,0.0,0.0,100,0.00,,,0.00,0.73,VWS V14.01,2013-08-23 09:41:00,
2013-08-23 05:42:00,64.2,64.2,30.05,NNE,32,1.0,1.0,100,0.00,,,0.00,0.00,VWS V14.01,2013-08-23 09:42:00,
2013-08-23 05:43:00,64.6,64.6,30.08,NNW,343,1.3,1.3,100,0.00,,,0.00,0.00,VWS V14.01,2013-08-23 09:43:00,
2013-08-23 05:44:00,64.3,64.3,30.06,NNE,31,1.0,1.3,100,0.00,,,0.00,0.00,VWS V14.01,2013-08-23 09:44:00,
2013-08-23 05:45:00,64.3,64.3,30.05,NNE,26,1.0,1.0,100,0.00,,,0.00,0.00,VWS V14.01,2013-08-23 09:45:00,
2013-08-23 05:46:00,64.1,64.1,30.06,NNE,26,0.0,1.0,100,0.00,,,0.00,0.00,VWS V14.01,2013-08-23 09:46:00,
2013-08-23 05:47:00,64.1,64.1,30.05,NE,45,0.0,0.0,100,0.00,,,0.00,0.00,VWS V14.01,2013-08-23 09:47:00,
2013-08-23 05:48:00,64.1,64.1,30.05,NE,41,0.0,0.0,100,0.00,,,0.00,0.00,VWS V14.01,2013-08-23 09:48:00,
2013-08-23 05:49:00,63.8,63.8,30.04,NE,40,0.0,0.0,100,0.00,,,0.00,0.00,VWS V14.01,2013-08-23 09:49:00,
2013-08-23 05:50:00,63.9,63.9,30.04,NE,41,0.0,0.0,100,0.00,,,0.00,0.00,VWS V14.01,2013-08-23 09:50:00,
2013-08-23 05:51:00,64.0,64.0,30.05,North,5,0.0,0.0,100,0.00,,,0.00,0.00,VWS V14.01,2013-08-23 09:51:00,
2013-08-23 05:52:00,64.0,64.0,30.05,NNE,17,0.0,0.0,100,0.00,,,0.00,0.00,VWS V14.01,2013-08-23 09:52:00,
2013-08-23 05:53:00,63.9,63.9,30.05,NNE,28,0.0,0.0,100,0.00,,,0.00,0.43,VWS V14.01,2013-08-23 09:53:00,
2013-08-23 05:54:00,64.0,64.0,30.05,NE,37,0.0,0.0,100,0.00,,,0.00,0.00,VWS V14.01,2013-08-23 09:54:00,
2013-08-23 05:55:00,63.7,63.7,30.07,NNE,25,0.0,0.0,100,0.00,,,0.00,0.00,VWS V14.01,2013-08-23 09:55:00,
2013-08-23 05:56:00,63.9,63.9,30.05,North,3,0.0,0.0,100,0.00,,,0.00,0.00,VWS V14.01,2013-08-23 09:56:00,
2013-08-23 05:57:00,63.8,63.9,30.06,NNE,25,0.0,0.0,100,0.00,,,0.00,0.12,VWS V14.01,2013-08-23 09:57:00,
2013-08-23 05:58:00,63.9,63.9,30.06,NNE,26,0.0,0.0,100,0.00,,,0.00,0.00,VWS V14.01,2013-08-23 09:58:00,
2013-08-23 05:59:00,64.0,64.0,30.05,North,4,0.0,0.0,100,0.00,,,0.00,0.00,VWS V14.01,2013-08-23 09:59:00,
2013-08-23 06:00:00,64.0,64.1,30.05,NNE,23,1.5,1.5,100,0.00,,,0.00,0.00,VWS V14.01,2013-08-23 10:00:00,
2013-08-23 06:01:00,63.9,63.9,30.05,NNE,24,0.0,1.5,100,0.00,,,0.00,0.00,VWS V14.01,2013-08-23 10:01:00,
2013-08-23 06:02:00,63.8,63.8,30.06,ENE,58,0.0,0.0,100,0.00,,,0.00,0.00,VWS V14.01,2013-08-23 10:02:00,
2013-08-23 06:03:00,63.9,63.3,30.06,ENE,57,0.0,0.0,98,0.00,,,0.00,0.00,VWS V14.01,2013-08-23 10:03:00,
2013-08-23 06:04:00,64.3,64.3,30.06,NNE,32,0.0,1.5,100,0.00,,,0.00,0.12,VWS V14.01,2013-08-23 10:04:00,
2013-08-23 06:05:00,64.2,64.2,30.06,NNE,16,0.0,0.0,100,0.00,,,0.00,0.00,VWS V14.01,2013-08-23 10:05:00,
2013-08-23 06:06:00,63.8,63.8,30.05,NNE,19,0.0,2.0,100,0.00,,,0.00,0.00,VWS V14.01,2013-08-23 10:06:00,
2013-08-23 06:07:00,64.1,64.1,30.05,NE,44,0.0,0.0,100,0.00,,,0.00,0.00,VWS V14.01,2013-08-23 10:07:00,
2013-08-23 06:08:00,64.0,64.0,30.05,NNE,28,1.5,1.5,100,0.00,,,0.00,0.00,VWS V14.01,2013-08-23 10:08:00,
2013-08-23 06:09:00,64.1,64.1,30.05,NNE,27,0.0,1.5,100,0.00,,,0.00,0.43,VWS V14.01,2013-08-23 10:09:00,
2013-08-23 06:10:00,64.1,64.1,30.05,NNE,27,0.0,1.5,100,0.00,,,0.00,0.00,VWS V14.01,2013-08-23 10:10:00,
2013-08-23 06:11:00,64.3,64.4,30.05,North,360,2.5,2.5,100,0.00,,,0.00,0.00,VWS V14.01,2013-08-23 10:11:00,
2013-08-23 06:12:00,64.2,64.2,30.06,NE,48,0.0,0.0,100,0.00,,,0.00,0.43,VWS V14.01,2013-08-23 10:12:00,
2013-08-23 06:13:00,64.0,64.0,30.06,NE,46,0.0,0.0,100,0.00,,,0.00,0.00,VWS V14.01,2013-08-23 10:13:00,
2013-08-23 06:14:00,63.9,63.9,30.06,NE,46,0.0,0.0,100,0.00,,,0.00,0.43,VWS V14.01,2013-08-23 10:14:00,
2013-08-23 06:15:00,64.0,64.0,30.06,NNE,24,0.0,0.0,100,0.00,,,0.00,0.43,VWS V14.01,2013-08-23 10:15:00,
2013-08-23 06:16:00,64.1,64.1,30.06,NE,51,0.0,1.6,100,0.00,,,0.00,0.00,VWS V14.01,2013-08-23 10:16:00,
2013-08-23 06:17:00,64.5,64.5,30.05,NNE,29,4.9,4.9,100,0.00,,,0.00,0.73,VWS V14.01,2013-08-23 10:17:00,
2013-08-23 06:18:00,64.5,64.5,30.05,NE,36,2.7,4.9,100,0.00,,,0.00,0.00,VWS V14.01,2013-08-23 10:18:00,
2013-08-23 06:19:00,64.4,64.4,30.06,ENE,66,2.3,2.7,100,0.00,,,0.00,0.00,VWS V14.01,2013-08-23 10:19:00,
2013-08-23 06:20:00,64.4,64.4,30.07,North,10,2.8,2.8,100,0.00,,,0.00,0.00,VWS V14.01,2013-08-23 10:20:00,
2013-08-23 06:21:00,64.6,64.7,30.06,NE,35,3.2,3.7,100,0.00,,,0.00,0.00,VWS V14.01,2013-08-23 10:21:00,
2013-08-23 06:22:00,64.4,64.4,30.06,NE,51,1.1,3.7,100,0.00,,,0.00,0.00,VWS V14.01,2013-08-23 10:22:00,
2013-08-23 06:23:00,64.3,64.3,30.06,NE,40,0.0,0.0,100,0.00,,,0.00,0.43,VWS V14.01,2013-08-23 10:23:00,
2013-08-23 06:24:00,64.5,64.5,30.06,NE,45,1.6,1.6,100,0.00,,,0.00,0.00,VWS V14.01,2013-08-23 10:24:00,
2013-08-23 06:25:00,64.5,64.5,30.06,NE,45,1.6,1.6,100,0.00,,,0.00,0.00,VWS V14.01,2013-08-23 10:25:00,
2013-08-23 06:26:00,64.4,64.4,30.06,NNE,33,1.1,2.5,100,0.00,,,0.00,0.00,VWS V14.01,2013-08-23 10:26:00,
2013-08-23 06:27:00,64.6,64.6,30.06,NE,35,3.0,3.0,100,0.00,,,0.00,0.00,VWS V14.01,2013-08-23 10:27:00,
2013-08-23 06:28:00,64.2,64.2,30.05,NE,36,0.0,3.0,100,0.00,,,0.00,0.00,VWS V14.01,2013-08-23 10:28:00,
2013-08-23 06:29:00,64.1,64.1,30.06,NNE,28,2.2,3.4,100,0.00,,,0.00,0.00,VWS V14.01,2013-08-23 10:29:00,
2013-08-23 06:30:00,64.3,64.3,30.06,NNE,27,1.8,2.2,100,0.00,,,0.00,0.00,VWS V14.01,2013-08-23 10:30:00,
2013-08-23 06:31:00,64.2,64.2,30.06,NE,45,1.5,3.4,100,0.00,,,0.00,0.00,VWS V14.01,2013-08-23 10:31:00,
2013-08-23 06:32:00,64.3,64.3,30.06,NE,45,2.2,2.2,100,0.00,,,0.00,0.12,VWS V14.01,2013-08-23 10:32:00,
2013-08-23 06:33:00,64.1,64.1,30.07,NE,46,0.0,2.2,100,0.00,,,0.00,0.00,VWS V14.01,2013-08-23 10:33:00,
2013-08-23 06:34:00,63.9,63.9,30.07,NNE,27,0.0,3.9,100,0.00,,,0.00,0.00,VWS V14.01,2013-08-23 10:34:00,
2013-08-23 06:35:00,64.4,64.4,30.05,ENE,64,3.9,3.9,100,0.00,,,0.00,0.43,VWS V14.01,2013-08-23 10:35:00,
2013-08-23 06:36:00,64.4,64.4,30.07,NE,47,2.2,4.5,100,0.00,,,0.00,0.00,VWS V14.01,2013-08-23 10:36:00,
2013-08-23 06:37:00,64.2,63.1,30.06,NE,39,0.0,1.8,96,0.00,,,0.00,0.00,VWS V14.01,2013-08-23 10:37:00,
2013-08-23 06:38:00,64.0,64.0,30.07,NE,36,2.2,2.2,100,0.00,,,0.00,0.92,VWS V14.01,2013-08-23 10:38:00,
2013-08-23 06:39:00,64.3,64.3,30.07,NE,44,4.5,4.5,100,0.00,,,0.00,0.00,VWS V14.01,2013-08-23 10:39:00,
2013-08-23 06:40:00,64.5,64.5,30.06,NE,42,3.9,4.5,100,0.00,,,0.00,0.06,VWS V14.01,2013-08-23 10:40:00,
2013-08-23 06:41:00,64.1,64.1,30.07,NE,35,1.3,3.9,100,0.00,,,0.00,0.67,VWS V14.01,2013-08-23 10:41:00,
2013-08-23 06:42:00,64.0,64.0,30.07,NE,41,1.1,1.6,100,0.00,,,0.00,1.22,VWS V14.01,2013-08-23 10:42:00,
2013-08-23 06:43:00,64.0,64.0,30.06,NE,34,0.0,2.7,100,0.00,,,0.00,0.43,VWS V14.01,2013-08-23 10:43:00,
2013-08-23 06:44:00,64.1,64.1,30.07,NNE,12,1.5,1.5,100,0.00,,,0.00,0.00,VWS V14.01,2013-08-23 10:44:00,
2013-08-23 06:45:00,64.1,64.1,30.07,NE,35,3.7,3.7,100,0.00,,,0.00,1.22,VWS V14.01,2013-08-23 10:45:00,
2013-08-23 06:46:00,63.9,63.9,30.07,NE,39,0.0,0.0,100,0.00,,,0.00,0.12,VWS V14.01,2013-08-23 10:46:00,
2013-08-23 06:47:00,64.1,64.1,30.07,NE,41,4.5,4.5,100,0.00,,,0.00,1.53,VWS V14.01,2013-08-23 10:47:00,
2013-08-23 06:48:00,63.9,63.8,30.07,NE,48,2.0,4.5,100,0.00,,,0.00,2.26,VWS V14.01,2013-08-23 10:48:00,
2013-08-23 06:49:00,63.7,63.6,30.07,NE,44,1.0,2.0,99,0.00,,,0.00,2.26,VWS V14.01,2013-08-23 10:49:00,
2013-08-23 06:50:00,63.6,63.4,30.07,NNE,30,2.8,2.8,99,0.00,,,0.00,1.95,VWS V14.01,2013-08-23 10:50:00,
2013-08-23 06:51:00,63.9,63.6,30.06,NE,53,2.7,2.8,99,0.00,,,0.00,2.26,VWS V14.01,2013-08-23 10:51:00,
2013-08-23 06:52:00,64.0,63.7,30.07,NE,39,3.9,3.9,99,0.00,,,0.00,2.26,VWS V14.01,2013-08-23 10:52:00,
2013-08-23 06:53:00,63.8,63.3,30.07,NE,38,2.7,2.7,98,0.00,,,0.00,2.50,VWS V14.01,2013-08-23 10:53:00,
2013-08-23 06:54:00,63.7,63.0,30.08,NNE,33,3.0,3.0,98,0.00,,,0.00,3.48,VWS V14.01,2013-08-23 10:54:00,
2013-08-23 06:55:00,64.3,63.7,30.08,NE,40,5.1,5.1,98,0.00,,,0.00,3.48,VWS V14.01,2013-08-23 10:55:00,
2013-08-23 06:56:00,64.1,63.2,30.07,NE,52,3.5,3.9,97,0.00,,,0.00,4.46,VWS V14.01,2013-08-23 10:56:00,
2013-08-23 06:57:00,63.9,62.8,30.08,NE,48,2.8,3.9,96,0.00,,,0.00,4.70,VWS V14.01,2013-08-23 10:57:00,
2013-08-23 06:58:00,64.3,63.0,30.08,NNE,13,3.2,3.2,95,0.00,,,0.00,4.70,VWS V14.01,2013-08-23 10:58:00,
2013-08-23 06:59:00,64.3,63.0,30.08,NNE,13,3.2,3.2,95,0.00,,,0.00,4.70,VWS V14.01,2013-08-23 10:59:00,
2013-08-23 07:00:00,63.8,62.3,30.10,NE,47,3.9,3.9,95,0.00,,,0.00,6.65,VWS V14.01,2013-08-23 11:00:00,
2013-08-23 07:01:00,63.4,61.8,30.08,NE,44,1.5,3.9,95,0.00,,,0.00,7.14,VWS V14.01,2013-08-23 11:01:00,
2013-08-23 07:02:00,63.4,61.8,30.07,NE,44,2.2,2.2,94,0.00,,,0.00,7.14,VWS V14.01,2013-08-23 11:02:00,
2013-08-23 07:03:00,63.4,60.8,30.08,NE,38,1.1,2.7,91,0.00,,,0.00,8.12,VWS V14.01,2013-08-23 11:03:00,
2013-08-23 07:04:00,63.7,62.2,30.08,NE,54,2.3,2.3,95,0.00,,,0.00,9.71,VWS V14.01,2013-08-23 11:04:00,
2013-08-23 07:05:00,63.5,61.8,30.08,NNE,31,1.8,3.5,94,0.00,,,0.00,11.42,VWS V14.01,2013-08-23 11:05:00,
2013-08-23 07:06:00,63.2,61.6,30.08,NE,46,2.7,3.5,94,0.00,,,0.00,12.03,VWS V14.01,2013-08-23 11:06:00,
2013-08-23 07:07:00,63.5,61.8,30.07,NNE,22,4.2,4.2,94,0.00,,,0.00,12.27,VWS V14.01,2013-08-23 11:07:00,
2013-08-23 07:08:00,63.6,61.8,30.08,NNE,18,4.2,4.5,94,0.00,,,0.00,13.49,VWS V14.01,2013-08-23 11:08:00,
2013-08-23 07:09:00,63.9,61.8,30.07,NNE,17,4.2,4.5,93,0.00,,,0.00,14.47,VWS V14.01,2013-08-23 11:09:00,
2013-08-23 07:10:00,63.4,60.9,30.08,ENE,61,3.9,5.9,92,0.00,,,0.00,14.22,VWS V14.01,2013-08-23 11:10:00,
2013-08-23 07:11:00,63.1,60.6,30.08,NNE,30,2.3,3.9,92,0.00,,,0.00,14.47,VWS V14.01,2013-08-23 11:11:00,
2013-08-23 07:12:00,63.1,60.6,30.08,ENE,70,1.1,4.0,92,0.00,,,0.00,18.50,VWS V14.01,2013-08-23 11:12:00,
2013-08-23 07:13:00,63.2,60.6,30.09,NE,46,5.1,5.1,91,0.00,,,0.00,26.37,VWS V14.01,2013-08-23 11:13:00,
2013-08-23 07:14:00,63.4,60.8,30.07,NE,46,2.7,5.1,91,0.00,,,0.00,31.50,VWS V14.01,2013-08-23 11:14:00,
2013-08-23 07:15:00,63.6,60.7,30.08,ENE,60,3.9,3.9,90,0.00,,,0.00,33.03,VWS V14.01,2013-08-23 11:15:00,
2013-08-23 07:16:00,63.5,60.5,30.08,NNE,29,2.7,3.9,90,0.00,,,0.00,34.00,VWS V14.01,2013-08-23 11:16:00,
2013-08-23 07:17:00,63.5,60.0,30.08,ENE,67,2.2,2.2,88,0.00,,,0.00,38.89,VWS V14.01,2013-08-23 11:17:00,
2013-08-23 07:18:00,64.0,60.4,30.09,NE,39,4.4,4.4,88,0.00,,,0.00,38.89,VWS V14.01,2013-08-23 11:18:00,
2013-08-23 07:19:00,64.0,60.1,30.09,NE,36,3.0,4.4,87,0.00,,,0.00,41.33,VWS V14.01,2013-08-23 11:19:00,
2013-08-23 07:20:00,64.0,59.9,30.08,ESE,103,1.1,3.4,86,0.00,,,0.00,43.47,VWS V14.01,2013-08-23 11:20:00,
2013-08-23 07:21:00,63.6,59.2,30.08,ENE,71,4.2,4.2,86,0.00,,,0.00,45.30,VWS V14.01,2013-08-23 11:21:00,
2013-08-23 07:22:00,63.6,59.3,30.08,NE,39,3.4,4.2,86,0.00,,,0.00,46.95,VWS V14.01,2013-08-23 11:22:00,
2013-08-23 07:23:00,63.8,59.4,30.08,NE,48,2.8,3.4,86,0.00,,,0.00,48.84,VWS V14.01,2013-08-23 11:23:00,
2013-08-23 07:24:00,63.6,59.2,30.09,NE,42,1.3,4.2,85,0.00,,,0.00,51.10,VWS V14.01,2013-08-23 11:24:00,
2013-08-23 07:25:00,63.8,59.1,30.09,NNE,33,4.5,4.5,85,0.00,,,0.00,53.79,VWS V14.01,2013-08-23 11:25:00,
2013-08-23 07:26:00,63.8,59.1,30.09,NNE,33,4.5,4.5,85,0.00,,,0.00,53.79,VWS V14.01,2013-08-23 11:26:00,
2013-08-23 07:27:00,63.7,58.9,30.08,NE,39,4.0,4.0,84,0.00,,,0.00,58.42,VWS V14.01,2013-08-23 11:27:00,
2013-08-23 07:28:00,63.7,58.8,30.09,ENE,60,3.9,4.0,84,0.00,,,0.00,59.16,VWS V14.01,2013-08-23 11:28:00,
2013-08-23 07:29:00,64.0,58.7,30.09,NE,55,4.7,4.7,83,0.00,,,0.00,60.87,VWS V14.01,2013-08-23 11:29:00,
2013-08-23 07:30:00,63.9,58.7,30.09,NE,38,2.7,2.7,83,0.00,,,0.00,65.51,VWS V14.01,2013-08-23 11:30:00,
2013-08-23 07:31:00,64.0,58.7,30.08,NNE,17,2.3,4.4,83,0.00,,,0.00,67.95,VWS V14.01,2013-08-23 11:31:00,
2013-08-23 07:32:00,63.6,58.1,30.08,ENE,57,2.2,4.4,82,0.00,,,0.00,68.44,VWS V14.01,2013-08-23 11:32:00,
2013-08-23 07:33:00,63.3,57.5,30.08,NE,48,3.7,3.7,81,0.00,,,0.00,70.94,VWS V14.01,2013-08-23 11:33:00,
2013-08-23 07:34:00,63.7,57.9,30.09,ENE,62,3.2,3.7,81,0.00,,,0.00,73.69,VWS V14.01,2013-08-23 11:34:00,
2013-08-23 07:35:00,64.0,57.9,30.09,NE,40,3.7,3.7,81,0.00,,,0.00,75.52,VWS V14.01,2013-08-23 11:35:00,
2013-08-23 07:36:00,63.8,57.6,30.09,NNE,31,3.9,3.9,80,0.00,,,0.00,76.25,VWS V14.01,2013-08-23 11:36:00,
2013-08-23 07:37:00,63.6,57.4,30.09,NNE,16,3.4,6.8,80,0.00,,,0.00,79.18,VWS V14.01,2013-08-23 11:37:00,
2013-08-23 07:38:00,63.6,57.3,30.09,NE,35,3.9,3.9,80,0.00,,,0.00,80.89,VWS V14.01,2013-08-23 11:38:00,
2013-08-23 07:39:00,63.8,57.5,30.09,ENE,64,2.8,3.9,80,0.00,,,0.00,83.21,VWS V14.01,2013-08-23 11:39:00,
2013-08-23 07:40:00,63.7,56.7,30.09,NE,41,3.2,3.5,78,0.00,,,0.00,84.74,VWS V14.01,2013-08-23 11:40:00,
2013-08-23 07:41:00,63.6,56.7,30.09,NNE,30,2.7,3.2,78,0.00,,,0.00,85.23,VWS V14.01,2013-08-23 11:41:00,
2013-08-23 07:42:00,64.3,57.1,30.08,NNE,15,1.3,1.5,78,0.00,,,0.00,88.71,VWS V14.01,2013-08-23 11:42:00,
2013-08-23 07:43:00,63.5,56.2,30.09,NE,41,3.5,3.5,77,0.00,,,0.00,92.61,VWS V14.01,2013-08-23 11:43:00,
2013-08-23 07:44:00,63.7,56.1,30.08,NE,34,4.4,4.4,76,0.00,,,0.00,92.61,VWS V14.01,2013-08-23 11:44:00,
2013-08-23 07:45:00,63.4,56.1,30.09,NE,42,2.8,4.4,77,0.00,,,0.00,94.63,VWS V14.01,2013-08-23 11:45:00,
2013-08-23 07:46:00,63.5,56.1,30.10,NNE,31,1.1,3.7,77,0.00,,,0.00,97.25,VWS V14.01,2013-08-23 11:46:00,
2013-08-23 07:47:00,63.4,54.5,30.09,NNE,29,4.7,4.7,73,0.00,,,0.00,98.47,VWS V14.01,2013-08-23 11:47:00,
2013-08-23 07:48:00,63.6,55.9,30.09,NNE,28,3.0,4.7,76,0.00,,,0.00,99.63,VWS V14.01,2013-08-23 11:48:00,
2013-08-23 07:49:00,63.6,55.5,30.09,NE,41,4.4,4.4,75,0.00,,,0.00,101.16,VWS V14.01,2013-08-23 11:49:00,
2013-08-23 07:50:00,63.6,55.9,30.09,NE,43,1.6,5.1,76,0.00,,,0.00,105.13,VWS V14.01,2013-08-23 11:50:00,
2013-08-23 07:51:00,63.7,55.8,30.09,NE,44,1.0,1.6,75,0.00,,,0.00,105.56,VWS V14.01,2013-08-23 11:51:00,
2013-08-23 07:52:00,63.9,55.3,30.09,ENE,63,3.2,3.2,74,0.00,,,0.00,108.73,VWS V14.01,2013-08-23 11:52:00,
2013-08-23 07:53:00,63.2,55.2,30.09,NE,53,2.5,3.2,75,0.00,,,0.00,111.90,VWS V14.01,2013-08-23 11:53:00,
2013-08-23 07:54:00,63.2,55.2,30.09,NE,53,2.5,3.2,75,0.00,,,0.00,111.90,VWS V14.01,2013-08-23 11:54:00,
2013-08-23 07:55:00,63.5,55.0,30.10,NE,40,2.7,4.5,74,0.00,,,0.00,114.59,VWS V14.01,2013-08-23 11:55:00,
2013-08-23 07:56:00,63.9,55.0,30.09,ENE,64,4.5,4.5,73,0.00,,,0.00,117.16,VWS V14.01,2013-08-23 11:56:00,
2013-08-23 07:57:00,63.8,55.3,30.09,NE,38,1.6,4.5,74,0.00,,,0.00,117.64,VWS V14.01,2013-08-23 11:57:00,
2013-08-23 07:58:00,63.8,54.9,30.10,NE,51,3.4,5.4,73,0.00,,,0.00,119.72,VWS V14.01,2013-08-23 11:58:00,
2013-08-23 07:59:00,63.6,54.8,30.09,NE,52,2.2,3.4,73,0.00,,,0.00,121.43,VWS V14.01,2013-08-23 11:59:00,
2013-08-23 08:00:00,64.2,54.8,30.10,NNE,33,4.0,4.0,71,0.00,,,0.00,124.36,VWS V14.01,2013-08-23 12:00:00,
2013-08-23 08:01:00,64.6,55.3,30.10,NE,44,0.0,4.0,72,0.00,,,0.00,127.72,VWS V14.01,2013-08-23 12:01:00,
2013-08-23 08:02:00,64.5,53.6,30.10,East,84,4.2,4.5,68,0.00,,,0.00,129.24,VWS V14.01,2013-08-23 12:02:00,
2013-08-23 08:03:00,64.5,54.6,30.10,NE,43,2.0,4.2,70,0.00,,,0.00,131.69,VWS V14.01,2013-08-23 12:03:00,
2013-08-23 08:04:00,64.2,53.9,30.10,NE,36,3.7,3.7,69,0.00,,,0.00,131.69,VWS V14.01,2013-08-23 12:04:00,
2013-08-23 08:05:00,64.3,54.3,30.09,ENE,57,2.2,2.2,70,0.00,,,0.00,134.13,VWS V14.01,2013-08-23 12:05:00,
2013-08-23 08:06:00,64.2,53.8,30.09,NE,44,3.9,3.9,69,0.00,,,0.00,135.84,VWS V14.01,2013-08-23 12:06:00,
2013-08-23 08:07:00,64.6,54.4,30.10,NE,43,2.5,2.5,70,0.00,,,0.00,138.52,VWS V14.01,2013-08-23 12:07:00,
2013-08-23 08:08:00,64.7,54.0,30.10,NNE,30,4.4,5.4,68,0.00,,,0.00,141.64,VWS V14.01,2013-08-23 12:08:00,
2013-08-23 08:09:00,64.1,53.3,30.10,NE,55,4.2,4.4,68,0.00,,,0.00,143.90,VWS V14.01,2013-08-23 12:09:00,
2013-08-23 08:10:00,64.4,53.3,30.10,NE,46,5.1,5.7,67,0.00,,,0.00,146.34,VWS V14.01,2013-08-23 12:10:00,
2013-08-23 08:11:00,64.4,53.7,30.10,NE,45,2.8,5.1,68,0.00,,,0.00,148.53,VWS V14.01,2013-08-23 12:11:00,
2013-08-23 08:12:00,64.4,53.7,30.10,NE,35,3.7,3.7,68,0.00,,,0.00,149.39,VWS V14.01,2013-08-23 12:12:00,
2013-08-23 08:13:00,64.7,53.2,30.10,NNE,23,4.9,4.9,66,0.00,,,0.00,153.66,VWS V14.01,2013-08-23 12:13:00,
2013-08-23 08:14:00,64.9,53.5,30.10,NE,45,1.1,4.2,67,0.00,,,0.00,155.13,VWS V14.01,2013-08-23 12:14:00,
2013-08-23 08:15:00,64.6,53.6,30.10,NE,45,1.5,4.2,67,0.00,,,0.00,155.80,VWS V14.01,2013-08-23 12:15:00,
2013-08-23 08:16:00,64.5,52.7,30.10,NE,46,4.9,4.9,66,0.00,,,0.00,158.36,VWS V14.01,2013-08-23 12:16:00,
2013-08-23 08:17:00,65.3,53.0,30.10,NNE,20,4.5,4.9,64,0.00,,,0.00,160.56,VWS V14.01,2013-08-23 12:17:00,
2013-08-23 08:18:00,64.9,53.2,30.09,NE,50,3.0,4.5,66,0.00,,,0.00,160.74,VWS V14.01,2013-08-23 12:18:00,
2013-08-23 08:19:00,64.6,50.8,30.10,NE,47,3.5,3.5,61,0.00,,,0.00,163.43,VWS V14.01,2013-08-23 12:19:00,
2013-08-23 08:20:00,64.4,52.9,30.11,NE,53,4.2,4.2,66,0.00,,,0.00,165.87,VWS V14.01,2013-08-23 12:20:00,
2013-08-23 08:21:00,64.9,53.5,30.11,NE,37,2.5,4.2,67,0.00,,,0.00,166.06,VWS V14.01,2013-08-23 12:21:00,
2013-08-23 08:22:00,65.3,54.0,30.10,NNE,25,2.8,2.8,67,0.00,,,0.00,172.95,VWS V14.01,2013-08-23 12:22:00,
2013-08-23 08:23:00,64.9,52.8,30.10,NE,47,2.5,2.8,65,0.00,,,0.00,171.49,VWS V14.01,2013-08-23 12:23:00,
2013-08-23 08:24:00,65.0,52.3,30.10,ENE,68,3.5,3.7,63,0.00,,,0.00,175.64,VWS V14.01,2013-08-23 12:24:00,
2013-08-23 08:25:00,65.4,53.2,30.10,ENE,74,1.3,3.7,65,0.00,,,0.00,178.75,VWS V14.01,2013-08-23 12:25:00,
2013-08-23 08:26:00,64.8,52.0,30.11,ENE,59,5.1,5.1,63,0.00,,,0.00,177.47,VWS V14.01,2013-08-23 12:26:00,
2013-08-23 08:27:00,64.9,52.1,30.10,ENE,58,3.4,3.5,63,0.00,,,0.00,181.50,VWS V14.01,2013-08-23 12:27:00,
2013-08-23 08:28:00,64.8,51.8,30.10,NNE,24,3.2,3.4,63,0.00,,,0.00,185.41,VWS V14.01,2013-08-23 12:28:00,
2013-08-23 08:29:00,64.7,51.6,30.10,NE,38,4.2,4.2,62,0.00,,,0.00,187.73,VWS V14.01,2013-08-23 12:29:00,
2013-08-23 08:30:00,64.7,52.2,30.11,NE,55,3.0,4.7,64,0.00,,,0.00,189.32,VWS V14.01,2013-08-23 12:30:00,
2013-08-23 08:31:00,64.7,51.9,30.11,NE,51,4.4,4.4,63,0.00,,,0.00,190.29,VWS V14.01,2013-08-23 12:31:00,
2013-08-23 08:32:00,64.6,51.1,30.11,NE,34,6.1,6.1,62,0.00,,,0.00,193.10,VWS V14.01,2013-08-23 12:32:00,
2013-08-23 08:33:00,64.8,50.8,30.10,ENE,72,4.9,6.1,61,0.00,,,0.00,195.42,VWS V14.01,2013-08-23 12:33:00,
2013-08-23 08:34:00,64.8,51.4,30.11,ENE,66,3.7,4.9,62,0.00,,,0.00,200.06,VWS V14.01,2013-08-23 12:34:00,
2013-08-23 08:35:00,64.9,51.4,30.11,ENE,65,3.2,3.7,62,0.00,,,0.00,202.87,VWS V14.01,2013-08-23 12:35:00,
2013-08-23 08:36:00,65.0,51.4,30.11,NE,48,3.9,3.9,61,0.00,,,0.00,202.75,VWS V14.01,2013-08-23 12:36:00,
2013-08-23 08:37:00,65.1,51.7,30.10,NNE,12,2.8,3.5,62,0.00,,,0.00,207.02,VWS V14.01,2013-08-23 12:37:00,
2013-08-23 08:38:00,65.1,50.6,30.10,NNE,33,3.5,5.1,59,0.00,,,0.00,210.56,VWS V14.01,2013-08-23 12:38:00,
2013-08-23 08:39:00,65.5,51.3,30.10,ENE,57,4.5,4.5,60,0.00,,,0.00,212.27,VWS V14.01,2013-08-23 12:39:00,
2013-08-23 08:40:00,65.2,50.0,30.10,NE,43,3.4,4.5,58,0.00,,,0.00,216.85,VWS V14.01,2013-08-23 12:40:00,
2013-08-23 08:41:00,65.7,51.3,30.11,NE,47,1.5,3.4,60,0.00,,,0.00,217.16,VWS V14.01,2013-08-23 12:41:00,
2013-08-23 08:42:00,65.9,51.5,30.10,NNE,33,1.0,3.7,60,0.00,,,0.00,220.09,VWS V14.01,2013-08-23 12:42:00,
2013-08-23 08:43:00,66.5,51.7,30.10,ENE,74,1.0,1.6,59,0.00,,,0.00,224.54,VWS V14.01,2013-08-23 12:43:00,
2013-08-23 08:44:00,65.6,50.4,30.11,ENE,61,4.4,4.4,58,0.00,,,0.00,226.92,VWS V14.01,2013-08-23 12:44:00,
2013-08-23 08:45:00,65.7,48.2,30.11,ENE,65,4.4,4.4,53,0.00,,,0.00,229.37,VWS V14.01,2013-08-23 12:45:00,
2013-08-23 08:46:00,65.3,49.4,30.11,ENE,59,6.9,6.9,56,0.00,,,0.00,231.44,VWS V14.01,2013-08-23 12:46:00,
2013-08-23 08:47:00,65.9,51.0,30.11,NE,34,2.8,3.7,58,0.00,,,0.00,234.86,VWS V14.01,2013-08-23 12:47:00,
2013-08-23 08:48:00,66.2,51.7,30.10,NE,42,2.2,2.3,60,0.00,,,0.00,236.69,VWS V14.01,2013-08-23 12:48:00,
2013-08-23 08:49:00,66.3,50.5,30.10,ENE,66,2.5,2.5,57,0.00,,,0.00,239.13,VWS V14.01,2013-08-23 12:49:00,
2013-08-23 08:50:00,66.2,50.2,30.11,NE,56,3.7,3.7,56,0.00,,,0.00,241.82,VWS V14.01,2013-08-23 12:50:00,
2013-08-23 08:51:00,66.0,48.9,30.10,NE,45,4.9,4.9,54,0.00,,,0.00,245.97,VWS V14.01,2013-08-23 12:51:00,
2013-08-23 08:52:00,66.3,50.8,30.11,NE,55,2.5,4.9,57,0.00,,,0.00,246.46,VWS V14.01,2013-08-23 12:52:00,
2013-08-23 08:53:00,67.1,50.6,30.10,East,99,4.0,4.0,55,0.00,,,0.00,251.34,VWS V14.01,2013-08-23 12:53:00,
2013-08-23 08:54:00,66.0,49.8,30.10,NE,47,4.0,4.5,56,0.00,,,0.00,253.79,VWS V14.01,2013-08-23 12:54:00,
2013-08-23 08:55:00,66.5,50.1,30.10,NE,56,5.6,5.6,56,0.00,,,0.00,256.23,VWS V14.01,2013-08-23 12:55:00,
2013-08-23 08:56:00,66.4,50.0,30.11,NE,46,3.0,5.6,56,0.00,,,0.00,258.67,VWS V14.01,2013-08-23 12:56:00,
2013-08-23 08:57:00,66.6,50.4,30.11,NE,37,3.4,6.1,56,0.00,,,0.00,261.11,VWS V14.01,2013-08-23 12:57:00,
2013-08-23 08:58:00,66.3,50.0,30.10,NE,54,4.7,4.9,56,0.00,,,0.00,263.55,VWS V14.01,2013-08-23 12:58:00,
2013-08-23 08:59:00,66.3,49.7,30.09,NE,52,5.7,5.7,55,0.00,,,0.00,268.07,VWS V14.01,2013-08-23 12:59:00,
2013-08-23 09:00:00,66.9,50.8,30.10,NE,43,4.4,5.7,56,0.00,,,0.00,269.05,VWS V14.01,2013-08-23 13:00:00,
2013-08-23 09:01:00,66.5,49.4,30.10,ENE,61,5.2,5.2,54,0.00,,,0.00,271.61,VWS V14.01,2013-08-23 13:01:00,
2013-08-23 09:02:00,67.3,51.3,30.10,ENE,60,2.3,5.2,57,0.00,,,0.00,275.27,VWS V14.01,2013-08-23 13:02:00,
2013-08-23 09:03:00,66.9,49.6,30.10,ENE,58,4.5,4.5,54,0.00,,,0.00,277.96,VWS V14.01,2013-08-23 13:03:00,
2013-08-23 09:04:00,66.9,50.3,30.11,NE,47,4.9,4.9,55,0.00,,,0.00,282.72,VWS V14.01,2013-08-23 13:04:00,
2013-08-23 09:05:00,67.5,49.8,30.10,NE,44,4.4,4.9,53,0.00,,,0.00,285.78,VWS V14.01,2013-08-23 13:05:00,
2013-08-23 09:06:00,66.7,49.5,30.10,ENE,65,5.1,5.1,54,0.00,,,0.00,287.97,VWS V14.01,2013-08-23 13:06:00,
2013-08-23 09:07:00,68.3,51.7,30.10,NE,37,1.1,3.0,55,0.00,,,0.00,290.42,VWS V14.01,2013-08-23 13:07:00,
2013-08-23 09:08:00,67.4,48.8,30.10,NE,40,4.0,4.0,51,0.00,,,0.00,292.86,VWS V14.01,2013-08-23 13:08:00,
2013-08-23 09:09:00,67.6,49.8,30.10,ENE,66,4.0,4.0,53,0.00,,,0.00,292.49,VWS V14.01,2013-08-23 13:09:00,
2013-08-23 09:10:00,66.9,49.0,30.10,NE,43,5.2,5.2,53,0.00,,,0.00,297.01,VWS V14.01,2013-08-23 13:10:00,
2013-08-23 09:11:00,67.1,49.4,30.10,NE,45,3.4,5.9,53,0.00,,,0.00,300.12,VWS V14.01,2013-08-23 13:11:00,
2013-08-23 09:12:00,67.5,49.3,30.10,NNE,32,3.9,3.9,52,0.00,,,0.00,302.93,VWS V14.01,2013-08-23 13:12:00,
2013-08-23 09:13:00,67.3,49.2,30.10,NE,44,4.4,4.4,52,0.00,,,0.00,307.51,VWS V14.01,2013-08-23 13:13:00,
2013-08-23 09:14:00,67.3,49.2,30.10,NE,44,4.4,4.4,52,0.00,,,0.00,307.51,VWS V14.01,2013-08-23 13:14:00,
2013-08-23 09:15:00,67.3,49.1,30.10,NE,49,4.5,4.5,52,0.00,,,0.00,309.34,VWS V14.01,2013-08-23 13:15:00,
2013-08-23 09:16:00,67.3,48.7,30.11,NE,44,4.0,4.5,51,0.00,,,0.00,312.88,VWS V14.01,2013-08-23 13:16:00,
2013-08-23 09:17:00,66.9,47.3,30.10,ENE,57,4.7,4.7,49,0.00,,,0.00,317.03,VWS V14.01,2013-08-23 13:17:00,
2013-08-23 09:18:00,67.9,49.6,30.10,NNE,27,3.5,4.7,52,0.00,,,0.00,320.64,VWS V14.01,2013-08-23 13:18:00,
2013-08-23 09:19:00,67.8,49.3,30.10,NE,53,3.5,3.5,52,0.00,,,0.00,322.04,VWS V14.01,2013-08-23 13:19:00,
2013-08-23 09:20:00,67.9,49.9,30.11,NE,53,3.4,3.4,53,0.00,,,0.00,324.60,VWS V14.01,2013-08-23 13:20:00,
2013-08-23 09:21:00,67.2,48.2,30.11,NE,53,4.2,4.2,50,0.00,,,0.00,327.05,VWS V14.01,2013-08-23 13:21:00,
2013-08-23 09:22:00,67.9,49.3,30.11,ENE,63,5.1,5.1,51,0.00,,,0.00,330.89,VWS V14.01,2013-08-23 13:22:00,
2013-08-23 09:23:00,68.4,49.0,30.11,ENE,76,2.0,5.1,50,0.00,,,0.00,332.36,VWS V14.01,2013-08-23 13:23:00,
2013-08-23 09:24:00,67.4,47.5,30.10,ENE,61,5.6,5.6,49,0.00,,,0.00,337.18,VWS V14.01,2013-08-23 13:24:00,
2013-08-23 09:25:00,68.2,49.2,30.11,NNE,27,2.7,5.6,51,0.00,,,0.00,339.26,VWS V14.01,2013-08-23 13:25:00,
2013-08-23 09:26:00,67.9,48.3,30.11,NE,34,4.7,4.7,50,0.00,,,0.00,341.39,VWS V14.01,2013-08-23 13:26:00,
2013-08-23 09:27:00,68.6,49.1,30.10,NE,37,2.2,4.7,50,0.00,,,0.00,344.14,VWS V14.01,2013-08-23 13:27:00,
2013-08-23 09:28:00,68.7,49.2,30.11,NNE,22,4.4,4.4,50,0.00,,,0.00,347.99,VWS V14.01,2013-08-23 13:28:00,
2013-08-23 09:29:00,68.2,48.0,30.10,NE,45,3.9,5.2,49,0.00,,,0.00,351.71,VWS V14.01,2013-08-23 13:29:00,
2013-08-23 09:30:00,68.4,48.8,30.11,ENE,70,4.9,4.9,50,0.00,,,0.00,352.20,VWS V14.01,2013-08-23 13:30:00,
2013-08-23 09:31:00,69.4,49.4,30.10,East,84,0.0,4.4,49,0.00,,,0.00,356.35,VWS V14.01,2013-08-23 13:31:00,
2013-08-23 09:32:00,68.9,48.1,30.10,NNE,32,4.2,4.2,48,0.00,,,0.00,359.04,VWS V14.01,2013-08-23 13:32:00,
2013-08-23 09:33:00,68.9,48.5,30.11,ENE,61,3.9,4.5,48,0.00,,,0.00,358.49,VWS V14.01,2013-08-23 13:33:00,
2013-08-23 09:34:00,68.2,46.8,30.11,East,80,5.2,5.2,46,0.00,,,0.00,363.68,VWS V14.01,2013-08-23 13:34:00,
2013-08-23 09:35:00,68.1,45.2,30.11,NE,47,6.6,6.6,44,0.00,,,0.00,366.36,VWS V14.01,2013-08-23 13:35:00,
2013-08-23 09:36:00,69.7,48.9,30.10,NNE,31,3.5,6.6,48,0.00,,,0.00,369.54,VWS V14.01,2013-08-23 13:36:00,
2013-08-23 09:37:00,68.3,46.3,30.11,NE,51,5.7,5.7,45,0.00,,,0.00,372.22,VWS V14.01,2013-08-23 13:37:00,
2013-08-23 09:38:00,68.8,48.2,30.11,ENE,62,5.2,5.7,48,0.00,,,0.00,375.64,VWS V14.01,2013-08-23 13:38:00,
2013-08-23 09:39:00,68.6,47.1,30.11,ENE,70,6.8,6.8,46,0.00,,,0.00,378.33,VWS V14.01,2013-08-23 13:39:00,
2013-08-23 09:40:00,68.4,45.8,30.11,NE,49,5.4,6.8,44,0.00,,,0.00,379.30,VWS V14.01,2013-08-23 13:40:00,
2013-08-23 09:41:00,68.8,46.2,30.13,ENE,62,7.5,7.5,44,0.00,,,0.00,382.91,VWS V14.01,2013-08-23 13:41:00,
2013-08-23 09:42:00,68.9,46.8,30.11,NE,56,5.7,7.5,45,0.00,,,0.00,385.35,VWS V14.01,2013-08-23 13:42:00,
2013-08-23 09:43:00,69.1,47.0,30.11,NE,50,5.2,5.7,45,0.00,,,0.00,388.40,VWS V14.01,2013-08-23 13:43:00,
2013-08-23 09:44:00,69.0,45.7,30.11,NE,46,6.9,6.9,43,0.00,,,0.00,391.03,VWS V14.01,2013-08-23 13:44:00,
2013-08-23 09:45:00,70.0,47.7,30.11,ENE,63,3.4,6.9,45,0.00,,,0.00,395.42,VWS V14.01,2013-08-23 13:45:00,
2013-08-23 09:46:00,69.3,46.8,30.11,NE,51,3.9,4.2,45,0.00,,,0.00,398.60,VWS V14.01,2013-08-23 13:46:00,
2013-08-23 09:47:00,69.3,46.8,30.11,NE,51,3.9,4.2,45,0.00,,,0.00,398.60,VWS V14.01,2013-08-23 13:47:00,
2013-08-23 09:48:00,70.5,47.4,30.11,NNE,19,2.0,2.2,44,0.00,,,0.00,402.44,VWS V14.01,2013-08-23 13:48:00,
2013-08-23 09:49:00,69.2,45.3,30.11,NE,44,6.9,6.9,42,0.00,,,0.00,406.59,VWS V14.01,2013-08-23 13:49:00,
2013-08-23 09:50:00,68.9,45.4,30.13,NE,53,5.9,6.9,43,0.00,,,0.00,407.63,VWS V14.01,2013-08-23 13:50:00,
2013-08-23 09:51:00,69.1,46.6,30.12,NNE,29,5.1,5.9,44,0.00,,,0.00,408.85,VWS V14.01,2013-08-23 13:51:00,
2013-08-23 09:52:00,69.6,46.7,30.12,NE,50,3.2,4.7,44,0.00,,,0.00,412.52,VWS V14.01,2013-08-23 13:52:00,
2013-08-23 09:53:00,69.1,45.0,30.12,ENE,74,6.9,6.9,42,0.00,,,0.00,417.46,VWS V14.01,2013-08-23 13:53:00,
2013-08-23 09:54:00,69.1,45.0,30.12,ENE,74,6.9,6.9,42,0.00,,,0.00,417.46,VWS V14.01,2013-08-23 13:54:00,
2013-08-23 09:55:00,69.6,45.4,30.11,NE,48,4.5,5.2,42,0.00,,,0.00,422.28,VWS V14.01,2013-08-23 13:55:00,
2013-08-23 09:56:00,69.5,44.6,30.11,NE,40,6.9,6.9,41,0.00,,,0.00,424.48,VWS V14.01,2013-08-23 13:56:00,
2013-08-23 09:57:00,69.2,45.0,30.11,ENE,60,6.4,6.9,42,0.00,,,0.00,424.97,VWS V14.01,2013-08-23 13:57:00,
2013-08-23 09:58:00,69.5,43.6,30.11,ENE,65,7.6,7.6,39,0.00,,,0.00,430.16,VWS V14.01,2013-08-23 13:58:00,
2013-08-23 09:59:00,69.6,43.8,30.10,NNE,20,5.9,7.6,39,0.00,,,0.00,431.75,VWS V14.01,2013-08-23 13:59:00,
2013-08-23 10:00:00,70.5,45.3,30.11,NNE,30,6.1,6.1,40,0.00,,,0.00,434.49,VWS V14.01,2013-08-23 14:00:00,
2013-08-23 10:01:00,69.6,43.6,30.11,NE,43,5.2,6.1,39,0.00,,,0.00,437.18,VWS V14.01,2013-08-23 14:01:00,
2013-08-23 10:02:00,70.5,45.4,30.11,NNE,32,4.0,5.2,40,0.00,,,0.00,439.62,VWS V14.01,2013-08-23 14:02:00,
2013-08-23 10:04:00,70.1,44.1,30.11,East,89,5.4,6.6,39,0.00,,,0.00,446.34,VWS V14.01,2013-08-23 14:04:00,
2013-08-23 10:05:00,69.8,43.5,30.11,East,80,5.4,6.6,39,0.00,,,0.00,446.70,VWS V14.01,2013-08-23 14:05:00,
2013-08-23 10:07:00,70.8,46.1,30.12,NE,54,3.0,6.6,41,0.00,,,0.00,454.03,VWS V14.01,2013-08-23 14:07:00,
2013-08-23 10:08:00,70.2,44.2,30.12,ENE,76,5.4,6.6,39,0.00,,,0.00,455.25,VWS V14.01,2013-08-23 14:08:00,
2013-08-23 10:09:00,70.1,44.0,30.12,East,79,4.9,6.6,39,0.00,,,0.00,457.45,VWS V14.01,2013-08-23 14:09:00,
2013-08-23 10:11:00,71.8,47.5,30.12,NNE,30,4.5,6.6,42,0.00,,,0.00,462.21,VWS V14.01,2013-08-23 14:11:00,
2013-08-23 10:14:00,70.4,39.6,30.12,NE,45,6.9,6.9,33,0.00,,,0.00,470.51,VWS V14.01,2013-08-23 14:14:00,
2013-08-23 10:15:00,70.4,44.5,30.12,NNE,21,6.1,6.9,39,0.00,,,0.00,473.08,VWS V14.01,2013-08-23 14:15:00,
2013-08-23 10:16:00,70.6,44.5,30.12,NNE,23,4.2,6.9,39,0.00,,,0.00,473.81,VWS V14.01,2013-08-23 14:16:00,
2013-08-23 10:19:00,70.2,43.1,30.11,NE,50,8.5,8.5,38,0.00,,,0.00,480.95,VWS V14.01,2013-08-23 14:19:00,
2013-08-23 10:20:00,70.7,44.1,30.11,ENE,69,5.7,8.5,38,0.00,,,0.00,485.78,VWS V14.01,2013-08-23 14:20:00,
2013-08-23 10:21:00,70.7,44.1,30.11,ENE,69,5.7,8.5,38,0.00,,,0.00,485.78,VWS V14.01,2013-08-23 14:21:00,
2013-08-23 10:22:00,70.8,42.3,30.11,ENE,73,6.4,8.5,36,0.00,,,0.00,489.44,VWS V14.01,2013-08-23 14:22:00,
2013-08-23 10:24:00,70.5,43.8,30.12,NNE,30,5.7,8.5,38,0.00,,,0.00,492.61,VWS V14.01,2013-08-23 14:24:00,
2013-08-23 10:25:00,71.4,44.7,30.12,NNE,28,6.4,8.5,38,0.00,,,0.00,496.09,VWS V14.01,2013-08-23 14:25:00,
2013-08-23 10:27:00,70.6,43.0,30.12,NNE,30,6.3,8.5,37,0.00,,,0.00,499.21,VWS V14.01,2013-08-23 14:27:00,
2013-08-23 10:28:00,70.6,41.7,30.12,ENE,66,5.9,8.5,35,0.00,,,0.00,505.92,VWS V14.01,2013-08-23 14:28:00,
2013-08-23 10:30:00,70.7,42.7,30.12,NE,40,6.8,8.5,36,0.00,,,0.00,506.78,VWS V14.01,2013-08-23 14:30:00,
2013-08-23 10:31:00,70.6,42.0,30.11,ENE,72,6.3,8.5,35,0.00,,,0.00,508.00,VWS V14.01,2013-08-23 14:31:00,
2013-08-23 10:32:00,70.9,42.4,30.12,ENE,59,7.1,8.5,36,0.00,,,0.00,513.25,VWS V14.01,2013-08-23 14:32:00,
2013-08-23 10:34:00,71.6,43.7,30.12,NNE,32,5.1,9.0,37,0.00,,,0.00,516.73,VWS V14.01,2013-08-23 14:34:00,
2013-08-23 10:36:00,71.9,43.6,30.12,ENE,58,4.2,9.0,36,0.00,,,0.00,521.61,VWS V14.01,2013-08-23 14:36:00,
2013-08-23 10:37:00,72.3,44.1,30.12,NE,41,6.6,9.0,36,0.00,,,0.00,527.29,VWS V14.01,2013-08-23 14:37:00,
2013-08-23 10:38:00,71.7,42.5,30.12,ENE,75,4.4,9.0,35,0.00,,,0.00,530.65,VWS V14.01,2013-08-23 14:38:00,
2013-08-23 10:39:00,72.0,41.8,30.12,NE,44,4.5,9.0,34,0.00,,,0.00,529.73,VWS V14.01,2013-08-23 14:39:00,
2013-08-23 10:41:00,72.6,43.4,30.12,NE,52,6.3,9.0,35,0.00,,,0.00,536.08,VWS V14.01,2013-08-23 14:41:00,
2013-08-23 10:44:00,71.4,41.7,30.11,NE,35,5.2,9.0,34,0.00,,,0.00,542.19,VWS V14.01,2013-08-23 14:44:00,
2013-08-23 10:45:00,72.8,43.7,30.12,NE,45,5.4,9.0,35,0.00,,,0.00,544.08,VWS V14.01,2013-08-23 14:45:00,
2013-08-23 10:46:00,72.0,41.9,30.12,NE,45,4.2,9.0,34,0.00,,,0.00,549.27,VWS V14.01,2013-08-23 14:46:00,
2013-08-23 10:48:00,72.2,42.2,30.12,NNE,25,4.0,9.0,34,0.00,,,0.00,553.85,VWS V14.01,2013-08-23 14:48:00,
2013-08-23 10:50:00,72.2,40.4,30.11,NNE,12,5.9,9.0,32,0.00,,,0.00,557.20,VWS V14.01,2013-08-23 14:50:00,
2013-08-23 10:51:00,71.8,40.4,30.11,NNE,31,6.9,9.0,32,0.00,,,0.00,559.65,VWS V14.01,2013-08-23 14:51:00,
2013-08-23 10:52:00,71.8,40.4,30.11,NNE,31,6.9,9.0,32,0.00,,,0.00,559.65,VWS V14.01,2013-08-23 14:52:00,
2013-08-23 10:53:00,72.4,41.0,30.11,NE,52,5.6,9.0,32,0.00,,,0.00,562.64,VWS V14.01,2013-08-23 14:53:00,
2013-08-23 10:54:00,71.7,39.5,30.11,NNE,32,8.1,9.0,31,0.00,,,0.00,566.06,VWS V14.01,2013-08-23 14:54:00,
2013-08-23 10:55:00,72.1,40.0,30.11,NNE,12,5.7,9.0,31,0.00,,,0.00,569.11,VWS V14.01,2013-08-23 14:55:00,
2013-08-23 10:57:00,72.3,40.9,30.11,NE,43,4.2,9.0,32,0.00,,,0.00,570.02,VWS V14.01,2013-08-23 14:57:00,
2013-08-23 10:58:00,71.5,38.8,30.12,NE,49,8.7,9.0,30,0.00,,,0.00,570.21,VWS V14.01,2013-08-23 14:58:00,
2013-08-23 10:59:00,71.5,39.6,30.11,NE,40,7.6,9.0,31,0.00,,,0.00,573.69,VWS V14.01,2013-08-23 14:59:00,
2013-08-23 11:00:00,69.6,43.6,30.11,NE,43,5.2,6.1,39,0.00,,,0.00,437.18,VWS V14.01,2013-08-23 15:00:00,
2013-08-23 11:01:00,72.9,41.9,30.12,NE,46,5.1,9.0,33,0.00,,,0.00,580.53,VWS V14.01,2013-08-23 15:01:00,
2013-08-23 11:02:00,73.4,40.2,30.12,NE,35,2.7,5.9,30,0.00,,,0.00,583.46,VWS V14.01,2013-08-23 15:02:00,
2013-08-23 11:03:00,73.3,41.9,30.12,NE,49,4.4,4.4,32,0.00,,,0.00,583.76,VWS V14.01,2013-08-23 15:03:00,
2013-08-23 11:04:00,73.2,41.5,30.12,NNE,26,4.4,5.1,32,0.00,,,0.00,588.34,VWS V14.01,2013-08-23 15:04:00,
2013-08-23 11:05:00,73.3,43.5,30.11,NE,51,2.7,4.4,34,0.00,,,0.00,588.34,VWS V14.01,2013-08-23 15:05:00,
2013-08-23 11:06:00,71.7,37.3,30.12,ENE,62,9.2,9.2,28,0.00,,,0.00,590.72,VWS V14.01,2013-08-23 15:06:00,
2013-08-23 11:07:00,73.1,41.3,30.12,East,81,6.6,9.2,32,0.00,,,0.00,593.22,VWS V14.01,2013-08-23 15:07:00,
2013-08-23 11:08:00,72.1,38.9,30.11,ENE,59,5.6,6.6,30,0.00,,,0.00,593.53,VWS V14.01,2013-08-23 15:08:00,
2013-08-23 11:09:00,72.5,39.3,30.11,NE,48,6.3,6.9,30,0.00,,,0.00,595.42,VWS V14.01,2013-08-23 15:09:00,
2013-08-23 11:10:00,72.8,39.6,30.12,NE,37,7.5,7.5,30,0.00,,,0.00,596.58,VWS V14.01,2013-08-23 15:10:00,
2013-08-23 11:11:00,74.1,42.5,30.12,NE,36,4.7,6.4,32,0.00,,,0.00,601.16,VWS V14.01,2013-08-23 15:11:00,
2013-08-23 11:12:00,73.4,40.2,30.12,NE,49,4.7,4.7,30,0.00,,,0.00,601.28,VWS V14.01,2013-08-23 15:12:00,
2013-08-23 11:13:00,73.9,41.9,30.12,NNE,30,5.1,5.1,32,0.00,,,0.00,601.59,VWS V14.01,2013-08-23 15:13:00,
2013-08-23 11:14:00,73.7,40.6,30.11,NE,49,5.1,5.4,30,0.00,,,0.00,602.69,VWS V14.01,2013-08-23 15:14:00,
2013-08-23 11:15:00,73.8,40.1,30.11,ENE,58,4.7,5.1,30,0.00,,,0.00,605.25,VWS V14.01,2013-08-23 15:15:00,
2013-08-23 11:16:00,73.8,40.8,30.11,NE,48,3.4,8.0,30,0.00,,,0.00,607.88,VWS V14.01,2013-08-23 15:16:00,
2013-08-23 11:17:00,73.4,39.9,30.11,NNE,15,5.4,5.4,30,0.00,,,0.00,609.83,VWS V14.01,2013-08-23 15:17:00,
2013-08-23 11:18:00,72.6,38.7,30.12,NE,47,5.1,6.3,29,0.00,,,0.00,615.51,VWS V14.01,2013-08-23 15:18:00,
2013-08-23 11:19:00,74.2,41.6,30.12,NNE,24,5.1,5.1,31,0.00,,,0.00,615.93,VWS V14.01,2013-08-23 15:19:00,
2013-08-23 11:20:00,74.5,41.5,30.11,ENE,64,5.6,5.6,31,0.00,,,0.00,614.96,VWS V14.01,2013-08-23 15:20:00,
2013-08-23 11:21:00,73.9,40.8,30.12,NNE,25,5.2,5.6,30,0.00,,,0.00,615.20,VWS V14.01,2013-08-23 15:21:00,
2013-08-23 11:22:00,73.9,40.3,30.12,East,82,3.9,5.2,30,0.00,,,0.00,613.98,VWS V14.01,2013-08-23 15:22:00,
2013-08-23 11:23:00,74.3,40.5,30.12,NE,55,4.2,4.2,30,0.00,,,0.00,618.13,VWS V14.01,2013-08-23 15:23:00,
2013-08-23 11:24:00,73.7,39.4,30.12,NE,52,6.4,6.4,29,0.00,,,0.00,620.09,VWS V14.01,2013-08-23 15:24:00,
2013-08-23 11:25:00,73.2,37.8,30.12,NNE,21,8.3,8.3,28,0.00,,,0.00,622.77,VWS V14.01,2013-08-23 15:25:00,
2013-08-23 11:26:00,73.2,39.4,30.11,NNE,27,6.3,8.3,29,0.00,,,0.00,626.92,VWS V14.01,2013-08-23 15:26:00,
2013-08-23 11:27:00,73.2,38.0,30.11,NE,50,6.4,6.4,28,0.00,,,0.00,627.11,VWS V14.01,2013-08-23 15:27:00,
2013-08-23 11:28:00,73.9,39.7,30.11,ENE,78,4.5,6.4,29,0.00,,,0.00,630.16,VWS V14.01,2013-08-23 15:28:00,
2013-08-23 11:29:00,73.1,37.0,30.12,NE,47,8.1,8.1,27,0.00,,,0.00,632.54,VWS V14.01,2013-08-23 15:29:00,
2013-08-23 11:30:00,74.2,39.7,30.12,NE,45,4.4,8.1,29,0.00,,,0.00,636.20,VWS V14.01,2013-08-23 15:30:00,
2013-08-23 11:31:00,74.4,40.5,30.12,ENE,60,5.9,5.9,29,0.00,,,0.00,635.47,VWS V14.01,2013-08-23 15:31:00,
2013-08-23 11:32:00,72.7,36.2,30.11,NNE,28,5.7,5.7,26,0.00,,,0.00,637.67,VWS V14.01,2013-08-23 15:32:00,
2013-08-23 11:33:00,74.1,39.7,30.11,NE,37,4.7,5.7,29,0.00,,,0.00,638.89,VWS V14.01,2013-08-23 15:33:00,
2013-08-23 11:34:00,74.7,39.1,30.11,ESE,114,4.9,4.9,28,0.00,,,0.00,639.62,VWS V14.01,2013-08-23 15:34:00,
2013-08-23 11:35:00,74.3,38.9,30.11,NE,40,4.7,5.6,28,0.00,,,0.00,642.06,VWS V14.01,2013-08-23 15:35:00,
2013-08-23 11:36:00,73.1,36.8,30.11,ENE,59,9.2,9.2,27,0.00,,,0.00,644.51,VWS V14.01,2013-08-23 15:36:00,
2013-08-23 11:37:00,74.0,38.5,30.11,ENE,57,6.8,9.2,28,0.00,,,0.00,647.19,VWS V14.01,2013-08-23 15:37:00,
2013-08-23 11:38:00,74.5,40.2,30.11,NNE,31,7.3,7.3,29,0.00,,,0.00,649.39,VWS V14.01,2013-08-23 15:38:00,
2013-08-23 11:39:00,73.6,37.7,30.11,ENE,67,6.6,6.6,27,0.00,,,0.00,649.88,VWS V14.01,2013-08-23 15:39:00,
2013-08-23 11:40:00,74.3,38.8,30.11,NE,48,5.4,6.6,28,0.00,,,0.00,651.59,VWS V14.01,2013-08-23 15:40:00,
2013-08-23 11:41:00,74.8,39.9,30.11,NE,39,4.2,5.4,28,0.00,,,0.00,654.27,VWS V14.01,2013-08-23 15:41:00,
2013-08-23 11:42:00,74.9,40.3,30.11,ENE,70,3.4,4.2,29,0.00,,,0.00,654.52,VWS V14.01,2013-08-23 15:42:00,
2013-08-23 11:43:00,74.8,39.6,30.12,ENE,59,5.1,5.1,28,0.00,,,0.00,656.72,VWS V14.01,2013-08-23 15:43:00,
2013-08-23 11:44:00,74.0,34.7,30.11,NE,46,5.7,5.7,24,0.00,,,0.00,656.72,VWS V14.01,2013-08-23 15:44:00,
2013-08-23 11:45:00,74.9,39.3,30.11,North,9,4.7,5.7,28,0.00,,,0.00,658.30,VWS V14.01,2013-08-23 15:45:00,
2013-08-23 11:46:00,74.2,38.8,30.11,NE,49,7.1,7.1,28,0.00,,,0.00,659.16,VWS V14.01,2013-08-23 15:46:00,
2013-08-23 11:47:00,75.5,41.4,30.12,North,350,6.4,7.1,29,0.00,,,0.00,661.60,VWS V14.01,2013-08-23 15:47:00,
2013-08-23 11:48:00,74.4,38.7,30.11,NE,34,7.8,7.8,28,0.00,,,0.00,661.60,VWS V14.01,2013-08-23 15:48:00,
2013-08-23 11:49:00,74.3,38.6,30.11,NNE,27,5.2,7.8,27,0.00,,,0.00,662.58,VWS V14.01,2013-08-23 15:49:00,
2013-08-23 11:50:00,75.8,42.0,30.11,ENE,58,5.2,5.2,30,0.00,,,0.00,665.02,VWS V14.01,2013-08-23 15:50:00,
2013-08-23 11:51:00,73.8,35.9,30.11,ENE,69,6.3,6.3,25,0.00,,,0.00,668.93,VWS V14.01,2013-08-23 15:51:00,
2013-08-23 11:52:00,75.8,40.9,30.11,ENE,69,3.4,6.3,29,0.00,,,0.00,671.12,VWS V14.01,2013-08-23 15:52:00,
2013-08-23 11:53:00,75.8,40.9,30.11,ENE,69,3.4,6.3,29,0.00,,,0.00,671.12,VWS V14.01,2013-08-23 15:53:00,
2013-08-23 11:54:00,76.0,41.4,30.11,NE,35,6.4,6.4,29,0.00,,,0.00,671.37,VWS V14.01,2013-08-23 15:54:00,
2013-08-23 11:55:00,75.3,37.8,30.11,NW,325,6.6,6.8,26,0.00,,,0.00,673.81,VWS V14.01,2013-08-23 15:55:00,
2013-08-23 11:56:00,74.5,37.7,30.11,NE,36,6.3,6.6,26,0.00,,,0.00,674.48,VWS V14.01,2013-08-23 15:56:00,
2013-08-23 11:57:00,73.6,36.3,30.11,NE,34,7.6,7.6,26,0.00,,,0.00,676.74,VWS V14.01,2013-08-23 15:57:00,
2013-08-23 11:58:00,74.1,36.9,30.12,NNE,22,6.9,7.6,26,0.00,,,0.00,676.74,VWS V14.01,2013-08-23 15:58:00,
2013-08-23 11:59:00,75.3,39.1,30.11,ENE,60,4.9,4.9,27,0.00,,,0.00,678.69,VWS V14.01,2013-08-23 15:59:00,
2013-08-23 12:00:00,76.8,41.7,30.12,North,2,5.6,5.7,29,0.00,,,0.00,679.55,VWS V14.01,2013-08-23 16:00:00,
2013-08-23 12:01:00,74.9,38.5,30.11,NE,50,4.9,5.6,27,0.00,,,0.00,681.14,VWS V14.01,2013-08-23 16:01:00,
2013-08-23 12:02:00,75.2,38.4,30.11,NE,54,5.1,5.1,26,0.00,,,0.00,681.75,VWS V14.01,2013-08-23 16:02:00,
2013-08-23 12:03:00,75.3,39.6,30.11,NE,49,5.2,5.2,28,0.00,,,0.00,683.58,VWS V14.01,2013-08-23 16:03:00,
2013-08-23 12:04:00,75.7,39.7,30.11,ENE,58,7.5,7.5,27,0.00,,,0.00,688.46,VWS V14.01,2013-08-23 16:04:00,
2013-08-23 12:05:00,76.2,40.5,30.11,NE,40,4.7,7.5,28,0.00,,,0.00,688.65,VWS V14.01,2013-08-23 16:05:00,
2013-08-23 12:06:00,77.2,41.8,30.11,North,9,7.8,7.8,28,0.00,,,0.00,690.11,VWS V14.01,2013-08-23 16:06:00,
2013-08-23 12:07:00,76.4,39.7,30.11,NE,43,4.9,7.8,27,0.00,,,0.00,689.38,VWS V14.01,2013-08-23 16:07:00,
2013-08-23 12:08:00,75.6,37.2,30.11,NE,50,2.7,4.5,25,0.00,,,0.00,695.30,VWS V14.01,2013-08-23 16:08:00,
2013-08-23 12:09:00,75.8,37.8,30.11,NE,37,5.9,5.9,25,0.00,,,0.00,696.40,VWS V14.01,2013-08-23 16:09:00,
2013-08-23 12:10:00,76.7,38.6,30.13,North,6,1.6,5.9,25,0.00,,,0.00,695.12,VWS V14.01,2013-08-23 16:10:00,
2013-08-23 12:11:00,76.7,40.3,30.11,NE,53,4.7,4.7,27,0.00,,,0.00,698.23,VWS V14.01,2013-08-23 16:11:00,
2013-08-23 12:12:00,75.5,36.6,30.11,NE,38,5.7,6.9,24,0.00,,,0.00,698.23,VWS V14.01,2013-08-23 16:12:00,
2013-08-23 12:13:00,75.7,37.0,30.11,NE,34,5.9,5.9,25,0.00,,,0.00,698.72,VWS V14.01,2013-08-23 16:13:00,
2013-08-23 12:14:00,76.7,39.7,30.11,NNE,29,5.7,5.7,26,0.00,,,0.00,698.23,VWS V14.01,2013-08-23 16:14:00,
2013-08-23 12:15:00,75.5,36.9,30.11,NE,37,4.5,6.3,25,0.00,,,0.00,703.11,VWS V14.01,2013-08-23 16:15:00,
2013-08-23 12:16:00,75.5,36.9,30.11,NE,37,4.5,6.3,25,0.00,,,0.00,703.11,VWS V14.01,2013-08-23 16:16:00,
2013-08-23 12:17:00,76.1,37.4,30.11,ENE,65,5.1,6.9,25,0.00,,,0.00,705.31,VWS V14.01,2013-08-23 16:17:00,
2013-08-23 12:18:00,75.3,35.7,30.12,NE,51,7.8,7.8,24,0.00,,,0.00,705.07,VWS V14.01,2013-08-23 16:18:00,
2013-08-23 12:19:00,76.6,37.7,30.11,NNE,33,3.7,7.8,24,0.00,,,0.00,707.27,VWS V14.01,2013-08-23 16:19:00,
2013-08-23 12:20:00,76.0,36.4,30.11,NNE,15,6.1,6.1,24,0.00,,,0.00,708.91,VWS V14.01,2013-08-23 16:20:00,
2013-08-23 12:21:00,74.5,33.7,30.11,NE,39,5.6,6.1,22,0.00,,,0.00,708.00,VWS V14.01,2013-08-23 16:21:00,
2013-08-23 12:22:00,74.5,33.7,30.11,NE,39,5.6,6.1,22,0.00,,,0.00,708.00,VWS V14.01,2013-08-23 16:22:00,
2013-08-23 12:23:00,75.8,36.4,30.11,NNE,32,3.9,4.9,24,0.00,,,0.00,708.24,VWS V14.01,2013-08-23 16:23:00,
2013-08-23 12:24:00,75.6,36.0,30.11,North,7,6.6,6.6,24,0.00,,,0.00,710.68,VWS V14.01,2013-08-23 16:24:00,
2013-08-23 12:25:00,75.2,37.5,30.12,NE,43,7.3,7.3,25,0.00,,,0.00,710.99,VWS V14.01,2013-08-23 16:25:00,
2013-08-23 12:26:00,75.1,35.6,30.11,NNE,15,5.4,7.3,24,0.00,,,0.00,712.03,VWS V14.01,2013-08-23 16:26:00,
2013-08-23 12:27:00,76.4,38.4,30.11,NNE,23,4.4,5.4,25,0.00,,,0.00,712.88,VWS V14.01,2013-08-23 16:27:00,
2013-08-23 12:28:00,76.0,37.8,30.11,ENE,63,6.4,6.4,25,0.00,,,0.00,713.61,VWS V14.01,2013-08-23 16:28:00,
2013-08-23 12:29:00,76.3,38.0,30.11,ESE,102,4.0,6.4,25,0.00,,,0.00,714.35,VWS V14.01,2013-08-23 16:29:00,
2013-08-23 12:30:00,76.8,37.7,30.13,NNE,32,1.0,2.8,24,0.00,,,0.00,617.16,VWS V14.01,2013-08-23 16:30:00,
2013-08-23 12:31:00,76.7,37.4,30.12,NNE,31,2.8,2.8,24,0.00,,,0.00,588.58,VWS V14.01,2013-08-23 16:31:00,
2013-08-23 12:32:00,76.9,38.8,30.11,NNE,22,5.9,5.9,25,0.00,,,0.00,655.98,VWS V14.01,2013-08-23 16:32:00,
2013-08-23 12:33:00,76.6,36.8,30.11,WNW,290,5.7,5.9,24,0.00,,,0.00,717.46,VWS V14.01,2013-08-23 16:33:00,
2013-08-23 12:34:00,75.2,35.4,30.10,ENE,71,5.2,6.8,23,0.00,,,0.00,720.21,VWS V14.01,2013-08-23 16:34:00,
2013-08-23 12:35:00,77.6,39.8,30.11,NNE,15,3.0,5.2,26,0.00,,,0.00,722.89,VWS V14.01,2013-08-23 16:35:00,
2013-08-23 12:36:00,75.7,35.4,30.12,NE,54,3.2,3.2,23,0.00,,,0.00,722.96,VWS V14.01,2013-08-23 16:36:00,
2013-08-23 12:37:00,77.0,37.1,30.11,NE,38,5.4,5.4,24,0.00,,,0.00,725.70,VWS V14.01,2013-08-23 16:37:00,
2013-08-23 12:38:00,76.9,36.6,30.11,NE,56,5.4,5.4,23,0.00,,,0.00,726.86,VWS V14.01,2013-08-23 16:38:00,
2013-08-23 12:39:00,76.2,35.8,30.11,NNE,31,6.4,6.4,23,0.00,,,0.00,732.78,VWS V14.01,2013-08-23 16:39:00,
2013-08-23 12:40:00,76.3,36.2,30.11,NE,37,7.6,7.6,23,0.00,,,0.00,730.71,VWS V14.01,2013-08-23 16:40:00,
2013-08-23 12:41:00,75.3,35.1,30.11,NNE,23,7.6,8.7,23,0.00,,,0.00,727.53,VWS V14.01,2013-08-23 16:41:00,
2013-08-23 12:42:00,75.6,35.1,30.11,North,360,6.6,8.7,23,0.00,,,0.00,717.77,VWS V14.01,2013-08-23 16:42:00,
2013-08-23 12:43:00,76.5,37.8,30.11,NE,48,5.1,7.3,25,0.00,,,0.00,552.38,VWS V14.01,2013-08-23 16:43:00,
2013-08-23 12:44:00,77.3,37.3,30.12,NNE,21,2.7,3.7,24,0.00,,,0.00,300.37,VWS V14.01,2013-08-23 16:44:00,
2013-08-23 12:45:00,78.1,39.5,30.11,NE,44,1.0,3.7,25,0.00,,,0.00,238.16,VWS V14.01,2013-08-23 16:45:00,
2013-08-23 12:46:00,78.1,35.4,30.11,NNE,33,2.7,2.7,21,0.00,,,0.00,54.52,VWS V14.01,2013-08-23 16:46:00,
2013-08-23 12:47:00,75.7,32.9,30.12,ENE,58,3.9,3.9,21,0.00,,,0.00,48.72,VWS V14.01,2013-08-23 16:47:00,
2013-08-23 12:48:00,77.6,36.5,30.11,North,8,2.7,3.9,23,0.00,,,0.00,48.96,VWS V14.01,2013-08-23 16:48:00,
2013-08-23 12:49:00,78.0,37.8,30.11,NE,48,1.3,2.7,24,0.00,,,0.00,48.41,VWS V14.01,2013-08-23 16:49:00,
2013-08-23 12:50:00,76.9,34.5,30.11,NE,49,3.7,3.7,21,0.00,,,0.00,47.86,VWS V14.01,2013-08-23 16:50:00,
2013-08-23 12:51:00,75.6,34.1,30.11,NE,41,8.0,8.0,22,0.00,,,0.00,48.53,VWS V14.01,2013-08-23 16:51:00,
2013-08-23 12:52:00,75.6,34.1,30.11,NE,41,8.0,8.0,22,0.00,,,0.00,48.53,VWS V14.01,2013-08-23 16:52:00,
2013-08-23 12:53:00,76.6,36.3,30.11,NNE,26,8.1,8.1,23,0.00,,,0.00,48.78,VWS V14.01,2013-08-23 16:53:00,
2013-08-23 12:54:00,76.8,37.4,30.10,ENE,75,4.5,4.5,24,0.00,,,0.00,48.66,VWS V14.01,2013-08-23 16:54:00,
2013-08-23 12:55:00,75.7,34.6,30.11,ENE,57,9.5,9.5,22,0.00,,,0.00,48.17,VWS V14.01,2013-08-23 16:55:00,
2013-08-23 12:56:00,76.6,34.2,30.11,NNE,25,4.7,4.7,21,0.00,,,0.00,312.39,VWS V14.01,2013-08-23 16:56:00,
2013-08-23 12:57:00,77.5,37.2,30.11,NNE,17,3.2,5.6,23,0.00,,,0.00,687.42,VWS V14.01,2013-08-23 16:57:00,
2013-08-23 12:58:00,78.2,39.3,30.10,NE,40,3.5,3.5,25,0.00,,,0.00,742.19,VWS V14.01,2013-08-23 16:58:00,
2013-08-23 12:59:00,77.1,36.7,30.10,East,85,3.9,4.7,23,0.00,,,0.00,744.63,VWS V14.01,2013-08-23 16:59:00,
2013-08-23 13:00:00,76.6,36.2,30.10,East,92,9.2,9.2,23,0.00,,,0.00,746.22,VWS V14.01,2013-08-23 17:00:00,
2013-08-23 13:01:00,76.6,36.2,30.10,East,92,9.2,9.2,23,0.00,,,0.00,746.22,VWS V14.01,2013-08-23 17:01:00,
2013-08-23 13:02:00,76.9,36.5,30.11,ENE,73,4.4,8.8,23,0.00,,,0.00,747.62,VWS V14.01,2013-08-23 17:02:00,
2013-08-23 13:03:00,75.8,33.4,30.11,North,0,5.6,5.6,21,0.00,,,0.00,747.07,VWS V14.01,2013-08-23 17:03:00,
2013-08-23 13:04:00,75.8,33.7,30.11,East,81,8.7,8.7,21,0.00,,,0.00,750.12,VWS V14.01,2013-08-23 17:04:00,
2013-08-23 13:05:00,75.3,32.9,30.11,ENE,68,9.5,9.5,21,0.00,,,0.00,749.51,VWS V14.01,2013-08-23 17:05:00,
2013-08-23 13:06:00,77.8,37.9,30.11,NNE,32,6.1,9.5,24,0.00,,,0.00,749.51,VWS V14.01,2013-08-23 17:06:00,
2013-08-23 13:07:00,77.7,35.3,30.10,NNW,336,3.5,6.1,22,0.00,,,0.00,727.05,VWS V14.01,2013-08-23 17:07:00,
2013-08-23 13:08:00,77.8,38.5,30.11,NNE,27,5.7,5.7,24,0.00,,,0.00,620.09,VWS V14.01,2013-08-23 17:08:00,
2013-08-23 13:09:00,76.8,35.7,30.11,East,84,7.1,7.1,23,0.00,,,0.00,632.30,VWS V14.01,2013-08-23 17:09:00,
2013-08-23 13:10:00,75.5,35.4,30.11,NE,40,7.6,7.6,23,0.00,,,0.00,751.95,VWS V14.01,2013-08-23 17:10:00,
2013-08-23 13:11:00,77.3,36.9,30.11,ENE,72,4.2,5.1,23,0.00,,,0.00,751.95,VWS V14.01,2013-08-23 17:11:00,
2013-08-23 13:12:00,76.7,33.7,30.11,NNE,29,4.0,5.1,21,0.00,,,0.00,750.73,VWS V14.01,2013-08-23 17:12:00,
2013-08-23 13:13:00,76.4,33.9,30.12,NE,41,6.1,6.1,21,0.00,,,0.00,751.95,VWS V14.01,2013-08-23 17:13:00,
2013-08-23 13:14:00,76.6,35.6,30.11,NE,41,6.4,6.4,23,0.00,,,0.00,751.34,VWS V14.01,2013-08-23 17:14:00,
2013-08-23 13:15:00,77.7,36.4,30.11,ENE,76,5.9,8.1,22,0.00,,,0.00,751.22,VWS V14.01,2013-08-23 17:15:00,
2013-08-23 13:16:00,78.3,37.7,30.11,North,5,4.5,4.5,23,0.00,,,0.00,748.78,VWS V14.01,2013-08-23 17:16:00,
2013-08-23 13:17:00,77.3,35.0,30.11,NE,47,4.2,4.5,22,0.00,,,0.00,750.86,VWS V14.01,2013-08-23 17:17:00,
2013-08-23 13:18:00,77.2,34.5,30.11,NW,323,4.7,6.4,21,0.00,,,0.00,744.38,VWS V14.01,2013-08-23 17:18:00,
2013-08-23 13:19:00,77.7,34.8,30.11,NW,319,5.9,5.9,21,0.00,,,0.00,749.51,VWS V14.01,2013-08-23 17:19:00,
2013-08-23 13:20:00,77.1,34.0,30.10,NNE,24,6.1,6.1,21,0.00,,,0.00,759.28,VWS V14.01,2013-08-23 17:20:00,
2013-08-23 13:21:00,77.6,35.9,30.10,NE,37,5.2,6.1,22,0.00,,,0.00,758.97,VWS V14.01,2013-08-23 17:21:00,
2013-08-23 13:22:00,75.9,31.5,30.12,ENE,68,5.1,5.2,20,0.00,,,0.00,759.28,VWS V14.01,2013-08-23 17:22:00,
2013-08-23 13:23:00,78.1,36.2,30.10,NNE,29,4.5,5.1,22,0.00,,,0.00,758.06,VWS V14.01,2013-08-23 17:23:00,
2013-08-23 13:24:00,79.2,37.6,30.10,NNE,13,1.6,4.5,22,0.00,,,0.00,755.13,VWS V14.01,2013-08-23 17:24:00,
2013-08-23 13:25:00,77.4,33.7,30.10,NNE,16,4.7,4.9,20,0.00,,,0.00,759.28,VWS V14.01,2013-08-23 17:25:00,
2013-08-23 13:26:00,76.5,30.8,30.10,NE,49,5.4,5.9,19,0.00,,,0.00,756.84,VWS V14.01,2013-08-23 17:26:00,
2013-08-23 13:27:00,78.1,34.7,30.11,NW,305,1.6,5.4,21,0.00,,,0.00,759.59,VWS V14.01,2013-08-23 17:27:00,
2013-08-23 13:28:00,76.8,30.2,30.11,North,7,5.9,5.9,18,0.00,,,0.00,757.81,VWS V14.01,2013-08-23 17:28:00,
2013-08-23 13:29:00,78.3,33.3,30.10,NW,307,2.3,5.9,19,0.00,,,0.00,757.08,VWS V14.01,2013-08-23 17:29:00,
2013-08-23 13:30:00,77.3,32.1,30.10,ENE,62,2.8,3.7,19,0.00,,,0.00,759.28,VWS V14.01,2013-08-23 17:30:00,
2013-08-23 13:31:00,76.9,32.1,30.10,ENE,61,5.7,6.8,19,0.00,,,0.00,758.79,VWS V14.01,2013-08-23 17:31:00,
2013-08-23 13:32:00,76.5,31.2,30.10,ENE,72,6.8,6.8,19,0.00,,,0.00,758.30,VWS V14.01,2013-08-23 17:32:00,
2013-08-23 13:33:00,76.4,30.4,30.10,NNE,19,5.4,7.3,18,0.00,,,0.00,761.72,VWS V14.01,2013-08-23 17:33:00,
2013-08-23 13:34:00,78.0,35.2,30.10,NE,46,3.0,5.4,21,0.00,,,0.00,761.23,VWS V14.01,2013-08-23 17:34:00,
2013-08-23 13:35:00,76.0,29.9,30.10,NNE,19,7.6,7.6,18,0.00,,,0.00,761.48,VWS V14.01,2013-08-23 17:35:00,
2013-08-23 13:36:00,77.5,34.0,30.10,NNE,25,5.6,5.6,21,0.00,,,0.00,762.88,VWS V14.01,2013-08-23 17:36:00,
2013-08-23 13:37:00,76.8,33.7,30.10,NE,54,6.3,6.3,21,0.00,,,0.00,760.50,VWS V14.01,2013-08-23 17:37:00,
2013-08-23 13:38:00,77.6,32.5,30.10,ENE,58,5.2,6.3,19,0.00,,,0.00,761.42,VWS V14.01,2013-08-23 17:38:00,
2013-08-23 13:39:00,78.2,33.4,30.10,ENE,64,3.7,5.2,20,0.00,,,0.00,763.19,VWS V14.01,2013-08-23 17:39:00,
2013-08-23 13:40:00,76.7,31.6,30.11,NNE,32,6.3,6.3,19,0.00,,,0.00,754.27,VWS V14.01,2013-08-23 17:40:00,
2013-08-23 13:41:00,77.1,29.9,30.10,NE,50,5.6,6.3,18,0.00,,,0.00,618.01,VWS V14.01,2013-08-23 17:41:00,
2013-08-23 13:42:00,77.1,31.1,30.10,NE,56,2.3,5.6,19,0.00,,,0.00,644.51,VWS V14.01,2013-08-23 17:42:00,
2013-08-23 13:43:00,78.1,33.6,30.10,ESE,119,3.9,3.9,20,0.00,,,0.00,764.77,VWS V14.01,2013-08-23 17:43:00,
2013-08-23 13:44:00,76.4,34.0,30.10,NE,56,4.7,5.2,21,0.00,,,0.00,762.33,VWS V14.01,2013-08-23 17:44:00,
2013-08-23 13:45:00,78.1,34.3,30.10,East,84,5.6,5.6,20,0.00,,,0.00,762.03,VWS V14.01,2013-08-23 17:45:00,
2013-08-23 13:46:00,76.8,30.5,30.10,NNE,16,5.4,6.4,18,0.00,,,0.00,762.45,VWS V14.01,2013-08-23 17:46:00,
2013-08-23 13:47:00,78.3,35.5,30.10,ENE,64,5.4,5.6,21,0.00,,,0.00,761.72,VWS V14.01,2013-08-23 17:47:00,
2013-08-23 13:48:00,77.8,34.1,30.10,NE,46,5.1,6.4,20,0.00,,,0.00,762.39,VWS V14.01,2013-08-23 17:48:00,
2013-08-23 13:49:00,76.3,30.8,30.10,NE,45,5.6,5.6,19,0.00,,,0.00,761.72,VWS V14.01,2013-08-23 17:49:00,
2013-08-23 13:50:00,76.8,31.1,30.11,NE,53,7.3,7.3,19,0.00,,,0.00,764.16,VWS V14.01,2013-08-23 17:50:00,
2013-08-23 13:51:00,77.1,32.5,30.10,NE,53,5.4,7.3,20,0.00,,,0.00,764.16,VWS V14.01,2013-08-23 17:51:00,
2013-08-23 13:52:00,77.5,31.3,30.10,NE,52,5.4,5.4,18,0.00,,,0.00,761.72,VWS V14.01,2013-08-23 17:52:00,
2013-08-23 13:53:00,77.5,32.5,30.10,NNE,28,4.5,6.3,19,0.00,,,0.00,762.21,VWS V14.01,2013-08-23 17:53:00,
2013-08-23 13:54:00,77.4,33.6,30.10,East,86,4.0,5.4,20,0.00,,,0.00,762.21,VWS V14.01,2013-08-23 17:54:00,
2013-08-23 13:55:00,78.3,34.7,30.10,NE,45,3.4,4.0,21,0.00,,,0.00,762.33,VWS V14.01,2013-08-23 17:55:00,
2013-08-23 13:56:00,77.6,32.8,30.11,NE,43,6.1,6.1,20,0.00,,,0.00,761.72,VWS V14.01,2013-08-23 17:56:00,
2013-08-23 13:57:00,77.3,32.4,30.10,North,8,4.2,4.2,19,0.00,,,0.00,761.23,VWS V14.01,2013-08-23 17:57:00,
2013-08-23 13:58:00,77.2,31.3,30.11,NE,39,2.8,2.8,19,0.00,,,0.00,759.28,VWS V14.01,2013-08-23 17:58:00,
2013-08-23 13:59:00,78.6,35.0,30.11,NE,48,4.4,4.4,21,0.00,,,0.00,757.27,VWS V14.01,2013-08-23 17:59:00,
2013-08-23 14:00:00,78.8,35.0,30.11,ENE,67,5.1,5.1,21,0.00,,,0.00,756.53,VWS V14.01,2013-08-23 18:00:00,
2013-08-23 14:01:00,78.3,35.3,30.11,ENE,66,3.7,5.1,21,0.00,,,0.00,756.53,VWS V14.01,2013-08-23 18:01:00,
2013-08-23 14:02:00,79.4,36.2,30.10,North,3,2.8,3.7,21,0.00,,,0.00,756.84,VWS V14.01,2013-08-23 18:02:00,
2013-08-23 14:03:00,77.8,33.4,30.11,NNE,19,6.4,6.4,20,0.00,,,0.00,756.59,VWS V14.01,2013-08-23 18:03:00,
2013-08-23 14:04:00,77.7,33.2,30.11,NNE,12,7.3,7.3,20,0.00,,,0.00,754.64,VWS V14.01,2013-08-23 18:04:00,
2013-08-23 14:05:00,77.6,32.1,30.10,NNE,20,7.1,7.3,19,0.00,,,0.00,754.40,VWS V14.01,2013-08-23 18:05:00,
2013-08-23 14:06:00,77.3,31.8,30.10,NNE,18,5.2,7.3,19,0.00,,,0.00,756.84,VWS V14.01,2013-08-23 18:06:00,
2013-08-23 14:07:00,78.7,32.0,30.10,NNE,16,3.7,5.2,18,0.00,,,0.00,756.53,VWS V14.01,2013-08-23 18:07:00,
2013-08-23 14:08:00,79.0,33.2,30.10,NNW,329,3.2,3.7,19,0.00,,,0.00,758.00,VWS V14.01,2013-08-23 18:08:00,
2013-08-23 14:09:00,79.0,33.2,30.10,NNW,329,3.2,3.7,19,0.00,,,0.00,758.00,VWS V14.01,2013-08-23 18:09:00,
2013-08-23 14:10:00,80.0,35.7,30.10,North,1,3.0,3.4,20,0.00,,,0.00,757.08,VWS V14.01,2013-08-23 18:10:00,
2013-08-23 14:11:00,77.9,30.9,30.10,WNW,290,3.0,6.1,18,0.00,,,0.00,759.04,VWS V14.01,2013-08-23 18:11:00,
2013-08-23 14:12:00,78.0,31.0,30.10,NNE,18,3.2,3.2,18,0.00,,,0.00,759.04,VWS V14.01,2013-08-23 18:12:00,
2013-08-23 14:13:00,78.8,33.8,30.10,NE,53,3.0,3.4,20,0.00,,,0.00,756.84,VWS V14.01,2013-08-23 18:13:00,
2013-08-23 14:14:00,77.0,27.0,30.10,NNE,33,4.7,6.9,16,0.00,,,0.00,756.84,VWS V14.01,2013-08-23 18:14:00,
2013-08-23 14:15:00,78.4,29.5,30.10,NNE,15,3.2,4.7,17,0.00,,,0.00,757.27,VWS V14.01,2013-08-23 18:15:00,
2013-08-23 14:16:00,78.0,33.5,30.10,NE,34,4.4,4.4,20,0.00,,,0.00,756.35,VWS V14.01,2013-08-23 18:16:00,
2013-08-23 14:17:00,77.9,33.4,30.10,NE,42,5.9,5.9,20,0.00,,,0.00,748.90,VWS V14.01,2013-08-23 18:17:00,
2013-08-23 14:18:00,77.7,30.8,30.10,East,90,3.9,6.8,18,0.00,,,0.00,754.88,VWS V14.01,2013-08-23 18:18:00,
2013-08-23 14:19:00,76.8,28.0,30.11,NNE,29,3.7,3.7,17,0.00,,,0.00,754.40,VWS V14.01,2013-08-23 18:19:00,
2013-08-23 14:20:00,79.3,32.6,30.09,NE,41,3.0,3.0,18,0.00,,,0.00,752.20,VWS V14.01,2013-08-23 18:20:00,
2013-08-23 14:21:00,80.4,37.2,30.09,NNE,14,4.2,4.2,21,0.00,,,0.00,750.73,VWS V14.01,2013-08-23 18:21:00,
2013-08-23 14:22:00,76.9,29.9,30.10,NE,35,7.6,7.6,18,0.00,,,0.00,751.95,VWS V14.01,2013-08-23 18:22:00,
2013-08-23 14:23:00,77.5,32.0,30.10,ENE,60,5.6,7.6,19,0.00,,,0.00,749.51,VWS V14.01,2013-08-23 18:23:00,
2013-08-23 14:24:00,78.1,33.0,30.11,NNE,23,6.1,6.1,19,0.00,,,0.00,749.51,VWS V14.01,2013-08-23 18:24:00,
2013-08-23 14:25:00,78.6,34.0,30.10,NE,35,4.9,6.1,20,0.00,,,0.00,751.04,VWS V14.01,2013-08-23 18:25:00,
2013-08-23 14:26:00,78.0,33.9,30.10,East,98,5.4,6.9,20,0.00,,,0.00,750.49,VWS V14.01,2013-08-23 18:26:00,
2013-08-23 14:27:00,78.0,34.0,30.11,NNE,31,3.2,5.4,20,0.00,,,0.00,750.00,VWS V14.01,2013-08-23 18:27:00,
2013-08-23 14:28:00,77.4,32.4,30.10,NE,52,6.8,6.8,19,0.00,,,0.00,747.50,VWS V14.01,2013-08-23 18:28:00,
2013-08-23 14:29:00,78.3,34.6,30.10,NE,48,6.3,6.8,21,0.00,,,0.00,747.80,VWS V14.01,2013-08-23 18:29:00,
2013-08-23 14:30:00,77.8,33.0,30.10,NE,35,6.4,8.3,20,0.00,,,0.00,747.80,VWS V14.01,2013-08-23 18:30:00,
2013-08-23 14:31:00,78.6,36.1,30.10,East,83,2.7,2.7,22,0.00,,,0.00,746.09,VWS V14.01,2013-08-23 18:31:00,
2013-08-23 14:32:00,77.2,31.5,30.11,ENE,64,5.2,5.2,19,0.00,,,0.00,745.60,VWS V14.01,2013-08-23 18:32:00,
2013-08-23 14:33:00,78.1,34.3,30.10,NE,47,2.5,4.5,20,0.00,,,0.00,745.48,VWS V14.01,2013-08-23 18:33:00,
2013-08-23 14:34:00,79.0,35.0,30.10,NE,34,8.1,8.1,20,0.00,,,0.00,741.21,VWS V14.01,2013-08-23 18:34:00,
2013-08-23 14:35:00,77.7,32.5,30.10,ENE,59,6.6,10.4,19,0.00,,,0.00,738.46,VWS V14.01,2013-08-23 18:35:00,
2013-08-23 14:36:00,77.7,33.2,30.10,NNE,33,5.4,6.6,20,0.00,,,0.00,739.01,VWS V14.01,2013-08-23 18:36:00,
2013-08-23 14:37:00,77.4,30.3,30.10,East,100,3.4,5.4,18,0.00,,,0.00,739.99,VWS V14.01,2013-08-23 18:37:00,
2013-08-23 14:38:00,77.7,31.9,30.10,ENE,57,5.9,5.9,19,0.00,,,0.00,739.99,VWS V14.01,2013-08-23 18:38:00,
2013-08-23 14:39:00,77.9,33.2,30.10,ENE,66,3.7,5.9,20,0.00,,,0.00,742.19,VWS V14.01,2013-08-23 18:39:00,
2013-08-23 14:40:00,77.7,33.4,30.10,ENE,57,3.9,3.9,20,0.00,,,0.00,739.74,VWS V14.01,2013-08-23 18:40:00,
2013-08-23 14:41:00,78.4,32.8,30.10,ENE,60,4.0,4.5,19,0.00,,,0.00,741.21,VWS V14.01,2013-08-23 18:41:00,
2013-08-23 14:42:00,78.8,32.2,30.10,NE,51,1.5,4.0,18,0.00,,,0.00,737.79,VWS V14.01,2013-08-23 18:42:00,
2013-08-23 14:43:00,78.8,32.2,30.10,NE,51,1.5,4.0,18,0.00,,,0.00,737.79,VWS V14.01,2013-08-23 18:43:00,
2013-08-23 14:44:00,80.6,34.9,30.10,SE,143,1.0,1.0,19,0.00,,,0.00,737.30,VWS V14.01,2013-08-23 18:44:00,
2013-08-23 14:45:00,79.4,32.8,30.10,ENE,57,3.7,3.7,18,0.00,,,0.00,735.71,VWS V14.01,2013-08-23 18:45:00,
2013-08-23 14:46:00,78.1,30.3,30.10,NNE,33,4.4,4.4,17,0.00,,,0.00,736.81,VWS V14.01,2013-08-23 18:46:00,
2013-08-23 14:47:00,79.1,29.5,30.10,SSW,205,2.5,2.5,16,0.00,,,0.00,734.86,VWS V14.01,2013-08-23 18:47:00,
2013-08-23 14:48:00,80.4,33.7,30.10,SSW,204,0.0,2.5,18,0.00,,,0.00,734.86,VWS V14.01,2013-08-23 18:48:00,
2013-08-23 14:49:00,78.9,30.2,30.10,NNW,346,4.9,4.9,17,0.00,,,0.00,735.78,VWS V14.01,2013-08-23 18:49:00,
2013-08-23 14:50:00,78.0,27.2,30.10,North,10,0.0,4.9,15,0.00,,,0.00,732.91,VWS V14.01,2013-08-23 18:50:00,
2013-08-23 14:51:00,79.5,31.3,30.10,North,11,2.3,3.7,17,0.00,,,0.00,729.98,VWS V14.01,2013-08-23 18:51:00,
2013-08-23 14:52:00,79.8,29.8,30.09,NW,320,2.8,2.8,16,0.00,,,0.00,727.53,VWS V14.01,2013-08-23 18:52:00,
2013-08-23 14:53:00,78.4,30.9,30.09,West,272,2.0,2.8,18,0.00,,,0.00,727.53,VWS V14.01,2013-08-23 18:53:00,
2013-08-23 14:54:00,77.2,28.8,30.09,West,277,6.9,6.9,17,0.00,,,0.00,725.70,VWS V14.01,2013-08-23 18:54:00,
2013-08-23 14:55:00,78.7,31.6,30.09,NW,319,5.1,6.9,18,0.00,,,0.00,724.12,VWS V14.01,2013-08-23 18:55:00,
2013-08-23 14:56:00,79.3,33.9,30.10,NNW,347,4.2,5.1,19,0.00,,,0.00,724.85,VWS V14.01,2013-08-23 18:56:00,
2013-08-23 14:57:00,78.8,32.6,30.10,NNE,17,4.0,4.2,19,0.00,,,0.00,722.89,VWS V14.01,2013-08-23 18:57:00,
2013-08-23 14:58:00,79.6,34.3,30.10,WSW,258,3.7,5.7,19,0.00,,,0.00,721.92,VWS V14.01,2013-08-23 18:58:00,
2013-08-23 14:59:00,79.0,33.1,30.10,NW,309,3.4,3.7,19,0.00,,,0.00,721.18,VWS V14.01,2013-08-23 18:59:00,
2013-08-23 15:00:00,78.1,28.7,30.10,NNW,329,4.9,7.5,16,0.00,,,0.00,717.46,VWS V14.01,2013-08-23 19:00:00,
2013-08-23 15:01:00,78.2,28.8,30.09,North,6,4.0,4.9,16,0.00,,,0.00,717.77,VWS V14.01,2013-08-23 19:01:00,
2013-08-23 15:02:00,78.4,32.7,30.09,East,94,4.4,7.3,19,0.00,,,0.00,635.47,VWS V14.01,2013-08-23 19:02:00,
2013-08-23 15:03:00,77.8,30.0,30.10,North,11,5.7,5.7,17,0.00,,,0.00,717.77,VWS V14.01,2013-08-23 19:03:00,
2013-08-23 15:04:00,77.8,30.0,30.10,North,11,5.7,5.7,17,0.00,,,0.00,717.77,VWS V14.01,2013-08-23 19:04:00,
2013-08-23 15:06:00,79.8,32.8,30.10,NE,48,3.7,3.7,18,0.00,,,0.00,715.32,VWS V14.01,2013-08-23 19:06:00,
2013-08-23 15:08:00,79.6,32.2,30.09,NE,54,5.1,7.3,18,0.00,,,0.00,623.75,VWS V14.01,2013-08-23 19:08:00,
2013-08-23 15:09:00,77.7,27.7,30.10,NNE,31,6.1,6.1,16,0.00,,,0.00,713.19,VWS V14.01,2013-08-23 19:09:00,
2013-08-23 15:11:00,77.2,26.3,30.09,NE,47,4.5,4.5,15,0.00,,,0.00,710.68,VWS V14.01,2013-08-23 19:11:00,
2013-08-23 15:13:00,79.1,33.3,30.10,NE,39,4.2,8.1,19,0.00,,,0.00,615.20,VWS V14.01,2013-08-23 19:13:00,
2013-08-23 15:14:00,79.4,33.5,30.10,East,86,4.5,4.5,19,0.00,,,0.00,711.05,VWS V14.01,2013-08-23 19:14:00,
2013-08-23 15:16:00,78.5,30.6,30.10,East,79,2.5,5.7,17,0.00,,,0.00,704.09,VWS V14.01,2013-08-23 19:16:00,
2013-08-23 15:17:00,77.7,28.5,30.09,ESE,116,3.4,5.7,16,0.00,,,0.00,703.11,VWS V14.01,2013-08-23 19:17:00,
2013-08-23 15:18:00,79.2,25.1,30.09,ENE,70,1.0,8.1,14,0.00,,,0.00,607.33,VWS V14.01,2013-08-23 19:18:00,
2013-08-23 15:19:00,80.6,33.3,30.09,SE,131,0.0,2.7,18,0.00,,,0.00,701.28,VWS V14.01,2013-08-23 19:19:00,
2013-08-23 15:20:00,79.7,32.7,30.09,NE,48,1.8,1.8,18,0.00,,,0.00,698.23,VWS V14.01,2013-08-23 19:20:00,
2013-08-23 15:23:00,78.7,30.9,30.10,NW,304,2.7,5.1,17,0.00,,,0.00,693.35,VWS V14.01,2013-08-23 19:23:00,
2013-08-23 15:24:00,79.1,29.3,30.09,North,4,2.8,4.7,16,0.00,,,0.00,690.90,VWS V14.01,2013-08-23 19:24:00,
2013-08-23 15:25:00,79.1,29.3,30.09,North,4,2.8,4.7,16,0.00,,,0.00,690.90,VWS V14.01,2013-08-23 19:25:00,
2013-08-23 15:26:00,80.5,34.9,30.10,NW,321,1.0,2.8,19,0.00,,,0.00,690.17,VWS V14.01,2013-08-23 19:26:00,
2013-08-23 15:28:00,78.9,30.7,30.09,NNE,17,5.6,5.6,17,0.00,,,0.00,686.02,VWS V14.01,2013-08-23 19:28:00,
2013-08-23 15:29:00,77.9,30.0,30.09,NNW,327,6.8,6.8,17,0.00,,,0.00,686.02,VWS V14.01,2013-08-23 19:29:00,
2013-08-23 15:30:00,79.1,28.5,30.09,NW,308,2.7,6.8,16,0.00,,,0.00,683.88,VWS V14.01,2013-08-23 19:30:00,
2013-08-23 15:31:00,79.8,33.7,30.09,North,2,3.2,3.2,19,0.00,,,0.00,683.33,VWS V14.01,2013-08-23 19:31:00,
2013-08-23 15:32:00,78.6,31.1,30.08,NE,55,4.9,8.1,18,0.00,,,0.00,573.44,VWS V14.01,2013-08-23 19:32:00,
2013-08-23 15:33:00,78.5,31.6,30.10,NE,41,5.4,5.4,18,0.00,,,0.00,681.14,VWS V14.01,2013-08-23 19:33:00,
2013-08-23 15:34:00,77.3,26.5,30.09,ENE,61,6.8,6.8,15,0.00,,,0.00,677.90,VWS V14.01,2013-08-23 19:34:00,
2013-08-23 15:35:00,78.1,30.4,30.10,East,82,4.7,4.7,17,0.00,,,0.00,676.68,VWS V14.01,2013-08-23 19:35:00,
2013-08-23 15:37:00,78.8,30.2,30.08,East,101,3.4,8.1,17,0.00,,,0.00,563.92,VWS V14.01,2013-08-23 19:37:00,
2013-08-23 15:38:00,77.6,30.4,30.10,NE,48,4.9,4.9,18,0.00,,,0.00,674.42,VWS V14.01,2013-08-23 19:38:00,
2013-08-23 15:39:00,79.8,35.0,30.10,NNE,24,6.3,6.3,20,0.00,,,0.00,671.61,VWS V14.01,2013-08-23 19:39:00,
2013-08-23 15:40:00,77.3,26.6,30.08,ENE,65,5.7,8.1,15,0.00,,,0.00,556.35,VWS V14.01,2013-08-23 19:40:00,
2013-08-23 15:42:00,79.7,30.3,30.10,NNE,14,2.0,3.0,16,0.00,,,0.00,668.07,VWS V14.01,2013-08-23 19:42:00,
2013-08-23 15:43:00,79.8,34.4,30.10,North,351,4.5,5.2,19,0.00,,,0.00,666.18,VWS V14.01,2013-08-23 19:43:00,
2013-08-23 15:44:00,78.5,30.1,30.08,NE,34,4.2,8.1,17,0.00,,,0.00,544.87,VWS V14.01,2013-08-23 19:44:00,
2013-08-23 15:45:00,78.2,30.9,30.09,NNE,23,5.1,6.6,18,0.00,,,0.00,663.68,VWS V14.01,2013-08-23 19:45:00,
2013-08-23 15:47:00,78.3,30.6,30.09,NW,315,5.6,5.6,17,0.00,,,0.00,660.87,VWS V14.01,2013-08-23 19:47:00,
2013-08-23 15:50:00,78.3,29.8,30.09,NE,35,3.7,4.5,17,0.00,,,0.00,654.88,VWS V14.01,2013-08-23 19:50:00,
2013-08-23 15:52:00,79.6,32.0,30.09,North,6,4.5,4.5,18,0.00,,,0.00,654.58,VWS V14.01,2013-08-23 19:52:00,
2013-08-23 15:54:00,78.9,32.3,30.09,WNW,287,1.1,2.0,18,0.00,,,0.00,647.19,VWS V14.01,2013-08-23 19:54:00,
2013-08-23 15:56:00,79.6,33.5,30.09,NW,314,4.0,4.0,19,0.00,,,0.00,647.01,VWS V14.01,2013-08-23 19:56:00,
2013-08-23 15:57:00,78.5,30.6,30.09,NNE,33,4.5,5.6,17,0.00,,,0.00,640.84,VWS V14.01,2013-08-23 19:57:00,
2013-08-23 16:01:00,78.0,30.4,30.09,East,93,5.6,7.3,17,0.00,,,0.00,638.03,VWS V14.01,2013-08-23 20:01:00,
2013-08-23 16:02:00,77.8,30.6,30.09,ENE,70,4.9,4.9,18,0.00,,,0.00,717.77,VWS V14.01,2013-08-23 20:02:00,
2013-08-23 16:03:00,78.9,31.8,30.09,SE,132,2.7,7.3,18,0.00,,,0.00,634.74,VWS V14.01,2013-08-23 20:03:00,
2013-08-23 16:04:00,77.3,26.2,30.09,ENE,59,2.8,7.3,15,0.00,,,0.00,629.24,VWS V14.01,2013-08-23 20:04:00,
2013-08-23 16:05:00,77.3,28.1,30.10,WNW,294,4.4,5.7,16,0.00,,,0.00,717.52,VWS V14.01,2013-08-23 20:05:00,
2013-08-23 16:06:00,78.5,30.0,30.10,NNW,335,3.5,4.4,17,0.00,,,0.00,715.32,VWS V14.01,2013-08-23 20:06:00,
2013-08-23 16:07:00,79.6,32.2,30.09,NE,54,5.1,7.3,18,0.00,,,0.00,623.75,VWS V14.01,2013-08-23 20:07:00,
2013-08-23 16:08:00,78.8,26.9,30.09,NNW,331,3.9,7.3,15,0.00,,,0.00,622.53,VWS V14.01,2013-08-23 20:08:00,
2013-08-23 16:09:00,78.8,26.9,30.09,NNW,331,3.9,7.3,15,0.00,,,0.00,622.53,VWS V14.01,2013-08-23 20:09:00,
2013-08-23 16:10:00,79.1,30.7,30.10,NE,48,2.0,7.3,17,0.00,,,0.00,618.19,VWS V14.01,2013-08-23 20:10:00,
2013-08-23 16:11:00,77.5,25.3,30.10,NNE,15,4.5,4.5,14,0.00,,,0.00,712.64,VWS V14.01,2013-08-23 20:11:00,
2013-08-23 16:12:00,77.2,26.3,30.09,NE,47,4.5,4.5,15,0.00,,,0.00,710.68,VWS V14.01,2013-08-23 20:12:00,
2013-08-23 16:13:00,77.4,27.4,30.09,ENE,64,5.6,8.1,16,0.00,,,0.00,615.75,VWS V14.01,2013-08-23 20:13:00,
2013-08-23 16:14:00,78.4,28.8,30.09,NE,44,3.9,8.1,16,0.00,,,0.00,613.37,VWS V14.01,2013-08-23 20:14:00,
2013-08-23 16:15:00,78.0,30.0,30.09,ENE,59,5.7,5.7,17,0.00,,,0.00,705.56,VWS V14.01,2013-08-23 20:15:00,
2013-08-23 16:16:00,76.6,26.5,30.10,ENE,76,5.7,6.6,16,0.00,,,0.00,699.15,VWS V14.01,2013-08-23 20:16:00,
2013-08-23 16:17:00,78.7,27.8,30.09,East,82,2.0,8.1,15,0.00,,,0.00,607.88,VWS V14.01,2013-08-23 20:17:00,
2013-08-23 16:18:00,79.2,25.1,30.09,ENE,70,1.0,8.1,14,0.00,,,0.00,607.33,VWS V14.01,2013-08-23 20:18:00,
2013-08-23 16:19:00,78.8,28.3,30.09,NNE,24,3.4,8.1,16,0.00,,,0.00,604.95,VWS V14.01,2013-08-23 20:19:00,
2013-08-23 16:20:00,80.6,33.4,30.09,NW,324,0.0,2.7,18,0.00,,,0.00,699.45,VWS V14.01,2013-08-23 20:20:00,
2013-08-23 16:21:00,79.5,32.4,30.09,NE,47,1.0,1.8,18,0.00,,,0.00,695.79,VWS V14.01,2013-08-23 20:21:00,
2013-08-23 16:22:00,78.1,29.0,30.09,NNE,27,4.9,4.9,16,0.00,,,0.00,695.79,VWS V14.01,2013-08-23 20:22:00,
2013-08-23 16:23:00,78.9,26.8,30.09,NE,36,2.2,8.1,15,0.00,,,0.00,595.91,VWS V14.01,2013-08-23 20:23:00,
2013-08-23 16:24:00,80.1,29.4,30.10,East,84,0.0,8.1,16,0.00,,,0.00,593.77,VWS V14.01,2013-08-23 20:24:00,
2013-08-23 16:25:00,79.1,29.3,30.09,North,4,2.8,4.7,16,0.00,,,0.00,690.90,VWS V14.01,2013-08-23 20:25:00,
2013-08-23 16:26:00,80.5,34.9,30.10,NW,321,1.0,2.8,19,0.00,,,0.00,690.17,VWS V14.01,2013-08-23 20:26:00,
2013-08-23 16:27:00,79.8,31.2,30.09,North,7,2.8,8.1,17,0.00,,,0.00,583.94,VWS V14.01,2013-08-23 20:27:00,
2013-08-23 16:28:00,79.4,31.3,30.09,ENE,72,2.2,8.1,17,0.00,,,0.00,582.17,VWS V14.01,2013-08-23 20:28:00,
2013-08-23 16:29:00,79.2,31.2,30.09,NNE,30,4.7,8.1,17,0.00,,,0.00,581.75,VWS V14.01,2013-08-23 20:29:00,
2013-08-23 16:30:00,77.9,30.0,30.09,NNW,327,6.8,6.8,17,0.00,,,0.00,686.02,VWS V14.01,2013-08-23 20:30:00,
2013-08-23 16:31:00,78.7,32.0,30.09,NNE,22,5.4,8.1,18,0.00,,,0.00,573.93,VWS V14.01,2013-08-23 20:31:00,
2013-08-23 16:32:00,79.6,33.5,30.09,NE,43,5.4,5.4,19,0.00,,,0.00,683.09,VWS V14.01,2013-08-23 20:32:00,
2013-08-23 16:33:00,79.4,34.4,30.08,NE,47,3.7,8.1,20,0.00,,,0.00,568.32,VWS V14.01,2013-08-23 20:33:00,
2013-08-23 16:34:00,79.4,34.4,30.08,NE,47,3.7,8.1,20,0.00,,,0.00,568.32,VWS V14.01,2013-08-23 20:34:00,
2013-08-23 16:35:00,78.1,30.4,30.10,East,82,4.7,6.8,17,0.00,,,0.00,676.68,VWS V14.01,2013-08-23 20:35:00,
2013-08-23 16:36:00,77.9,29.8,30.10,NNE,28,6.4,9.2,17,0.00,,,0.00,676.19,VWS V14.01,2013-08-23 20:36:00,
2013-08-23 16:37:00,78.8,30.2,30.08,East,101,3.4,8.1,17,0.00,,,0.00,563.92,VWS V14.01,2013-08-23 20:37:00,
2013-08-23 16:38:00,77.6,30.4,30.10,NE,48,4.9,6.8,18,0.00,,,0.00,674.42,VWS V14.01,2013-08-23 20:38:00,
2013-08-23 16:39:00,80.0,32.6,30.09,NW,313,2.7,8.1,18,0.00,,,0.00,559.95,VWS V14.01,2013-08-23 20:39:00,
2013-08-23 16:40:00,78.7,31.2,30.09,ENE,65,3.0,6.3,18,0.00,,,0.00,672.28,VWS V14.01,2013-08-23 20:40:00,
2013-08-23 16:41:00,78.2,29.2,30.09,ENE,68,4.9,4.9,17,0.00,,,0.00,669.90,VWS V14.01,2013-08-23 20:41:00,
2013-08-23 16:42:00,78.7,27.8,30.09,East,99,4.7,8.1,15,0.00,,,0.00,551.47,VWS V14.01,2013-08-23 20:42:00,
2013-08-23 16:43:00,78.1,31.8,30.10,NE,49,5.2,5.2,18,0.00,,,0.00,667.40,VWS V14.01,2013-08-23 20:43:00,
2013-08-23 16:44:00,77.3,30.0,30.10,NE,47,5.4,5.4,18,0.00,,,0.00,665.75,VWS V14.01,2013-08-23 20:44:00,
2013-08-23 16:45:00,77.4,26.2,30.08,NNE,14,5.2,8.1,15,0.00,,,0.00,544.20,VWS V14.01,2013-08-23 20:45:00,
2013-08-23 16:46:00,78.6,30.6,30.08,NNE,18,3.0,8.1,17,0.00,,,0.00,541.94,VWS V14.01,2013-08-23 20:46:00,
2013-08-23 16:47:00,79.2,31.5,30.09,NNE,19,3.4,3.4,18,0.00,,,0.00,661.60,VWS V14.01,2013-08-23 20:47:00,
2013-08-23 16:48:00,77.3,28.3,30.09,ENE,60,7.1,8.1,16,0.00,,,0.00,537.06,VWS V14.01,2013-08-23 20:48:00,
2013-08-23 16:49:00,77.3,28.6,30.08,NE,40,5.1,8.1,17,0.00,,,0.00,536.33,VWS V14.01,2013-08-23 20:49:00,
2013-08-23 16:50:00,78.7,31.2,30.08,ENE,72,3.5,8.1,18,0.00,,,0.00,533.39,VWS V14.01,2013-08-23 20:50:00,
2013-08-23 16:51:00,78.4,29.8,30.08,NNE,32,4.5,8.1,17,0.00,,,0.00,532.66,VWS V14.01,2013-08-23 20:51:00,
2013-08-23 16:52:00,78.1,30.6,30.08,ENE,68,3.0,8.1,18,0.00,,,0.00,532.17,VWS V14.01,2013-08-23 20:52:00,
2013-08-23 16:53:00,77.6,25.8,30.09,NE,48,5.1,5.1,15,0.00,,,0.00,649.39,VWS V14.01,2013-08-23 20:53:00,
2013-08-23 16:54:00,77.8,26.3,30.08,ENE,61,2.2,8.1,15,0.00,,,0.00,524.85,VWS V14.01,2013-08-23 20:54:00,
2013-08-23 16:55:00,78.9,29.3,30.09,ESE,104,0.0,8.1,16,0.00,,,0.00,522.41,VWS V14.01,2013-08-23 20:55:00,
2013-08-23 16:56:00,77.4,30.0,30.08,North,9,7.8,8.1,18,0.00,,,0.00,519.96,VWS V14.01,2013-08-23 20:56:00,
2013-08-23 16:57:00,78.2,31.4,30.08,NE,47,5.1,8.1,18,0.00,,,0.00,516.79,VWS V14.01,2013-08-23 20:57:00,
2013-08-23 16:58:00,79.8,32.9,30.10,SSE,150,3.5,5.6,18,0.00,,,0.00,641.82,VWS V14.01,2013-08-23 20:58:00,
2013-08-23 16:59:00,78.0,30.7,30.08,ENE,72,6.1,8.1,18,0.00,,,0.00,514.84,VWS V14.01,2013-08-23 20:59:00,
2013-08-23 17:00:00,78.7,35.7,30.08,ESE,112,6.8,8.1,21,0.00,,,0.00,512.15,VWS V14.01,2013-08-23 21:00:00,
2013-08-23 17:01:00,79.0,33.9,30.08,NNE,12,3.5,8.0,19,0.00,,,0.00,508.97,VWS V14.01,2013-08-23 21:01:00,
2013-08-23 17:03:00,78.4,29.7,30.08,NNE,32,3.2,8.0,17,0.00,,,0.00,505.31,VWS V14.01,2013-08-23 21:03:00,
2013-08-23 17:04:00,79.2,34.5,30.08,NW,313,3.7,8.0,20,0.00,,,0.00,502.87,VWS V14.01,2013-08-23 21:04:00,
2013-08-23 17:05:00,79.6,36.3,30.08,NNW,341,3.7,8.0,21,0.00,,,0.00,502.63,VWS V14.01,2013-08-23 21:05:00,
2013-08-23 17:07:00,77.7,30.4,30.07,NE,35,4.7,8.0,18,0.00,,,0.00,495.30,VWS V14.01,2013-08-23 21:07:00,
2013-08-23 17:08:00,78.4,34.0,30.08,WNW,295,3.2,8.0,20,0.00,,,0.00,491.27,VWS V14.01,2013-08-23 21:08:00,
2013-08-23 17:09:00,78.3,30.5,30.08,NE,41,6.3,8.0,17,0.00,,,0.00,489.38,VWS V14.01,2013-08-23 21:09:00,
2013-08-23 17:10:00,78.6,31.6,30.08,NNE,30,5.6,8.0,18,0.00,,,0.00,487.36,VWS V14.01,2013-08-23 21:10:00,
2013-08-23 17:12:00,77.8,29.6,30.10,NE,47,6.8,8.0,17,0.00,,,0.00,475.95,VWS V14.01,2013-08-23 21:12:00,
2013-08-23 17:13:00,78.2,32.7,30.09,NE,56,4.5,8.0,19,0.00,,,0.00,480.22,VWS V14.01,2013-08-23 21:13:00,
2013-08-23 17:14:00,79.2,33.3,30.08,NNE,15,1.6,8.0,19,0.00,,,0.00,473.81,VWS V14.01,2013-08-23 21:14:00,
2013-08-23 17:16:00,78.0,30.4,30.09,NE,38,5.4,8.0,17,0.00,,,0.00,473.08,VWS V14.01,2013-08-23 21:16:00,
2013-08-23 17:17:00,78.7,32.7,30.09,NE,42,4.0,8.0,19,0.00,,,0.00,469.11,VWS V14.01,2013-08-23 21:17:00,
2013-08-23 17:20:00,78.3,30.9,30.08,NNE,16,3.7,8.0,18,0.00,,,0.00,463.80,VWS V14.01,2013-08-23 21:20:00,
2013-08-23 17:21:00,78.5,29.1,30.08,North,349,4.7,8.0,16,0.00,,,0.00,461.36,VWS V14.01,2013-08-23 21:21:00,
2013-08-23 17:22:00,78.1,32.0,30.08,NNE,18,5.4,8.0,19,0.00,,,0.00,459.52,VWS V14.01,2013-08-23 21:22:00,
2013-08-23 17:23:00,78.8,33.0,30.08,NNE,28,3.7,8.0,19,0.00,,,0.00,456.59,VWS V14.01,2013-08-23 21:23:00,
2013-08-23 17:25:00,78.9,31.4,30.08,North,7,3.2,8.0,18,0.00,,,0.00,450.31,VWS V14.01,2013-08-23 21:25:00,
2013-08-23 17:27:00,78.6,30.0,30.09,NNE,28,5.1,8.0,17,0.00,,,0.00,446.70,VWS V14.01,2013-08-23 21:27:00,
2013-08-23 17:28:00,79.4,31.0,30.08,NNW,346,2.7,8.0,17,0.00,,,0.00,441.82,VWS V14.01,2013-08-23 21:28:00,
2013-08-23 17:29:00,78.7,27.9,30.08,NNW,348,4.2,8.0,15,0.00,,,0.00,440.23,VWS V14.01,2013-08-23 21:29:00,
2013-08-23 17:31:00,78.0,27.1,30.08,NW,309,3.2,8.0,15,0.00,,,0.00,434.49,VWS V14.01,2013-08-23 21:31:00,
2013-08-23 17:32:00,78.1,25.7,30.08,WNW,298,1.5,8.0,14,0.00,,,0.00,432.30,VWS V14.01,2013-08-23 21:32:00,
2013-08-23 17:34:00,78.8,29.4,30.08,NE,38,1.6,8.0,16,0.00,,,0.00,427.17,VWS V14.01,2013-08-23 21:34:00,
2013-08-23 17:36:00,79.2,28.1,30.09,East,87,0.0,8.0,15,0.00,,,0.00,420.09,VWS V14.01,2013-08-23 21:36:00,
2013-08-23 17:37:00,78.5,30.7,30.08,ENE,62,3.0,8.0,17,0.00,,,0.00,420.76,VWS V14.01,2013-08-23 21:37:00,
2013-08-23 17:38:00,77.8,27.5,30.08,East,100,4.2,8.0,16,0.00,,,0.00,417.16,VWS V14.01,2013-08-23 21:38:00,
2013-08-23 17:41:00,77.9,32.1,30.08,ENE,61,3.5,8.0,19,0.00,,,0.00,407.94,VWS V14.01,2013-08-23 21:41:00,
2013-08-23 17:42:00,77.4,28.1,30.08,East,81,5.7,8.0,16,0.00,,,0.00,405.43,VWS V14.01,2013-08-23 21:42:00,
2013-08-23 17:43:00,78.2,32.0,30.08,ESE,120,4.5,8.0,18,0.00,,,0.00,401.71,VWS V14.01,2013-08-23 21:43:00,
2013-08-23 17:45:00,78.0,22.0,30.09,East,79,3.0,8.0,12,0.00,,,0.00,397.25,VWS V14.01,2013-08-23 21:45:00,
2013-08-23 17:47:00,79.4,33.2,30.09,NE,49,2.0,8.0,19,0.00,,,0.00,391.51,VWS V14.01,2013-08-23 21:47:00,
2013-08-23 17:48:00,78.9,31.2,30.09,SSE,151,2.8,8.0,18,0.00,,,0.00,386.14,VWS V14.01,2013-08-23 21:48:00,
2013-08-23 17:50:00,78.7,32.9,30.09,East,101,1.6,8.0,19,0.00,,,0.00,379.30,VWS V14.01,2013-08-23 21:50:00,
2013-08-23 17:52:00,77.5,31.1,30.09,NE,56,6.1,8.0,18,0.00,,,0.00,375.58,VWS V14.01,2013-08-23 21:52:00,
2013-08-23 17:53:00,77.5,31.1,30.09,ENE,71,3.7,8.0,18,0.00,,,0.00,371.00,VWS V14.01,2013-08-23 21:53:00,
2013-08-23 17:54:00,77.5,31.1,30.09,ENE,71,3.7,8.0,18,0.00,,,0.00,371.00,VWS V14.01,2013-08-23 21:54:00,
2013-08-23 17:56:00,78.4,31.1,30.09,NE,50,3.5,8.1,18,0.00,,,0.00,363.68,VWS V14.01,2013-08-23 21:56:00,
2013-08-23 17:59:00,78.4,31.1,30.09,NE,54,6.3,8.1,18,0.00,,,0.00,354.52,VWS V14.01,2013-08-23 21:59:00,
2013-08-23 18:00:00,78.2,31.1,30.10,NNE,23,5.4,8.1,18,0.00,,,0.00,351.65,VWS V14.01,2013-08-23 22:00:00,
2013-08-23 18:01:00,79.1,32.1,30.09,ENE,59,4.4,5.4,18,0.00,,,0.00,351.47,VWS V14.01,2013-08-23 22:01:00,
2013-08-23 18:02:00,77.7,29.0,30.09,NNE,31,7.6,7.6,17,0.00,,,0.00,349.45,VWS V14.01,2013-08-23 22:02:00,
2013-08-23 18:03:00,78.7,32.9,30.09,NNE,32,2.5,4.9,19,0.00,,,0.00,344.14,VWS V14.01,2013-08-23 22:03:00,
2013-08-23 18:04:00,78.2,32.8,30.09,ENE,59,4.7,4.7,19,0.00,,,0.00,341.70,VWS V14.01,2013-08-23 22:04:00,
2013-08-23 18:05:00,78.4,33.7,30.09,East,81,4.2,4.7,20,0.00,,,0.00,340.17,VWS V14.01,2013-08-23 22:05:00,
2013-08-23 18:06:00,78.2,30.3,30.11,ESE,111,5.1,5.1,17,0.00,,,0.00,336.75,VWS V14.01,2013-08-23 22:06:00,
2013-08-23 18:07:00,78.0,32.6,30.09,ESE,104,5.6,5.6,19,0.00,,,0.00,334.98,VWS V14.01,2013-08-23 22:07:00,
2013-08-23 18:08:00,79.0,35.2,30.09,ENE,59,3.2,5.1,21,0.00,,,0.00,331.93,VWS V14.01,2013-08-23 22:08:00,
2013-08-23 18:09:00,78.3,31.7,30.08,East,81,3.2,4.2,18,0.00,,,0.00,327.66,VWS V14.01,2013-08-23 22:09:00,
2013-08-23 18:10:00,78.3,31.7,30.08,East,81,3.2,4.2,18,0.00,,,0.00,327.66,VWS V14.01,2013-08-23 22:10:00,
2013-08-23 18:11:00,78.1,29.1,30.09,NE,50,4.0,4.0,17,0.00,,,0.00,322.16,VWS V14.01,2013-08-23 22:11:00,
2013-08-23 18:12:00,78.1,29.1,30.09,NE,50,4.0,4.0,17,0.00,,,0.00,322.16,VWS V14.01,2013-08-23 22:12:00,
2013-08-23 18:13:00,78.5,30.3,30.09,NE,48,2.5,3.2,17,0.00,,,0.00,319.72,VWS V14.01,2013-08-23 22:13:00,
2013-08-23 18:14:00,78.5,32.8,30.09,East,99,4.4,5.9,19,0.00,,,0.00,314.22,VWS V14.01,2013-08-23 22:14:00,
2013-08-23 18:15:00,78.2,31.2,30.09,ENE,71,2.5,4.4,18,0.00,,,0.00,311.42,VWS V14.01,2013-08-23 22:15:00,
2013-08-23 18:16:00,78.2,32.6,30.09,ENE,73,1.8,2.5,19,0.00,,,0.00,307.75,VWS V14.01,2013-08-23 22:16:00,
2013-08-23 18:17:00,79.2,34.1,30.09,NE,38,2.5,2.5,20,0.00,,,0.00,307.51,VWS V14.01,2013-08-23 22:17:00,
2013-08-23 18:18:00,78.1,34.1,30.09,NE,44,5.4,5.4,20,0.00,,,0.00,302.93,VWS V14.01,2013-08-23 22:18:00,
2013-08-23 18:19:00,77.6,33.6,30.09,ENE,70,5.9,5.9,20,0.00,,,0.00,302.38,VWS V14.01,2013-08-23 22:19:00,
2013-08-23 18:20:00,78.6,35.3,30.09,ENE,62,3.4,5.9,21,0.00,,,0.00,298.35,VWS V14.01,2013-08-23 22:20:00,
2013-08-23 18:21:00,77.3,31.1,30.09,ENE,65,5.9,6.3,18,0.00,,,0.00,295.91,VWS V14.01,2013-08-23 22:21:00,
2013-08-23 18:22:00,77.4,30.8,30.09,ENE,60,6.4,6.4,18,0.00,,,0.00,292.43,VWS V14.01,2013-08-23 22:22:00,
2013-08-23 18:23:00,77.4,30.8,30.09,ENE,60,6.4,6.4,18,0.00,,,0.00,292.43,VWS V14.01,2013-08-23 22:23:00,
2013-08-23 18:24:00,76.9,29.9,30.09,NE,42,6.3,6.3,18,0.00,,,0.00,283.58,VWS V14.01,2013-08-23 22:24:00,
2013-08-23 18:25:00,76.9,29.7,30.09,NE,43,5.6,6.3,18,0.00,,,0.00,285.84,VWS V14.01,2013-08-23 22:25:00,
2013-08-23 18:26:00,77.1,31.1,30.09,NNE,18,5.4,5.4,19,0.00,,,0.00,280.89,VWS V14.01,2013-08-23 22:26:00,
2013-08-23 18:27:00,77.1,31.5,30.09,NE,53,5.4,5.4,19,0.00,,,0.00,280.16,VWS V14.01,2013-08-23 22:27:00,
2013-08-23 18:28:00,76.8,30.0,30.09,NNE,28,6.6,6.6,18,0.00,,,0.00,278.82,VWS V14.01,2013-08-23 22:28:00,
2013-08-23 18:29:00,76.9,32.2,30.09,NE,44,3.7,4.7,19,0.00,,,0.00,273.93,VWS V14.01,2013-08-23 22:29:00,
2013-08-23 18:30:00,76.9,34.2,30.09,ENE,69,3.9,5.4,21,0.00,,,0.00,270.88,VWS V14.01,2013-08-23 22:30:00,
2013-08-23 18:31:00,77.1,34.9,30.09,ENE,69,3.0,4.2,22,0.00,,,0.00,266.97,VWS V14.01,2013-08-23 22:31:00,
2013-08-23 18:32:00,76.7,32.0,30.10,ENE,59,5.6,5.6,20,0.00,,,0.00,265.51,VWS V14.01,2013-08-23 22:32:00,
2013-08-23 18:33:00,77.0,33.1,30.10,NE,53,4.2,5.6,20,0.00,,,0.00,263.55,VWS V14.01,2013-08-23 22:33:00,
2013-08-23 18:34:00,76.9,34.0,30.10,ENE,60,1.8,2.8,21,0.00,,,0.00,258.61,VWS V14.01,2013-08-23 22:34:00,
2013-08-23 18:35:00,77.1,31.5,30.09,NE,43,5.7,5.7,19,0.00,,,0.00,258.18,VWS V14.01,2013-08-23 22:35:00,
2013-08-23 18:36:00,76.8,31.4,30.10,NE,48,5.1,5.7,19,0.00,,,0.00,254.76,VWS V14.01,2013-08-23 22:36:00,
2013-08-23 18:37:00,76.7,29.0,30.10,NE,50,4.4,4.4,17,0.00,,,0.00,251.34,VWS V14.01,2013-08-23 22:37:00,
2013-08-23 18:38:00,76.9,32.0,30.09,ENE,78,4.5,4.5,19,0.00,,,0.00,248.90,VWS V14.01,2013-08-23 22:38:00,
2013-08-23 18:39:00,76.9,31.5,30.09,ENE,68,3.5,4.5,19,0.00,,,0.00,243.04,VWS V14.01,2013-08-23 22:39:00,
2013-08-23 18:40:00,76.9,31.5,30.09,ENE,68,3.5,4.5,19,0.00,,,0.00,243.04,VWS V14.01,2013-08-23 22:40:00,
2013-08-23 18:41:00,78.1,32.7,30.09,NE,46,2.0,3.0,19,0.00,,,0.00,238.89,VWS V14.01,2013-08-23 22:41:00,
2013-08-23 18:42:00,77.3,33.0,30.10,ENE,59,1.5,3.0,20,0.00,,,0.00,236.94,VWS V14.01,2013-08-23 22:42:00,
2013-08-23 18:43:00,77.3,33.0,30.10,ENE,59,1.5,1.5,20,0.00,,,0.00,236.94,VWS V14.01,2013-08-23 22:43:00,
2013-08-23 18:44:00,77.5,34.4,30.09,NNE,21,1.0,2.0,21,0.00,,,0.00,231.56,VWS V14.01,2013-08-23 22:44:00,
2013-08-23 18:45:00,78.8,36.9,30.09,ENE,67,1.1,1.1,22,0.00,,,0.00,228.14,VWS V14.01,2013-08-23 22:45:00,
2013-08-23 18:46:00,77.1,35.1,30.09,ENE,62,2.2,2.2,22,0.00,,,0.00,227.53,VWS V14.01,2013-08-23 22:46:00,
2013-08-23 18:47:00,77.0,31.9,30.10,NE,43,3.4,3.4,19,0.00,,,0.00,223.93,VWS V14.01,2013-08-23 22:47:00,
2013-08-23 18:48:00,76.6,30.9,30.10,NE,53,5.6,5.6,19,0.00,,,0.00,222.04,VWS V14.01,2013-08-23 22:48:00,
2013-08-23 18:49:00,77.1,33.7,30.10,ENE,59,1.6,3.0,21,0.00,,,0.00,219.96,VWS V14.01,2013-08-23 22:49:00,
2013-08-23 18:50:00,78.1,33.2,30.09,NNE,24,3.7,4.2,19,0.00,,,0.00,214.71,VWS V14.01,2013-08-23 22:50:00,
2013-08-23 18:51:00,77.1,31.9,30.09,East,84,2.8,3.7,19,0.00,,,0.00,212.52,VWS V14.01,2013-08-23 22:51:00,
2013-08-23 18:52:00,77.2,34.4,30.09,NE,51,2.0,2.5,21,0.00,,,0.00,208.06,VWS V14.01,2013-08-23 22:52:00,
2013-08-23 18:53:00,77.8,32.0,30.10,NNE,24,5.1,5.1,19,0.00,,,0.00,207.63,VWS V14.01,2013-08-23 22:53:00,
2013-08-23 18:54:00,77.1,30.9,30.09,ENE,75,5.1,5.1,18,0.00,,,0.00,203.72,VWS V14.01,2013-08-23 22:54:00,
2013-08-23 18:55:00,76.9,34.0,30.09,ENE,78,2.3,5.1,21,0.00,,,0.00,200.06,VWS V14.01,2013-08-23 22:55:00,
2013-08-23 18:56:00,77.5,34.5,30.09,NE,42,2.5,2.5,21,0.00,,,0.00,198.23,VWS V14.01,2013-08-23 22:56:00,
2013-08-23 18:57:00,76.7,32.6,30.09,ENE,72,3.5,3.5,20,0.00,,,0.00,196.83,VWS V14.01,2013-08-23 22:57:00,
2013-08-23 18:58:00,77.1,34.4,30.09,NE,39,0.0,3.5,21,0.00,,,0.00,192.98,VWS V14.01,2013-08-23 22:58:00,
2013-08-23 18:59:00,77.1,33.4,30.10,ENE,73,2.0,2.0,20,0.00,,,0.00,188.10,VWS V14.01,2013-08-23 22:59:00,
2013-08-23 19:00:00,76.5,32.6,30.09,ENE,57,2.5,2.5,20,0.00,,,0.00,185.16,VWS V14.01,2013-08-23 23:00:00,
2013-08-23 19:01:00,76.2,31.7,30.09,East,79,4.5,4.5,20,0.00,,,0.00,181.75,VWS V14.01,2013-08-23 23:01:00,
2013-08-23 19:02:00,75.9,31.4,30.09,ENE,72,4.0,4.5,20,0.00,,,0.00,178.57,VWS V14.01,2013-08-23 23:02:00,
2013-08-23 19:03:00,76.6,33.5,30.09,ENE,60,2.3,2.3,21,0.00,,,0.00,175.64,VWS V14.01,2013-08-23 23:03:00,
2013-08-23 19:04:00,76.5,31.0,30.09,NE,55,2.7,2.7,19,0.00,,,0.00,173.44,VWS V14.01,2013-08-23 23:04:00,
2013-08-23 19:05:00,76.7,32.7,30.08,NE,36,1.0,1.0,20,0.00,,,0.00,170.27,VWS V14.01,2013-08-23 23:05:00,
2013-08-23 19:06:00,76.6,34.6,30.09,ENE,63,0.0,0.0,22,0.00,,,0.00,165.87,VWS V14.01,2013-08-23 23:06:00,
2013-08-23 19:07:00,76.3,32.1,30.09,ENE,63,1.1,2.7,20,0.00,,,0.00,164.35,VWS V14.01,2013-08-23 23:07:00,
2013-08-23 19:08:00,76.1,32.0,30.10,ENE,76,3.2,3.2,20,0.00,,,0.00,161.29,VWS V14.01,2013-08-23 23:08:00,
2013-08-23 19:09:00,76.1,34.2,30.09,NE,55,1.5,3.5,22,0.00,,,0.00,159.46,VWS V14.01,2013-08-23 23:09:00,
2013-08-23 19:10:00,76.0,32.4,30.09,East,87,2.8,2.8,20,0.00,,,0.00,158.49,VWS V14.01,2013-08-23 23:10:00,
2013-08-23 19:11:00,75.8,32.8,30.09,NE,55,0.0,2.8,21,0.00,,,0.00,153.91,VWS V14.01,2013-08-23 23:11:00,
2013-08-23 19:12:00,75.6,34.4,30.09,NE,50,1.5,3.0,22,0.00,,,0.00,150.73,VWS V14.01,2013-08-23 23:12:00,
2013-08-23 19:13:00,75.9,33.5,30.09,NE,45,2.2,2.2,21,0.00,,,0.00,148.53,VWS V14.01,2013-08-23 23:13:00,
2013-08-23 19:14:00,75.9,32.4,30.10,ENE,60,3.9,3.9,20,0.00,,,0.00,145.36,VWS V14.01,2013-08-23 23:14:00,
2013-08-23 19:15:00,76.1,32.1,30.10,NE,43,3.5,3.9,20,0.00,,,0.00,139.62,VWS V14.01,2013-08-23 23:15:00,
2013-08-23 19:16:00,75.8,33.7,30.10,ENE,59,2.5,2.7,22,0.00,,,0.00,138.77,VWS V14.01,2013-08-23 23:16:00,
2013-08-23 19:17:00,75.8,33.7,30.10,ENE,59,2.5,2.7,22,0.00,,,0.00,138.77,VWS V14.01,2013-08-23 23:17:00,
2013-08-23 19:18:00,76.0,33.5,30.09,ENE,57,2.2,2.5,21,0.00,,,0.00,134.13,VWS V14.01,2013-08-23 23:18:00,
2013-08-23 19:19:00,76.4,34.0,30.10,NE,47,2.3,2.3,21,0.00,,,0.00,133.15,VWS V14.01,2013-08-23 23:19:00,
2013-08-23 19:20:00,75.7,34.4,30.09,NE,49,2.5,3.9,22,0.00,,,0.00,129.24,VWS V14.01,2013-08-23 23:20:00,
2013-08-23 19:21:00,75.9,34.6,30.10,NE,49,2.2,2.5,22,0.00,,,0.00,128.02,VWS V14.01,2013-08-23 23:21:00,
2013-08-23 19:22:00,75.7,35.1,30.10,NE,49,1.5,1.5,23,0.00,,,0.00,124.36,VWS V14.01,2013-08-23 23:22:00,
2013-08-23 19:23:00,75.8,34.7,30.10,NE,49,2.3,2.3,22,0.00,,,0.00,122.41,VWS V14.01,2013-08-23 23:23:00,
2013-08-23 19:24:00,75.6,36.0,30.10,NE,55,2.7,3.2,24,0.00,,,0.00,119.78,VWS V14.01,2013-08-23 23:24:00,
2013-08-23 19:25:00,76.5,34.2,30.10,NE,37,4.4,4.4,21,0.00,,,0.00,117.03,VWS V14.01,2013-08-23 23:25:00,
2013-08-23 19:26:00,75.1,35.9,30.10,NE,51,3.0,4.4,24,0.00,,,0.00,111.29,VWS V14.01,2013-08-23 23:26:00,
2013-08-23 19:27:00,75.7,37.2,30.10,NE,42,1.3,3.0,25,0.00,,,0.00,110.56,VWS V14.01,2013-08-23 23:27:00,
2013-08-23 19:28:00,75.2,36.0,30.10,NE,51,1.6,2.7,24,0.00,,,0.00,107.26,VWS V14.01,2013-08-23 23:28:00,
2013-08-23 19:29:00,75.6,34.6,30.10,NE,42,3.5,3.5,22,0.00,,,0.00,104.82,VWS V14.01,2013-08-23 23:29:00,
2013-08-23 19:30:00,74.8,34.8,30.10,NE,50,3.5,3.5,23,0.00,,,0.00,102.63,VWS V14.01,2013-08-23 23:30:00,
2013-08-23 19:31:00,74.6,35.8,30.09,NE,49,2.3,3.5,24,0.00,,,0.00,97.74,VWS V14.01,2013-08-23 23:31:00,
2013-08-23 19:32:00,74.7,35.0,30.10,NE,50,3.4,3.4,24,0.00,,,0.00,97.50,VWS V14.01,2013-08-23 23:32:00,
2013-08-23 19:33:00,74.5,35.1,30.09,NE,52,2.7,3.4,24,0.00,,,0.00,95.06,VWS V14.01,2013-08-23 23:33:00,
2013-08-23 19:34:00,74.7,35.8,30.09,NE,53,2.7,2.7,24,0.00,,,0.00,92.86,VWS V14.01,2013-08-23 23:34:00,
2013-08-23 19:35:00,73.9,36.5,30.09,NE,55,2.7,2.7,26,0.00,,,0.00,91.09,VWS V14.01,2013-08-23 23:35:00,
2013-08-23 19:36:00,74.5,35.8,30.09,NE,55,2.5,3.0,24,0.00,,,0.00,87.73,VWS V14.01,2013-08-23 23:36:00,
2013-08-23 19:37:00,74.6,37.8,30.09,NE,53,2.2,2.5,26,0.00,,,0.00,86.02,VWS V14.01,2013-08-23 23:37:00,
2013-08-23 19:38:00,73.9,36.0,30.09,NE,39,2.2,2.5,25,0.00,,,0.00,82.84,VWS V14.01,2013-08-23 23:38:00,
2013-08-23 19:39:00,74.5,35.6,30.10,NE,51,2.7,2.7,24,0.00,,,0.00,82.36,VWS V14.01,2013-08-23 23:39:00,
2013-08-23 19:40:00,73.9,35.4,30.09,NE,49,2.2,2.7,25,0.00,,,0.00,80.40,VWS V14.01,2013-08-23 23:40:00,
2013-08-23 19:41:00,73.7,35.3,30.10,NE,48,2.3,2.3,25,0.00,,,0.00,77.96,VWS V14.01,2013-08-23 23:41:00,
2013-08-23 19:42:00,74.0,36.0,30.10,NE,49,2.5,2.5,25,0.00,,,0.00,76.62,VWS V14.01,2013-08-23 23:42:00,
2013-08-23 19:43:00,74.4,35.8,30.10,NE,45,2.0,2.0,24,0.00,,,0.00,73.57,VWS V14.01,2013-08-23 23:43:00,
2013-08-23 19:44:00,74.2,36.0,30.10,NE,45,1.6,2.2,25,0.00,,,0.00,70.33,VWS V14.01,2013-08-23 23:44:00,
2013-08-23 19:45:00,74.8,36.7,30.10,NE,41,1.5,1.8,25,0.00,,,0.00,69.17,VWS V14.01,2013-08-23 23:45:00,
2013-08-23 19:46:00,74.3,34.6,30.10,NE,41,1.6,1.6,23,0.00,,,0.00,68.50,VWS V14.01,2013-08-23 23:46:00,
2013-08-23 19:47:00,74.2,36.3,30.09,NE,41,2.0,2.0,25,0.00,,,0.00,67.22,VWS V14.01,2013-08-23 23:47:00,
2013-08-23 19:48:00,74.4,36.6,30.10,NE,41,2.0,2.0,25,0.00,,,0.00,66.67,VWS V14.01,2013-08-23 23:48:00,
2013-08-23 19:49:00,74.8,37.9,30.10,NE,37,1.6,2.0,26,0.00,,,0.00,65.02,VWS V14.01,2013-08-23 23:49:00,
2013-08-23 19:50:00,74.1,42.5,30.10,NE,37,0.0,1.6,32,0.00,,,0.00,63.00,VWS V14.01,2013-08-23 23:50:00,
2013-08-23 19:51:00,74.6,42.7,30.10,NE,37,0.0,0.0,32,0.00,,,0.00,63.06,VWS V14.01,2013-08-23 23:51:00,
2013-08-23 19:52:00,74.0,41.6,30.10,NE,37,0.0,0.0,31,0.00,,,0.00,60.56,VWS V14.01,2013-08-23 23:52:00,
2013-08-23 19:53:00,73.8,40.2,30.10,NE,37,0.0,1.6,30,0.00,,,0.00,60.93,VWS V14.01,2013-08-23 23:53:00,
2013-08-23 19:54:00,73.5,38.2,30.10,NE,41,2.2,2.2,28,0.00,,,0.00,58.12,VWS V14.01,2013-08-23 23:54:00,
2013-08-23 19:55:00,73.5,38.5,30.10,NE,35,2.5,2.5,28,0.00,,,0.00,55.37,VWS V14.01,2013-08-23 23:55:00,
2013-08-23 19:56:00,72.8,42.5,30.09,NE,36,0.0,0.0,33,0.00,,,0.00,55.74,VWS V14.01,2013-08-23 23:56:00,
2013-08-23 19:57:00,72.8,41.6,30.10,NE,34,0.0,0.0,32,0.00,,,0.00,54.76,VWS V14.01,2013-08-23 23:57:00,
2013-08-23 19:58:00,72.8,44.4,30.10,NE,34,0.0,0.0,36,0.00,,,0.00,53.54,VWS V14.01,2013-08-23 23:58:00,
2013-08-23 19:59:00,73.4,45.5,30.10,NE,34,0.0,0.0,37,0.00,,,0.00,51.10,VWS V14.01,2013-08-23 23:59:00,
2013-08-23 20:00:00,72.3,44.2,30.10,NE,34,0.0,0.0,37,0.00,,,0.00,50.55,VWS V14.01,2013-08-24 00:00:00,
2013-08-23 20:01:00,72.3,41.2,30.10,NE,34,0.0,0.0,32,0.00,,,0.00,46.95,VWS V14.01,2013-08-24 00:01:00,
2013-08-23 20:02:00,72.8,41.2,30.10,NE,34,0.0,0.0,32,0.00,,,0.00,47.37,VWS V14.01,2013-08-24 00:02:00,
2013-08-23 20:03:00,72.5,41.5,30.10,NE,34,0.0,1.6,33,0.00,,,0.00,45.48,VWS V14.01,2013-08-24 00:03:00,
2013-08-23 20:04:00,71.5,45.0,30.10,NE,34,0.0,0.0,39,0.00,,,0.00,43.77,VWS V14.01,2013-08-24 00:04:00,
2013-08-23 20:05:00,71.8,45.6,30.09,NE,34,0.0,0.0,39,0.00,,,0.00,41.82,VWS V14.01,2013-08-24 00:05:00,
2013-08-23 20:06:00,71.7,45.4,30.10,NE,34,0.0,0.0,39,0.00,,,0.00,38.89,VWS V14.01,2013-08-24 00:06:00,
2013-08-23 20:07:00,72.0,45.9,30.10,NE,34,0.0,0.0,39,0.00,,,0.00,36.94,VWS V14.01,2013-08-24 00:07:00,
2013-08-23 20:08:00,71.3,46.4,30.10,NE,34,0.0,0.0,41,0.00,,,0.00,35.90,VWS V14.01,2013-08-24 00:08:00,
2013-08-23 20:09:00,71.7,43.3,30.10,NE,34,0.0,0.0,36,0.00,,,0.00,34.00,VWS V14.01,2013-08-24 00:09:00,
2013-08-23 20:10:00,71.3,46.1,30.10,NE,42,0.0,0.0,40,0.00,,,0.00,30.95,VWS V14.01,2013-08-24 00:10:00,
2013-08-23 20:11:00,70.8,46.7,30.10,NE,42,0.0,0.0,42,0.00,,,0.00,29.37,VWS V14.01,2013-08-24 00:11:00,
2013-08-23 20:12:00,70.9,46.5,30.11,NE,42,0.0,0.0,42,0.00,,,0.00,28.57,VWS V14.01,2013-08-24 00:12:00,
2013-08-23 20:13:00,70.5,46.1,30.11,NE,42,0.0,0.0,42,0.00,,,0.00,26.07,VWS V14.01,2013-08-24 00:13:00,
2013-08-23 20:14:00,69.7,46.8,30.11,NE,42,0.0,0.0,44,0.00,,,0.00,24.24,VWS V14.01,2013-08-24 00:14:00,
2013-08-23 20:15:00,70.4,46.6,30.11,NE,42,0.0,0.0,43,0.00,,,0.00,22.04,VWS V14.01,2013-08-24 00:15:00,
2013-08-23 20:16:00,69.0,47.0,30.11,NE,42,0.0,0.0,45,0.00,,,0.00,19.60,VWS V14.01,2013-08-24 00:16:00,
2013-08-23 20:17:00,69.0,46.1,30.11,NE,42,0.0,0.0,44,0.00,,,0.00,19.35,VWS V14.01,2013-08-24 00:17:00,
2013-08-23 20:18:00,68.6,46.9,30.10,NE,42,0.0,0.0,46,0.00,,,0.00,14.47,VWS V14.01,2013-08-24 00:18:00,
2013-08-23 20:19:00,68.1,45.8,30.11,NE,42,0.0,0.0,45,0.00,,,0.00,10.20,VWS V14.01,2013-08-24 00:19:00,
2013-08-23 20:20:00,67.8,46.8,30.11,NE,42,0.0,0.0,47,0.00,,,0.00,7.88,VWS V14.01,2013-08-24 00:20:00,
2013-08-23 20:21:00,67.2,47.0,30.11,NE,42,0.0,0.0,48,0.00,,,0.00,7.63,VWS V14.01,2013-08-24 00:21:00,
2013-08-23 20:22:00,67.0,48.9,30.11,NE,42,0.0,0.0,52,0.00,,,0.00,7.14,VWS V14.01,2013-08-24 00:22:00,
2013-08-23 20:23:00,67.0,49.0,30.11,NE,42,0.0,0.0,52,0.00,,,0.00,2.56,VWS V14.01,2013-08-24 00:23:00,
2013-08-23 20:24:00,66.5,47.8,30.11,NE,41,0.0,0.0,51,0.00,,,0.00,6.41,VWS V14.01,2013-08-24 00:24:00,
2013-08-23 20:25:00,66.5,47.8,30.11,NE,41,0.0,0.0,51,0.00,,,0.00,6.41,VWS V14.01,2013-08-24 00:25:00,
2013-08-23 20:26:00,66.8,47.7,30.12,NE,42,0.0,0.0,50,0.00,,,0.00,4.70,VWS V14.01,2013-08-24 00:26:00,
2013-08-23 20:27:00,66.5,47.3,30.11,NE,42,0.0,0.0,50,0.00,,,0.00,4.70,VWS V14.01,2013-08-24 00:27:00,
2013-08-23 20:28:00,67.2,48.5,30.14,NE,41,0.0,0.0,51,0.00,,,0.00,4.46,VWS V14.01,2013-08-24 00:28:00,
2013-08-23 20:29:00,66.0,49.0,30.11,NE,41,0.0,0.0,54,0.00,,,0.00,4.70,VWS V14.01,2013-08-24 00:29:00,
2013-08-23 20:30:00,66.2,48.4,30.11,NE,41,0.0,0.0,53,0.00,,,0.00,2.93,VWS V14.01,2013-08-24 00:30:00,
2013-08-23 20:31:00,66.1,48.4,30.10,NE,41,0.0,0.0,53,0.00,,,0.00,1.95,VWS V14.01,2013-08-24 00:31:00,
2013-08-23 20:32:00,66.1,48.7,30.11,NE,41,0.0,0.0,54,0.00,,,0.00,2.87,VWS V14.01,2013-08-24 00:32:00,
2013-08-23 20:33:00,66.1,48.6,30.12,NE,41,0.0,0.0,53,0.00,,,0.00,1.95,VWS V14.01,2013-08-24 00:33:00,
2013-08-23 20:34:00,66.2,47.8,30.11,NE,41,0.0,0.0,51,0.00,,,0.00,3.42,VWS V14.01,2013-08-24 00:34:00,
2013-08-23 20:35:00,65.9,48.3,30.11,NE,35,0.0,0.0,53,0.00,,,0.00,2.50,VWS V14.01,2013-08-24 00:35:00,
2013-08-23 20:36:00,67.2,47.1,30.11,NE,39,0.0,0.0,48,0.00,,,0.00,2.26,VWS V14.01,2013-08-24 00:36:00,
2013-08-23 20:37:00,65.9,48.5,30.12,NE,40,0.0,0.0,53,0.00,,,0.00,3.17,VWS V14.01,2013-08-24 00:37:00,
2013-08-23 20:38:00,65.9,47.8,30.11,NE,40,0.0,0.0,52,0.00,,,0.00,2.87,VWS V14.01,2013-08-24 00:38:00,
2013-08-23 20:39:00,65.2,47.1,30.11,NE,43,0.0,0.0,52,0.00,,,0.00,1.65,VWS V14.01,2013-08-24 00:39:00,
2013-08-23 20:40:00,65.8,48.5,30.11,NE,40,0.0,0.0,54,0.00,,,0.00,1.53,VWS V14.01,2013-08-24 00:40:00,
2013-08-23 20:41:00,66.0,48.0,30.11,NE,41,0.0,0.0,52,0.00,,,0.00,0.31,VWS V14.01,2013-08-24 00:41:00,
2013-08-23 20:42:00,65.4,48.7,30.12,NE,42,0.0,0.0,55,0.00,,,0.00,0.00,VWS V14.01,2013-08-24 00:42:00,
2013-08-23 20:43:00,65.2,49.1,30.12,NE,41,0.0,0.0,56,0.00,,,0.00,0.00,VWS V14.01,2013-08-24 00:43:00,
2013-08-23 20:44:00,64.7,49.7,30.12,NE,40,0.0,0.0,58,0.00,,,0.00,0.00,VWS V14.01,2013-08-24 00:44:00,
2013-08-23 20:45:00,64.9,47.9,30.11,NE,42,0.0,0.0,54,0.00,,,0.00,0.00,VWS V14.01,2013-08-24 00:45:00,
2013-08-23 20:46:00,65.8,49.7,30.11,NE,44,0.0,0.0,56,0.00,,,0.00,0.00,VWS V14.01,2013-08-24 00:46:00,
2013-08-23 20:47:00,65.3,50.0,30.12,NE,40,0.0,0.0,58,0.00,,,0.00,0.00,VWS V14.01,2013-08-24 00:47:00,
2013-08-23 20:48:00,65.6,48.9,30.11,NE,40,0.0,0.0,55,0.00,,,0.00,0.00,VWS V14.01,2013-08-24 00:48:00,
2013-08-23 20:49:00,66.2,49.3,30.12,NE,39,0.0,1.6,55,0.00,,,0.00,0.00,VWS V14.01,2013-08-24 00:49:00,
2013-08-23 20:50:00,65.5,49.9,30.12,NE,40,0.0,0.0,57,0.00,,,0.00,0.43,VWS V14.01,2013-08-24 00:50:00,
2013-08-23 20:51:00,66.6,48.0,30.12,NE,41,0.0,0.0,51,0.00,,,0.00,0.00,VWS V14.01,2013-08-24 00:51:00,
2013-08-23 20:52:00,66.1,48.2,30.12,NE,42,0.0,0.0,52,0.00,,,0.00,0.00,VWS V14.01,2013-08-24 00:52:00,
2013-08-23 20:53:00,64.4,49.0,30.11,NE,40,0.0,0.0,57,0.00,,,0.00,0.12,VWS V14.01,2013-08-24 00:53:00,
2013-08-23 20:54:00,64.1,50.0,30.12,NE,41,0.0,0.0,60,0.00,,,0.00,0.00,VWS V14.01,2013-08-24 00:54:00,
2013-08-23 20:55:00,63.2,50.9,30.12,NE,42,0.0,0.0,64,0.00,,,0.00,0.00,VWS V14.01,2013-08-24 00:55:00,
2013-08-23 20:56:00,62.8,50.7,30.12,NE,42,0.0,0.0,65,0.00,,,0.00,0.00,VWS V14.01,2013-08-24 00:56:00,
2013-08-23 20:57:00,62.5,51.0,30.15,NE,41,0.0,0.0,66,0.00,,,0.00,0.00,VWS V14.01,2013-08-24 00:57:00,
2013-08-23 20:58:00,62.2,52.0,30.12,NE,42,0.0,0.0,69,0.00,,,0.00,0.00,VWS V14.01,2013-08-24 00:58:00,
2013-08-23 20:59:00,62.2,52.1,30.12,NE,43,0.0,0.0,69,0.00,,,0.00,0.00,VWS V14.01,2013-08-24 00:59:00,
2013-08-23 21:00:00,62.0,52.0,30.13,NE,39,0.0,0.0,70,0.00,,,0.00,0.00,VWS V14.01,2013-08-24 01:00:00,
2013-08-23 21:01:00,62.5,52.8,30.13,NE,40,0.0,0.0,71,0.00,,,0.00,0.00,VWS V14.01,2013-08-24 01:01:00,
2013-08-23 21:02:00,62.0,52.3,30.13,NE,39,0.0,0.0,71,0.00,,,0.00,0.00,VWS V14.01,2013-08-24 01:02:00,
2013-08-23 21:03:00,62.0,52.3,30.13,NE,39,0.0,0.0,71,0.00,,,0.00,0.00,VWS V14.01,2013-08-24 01:03:00,
2013-08-23 21:04:00,62.4,52.8,30.13,NE,40,0.0,0.0,71,0.00,,,0.00,0.00,VWS V14.01,2013-08-24 01:04:00,
2013-08-23 21:05:00,61.7,52.2,30.13,NE,40,0.0,0.0,71,0.00,,,0.00,0.73,VWS V14.01,2013-08-24 01:05:00,
2013-08-23 21:06:00,61.8,52.5,30.13,NE,41,0.0,0.0,72,0.00,,,0.00,0.00,VWS V14.01,2013-08-24 01:06:00,
2013-08-23 21:07:00,61.7,52.7,30.13,NE,39,0.0,0.0,72,0.00,,,0.00,0.00,VWS V14.01,2013-08-24 01:07:00,
2013-08-23 21:08:00,61.3,52.4,30.14,NE,42,0.0,0.0,73,0.00,,,0.00,0.00,VWS V14.01,2013-08-24 01:08:00,
2013-08-23 21:09:00,61.5,52.6,30.14,NE,43,0.0,0.0,73,0.00,,,0.00,0.00,VWS V14.01,2013-08-24 01:09:00,
2013-08-23 21:10:00,61.8,53.3,30.13,NE,40,0.0,0.0,74,0.00,,,0.00,0.00,VWS V14.01,2013-08-24 01:10:00,
2013-08-23 21:11:00,61.8,53.6,30.12,NE,42,0.0,0.0,74,0.00,,,0.00,0.00,VWS V14.01,2013-08-24 01:11:00,
2013-08-23 21:12:00,62.0,53.8,30.13,NE,42,0.0,0.0,75,0.00,,,0.00,0.00,VWS V14.01,2013-08-24 01:12:00,
2013-08-23 21:13:00,62.2,54.0,30.13,NE,39,0.0,0.0,75,0.00,,,0.00,0.00,VWS V14.01,2013-08-24 01:13:00,
2013-08-23 21:14:00,62.2,53.8,30.13,NE,42,0.0,0.0,74,0.00,,,0.00,0.00,VWS V14.01,2013-08-24 01:14:00,
2013-08-23 21:15:00,62.4,53.6,30.13,NE,40,0.0,0.0,73,0.00,,,0.00,0.00,VWS V14.01,2013-08-24 01:15:00,
2013-08-23 21:16:00,62.7,53.5,30.13,NE,41,0.0,0.0,72,0.00,,,0.00,0.00,VWS V14.01,2013-08-24 01:16:00,
2013-08-23 21:17:00,62.5,53.5,30.13,North,0,0.0,0.0,73,0.00,,,0.00,0.00,VWS V14.01,2013-08-24 01:17:00,
2013-08-23 21:18:00,62.5,53.5,30.13,North,0,0.0,0.0,72,0.00,,,0.00,0.06,VWS V14.01,2013-08-24 01:18:00,
2013-08-23 21:19:00,62.4,53.7,30.14,North,0,0.0,0.0,73,0.00,,,0.00,0.00,VWS V14.01,2013-08-24 01:19:00,
2013-08-23 21:20:00,62.4,53.7,30.14,North,0,0.0,0.0,73,0.00,,,0.00,0.00,VWS V14.01,2013-08-24 01:20:00,
2013-08-23 21:21:00,62.6,54.2,30.14,North,0,0.0,0.0,74,0.00,,,0.00,0.00,VWS V14.01,2013-08-24 01:21:00,
2013-08-23 21:22:00,62.8,54.6,30.14,North,360,0.0,0.0,74,0.00,,,0.00,0.00,VWS V14.01,2013-08-24 01:22:00,
2013-08-23 21:23:00,63.3,54.5,30.14,North,0,0.0,0.0,73,0.00,,,0.00,0.00,VWS V14.01,2013-08-24 01:23:00,
2013-08-23 21:24:00,63.2,51.4,30.13,ENE,70,0.0,0.0,65,0.00,,,0.00,0.00,VWS V14.01,2013-08-24 01:24:00,
2013-08-23 21:25:00,62.3,50.5,30.14,East,85,2.3,2.3,65,0.00,,,0.00,0.00,VWS V14.01,2013-08-24 01:25:00,
2013-08-23 21:26:00,62.3,51.0,30.14,ESE,107,2.8,2.8,66,0.00,,,0.00,0.00,VWS V14.01,2013-08-24 01:26:00,
2013-08-23 21:27:00,62.2,51.2,30.14,ESE,111,2.3,3.0,67,0.00,,,0.00,0.00,VWS V14.01,2013-08-24 01:27:00,
2013-08-23 21:28:00,63.7,53.7,30.14,ESE,111,0.0,2.3,70,0.00,,,0.00,0.00,VWS V14.01,2013-08-24 01:28:00,
2013-08-23 21:29:00,61.8,52.3,30.14,ESE,111,0.0,0.0,71,0.00,,,0.00,0.00,VWS V14.01,2013-08-24 01:29:00,
2013-08-23 21:30:00,62.4,53.2,30.14,ESE,110,0.0,0.0,72,0.00,,,0.00,0.00,VWS V14.01,2013-08-24 01:30:00,
2013-08-23 21:31:00,63.7,53.8,30.14,ESE,111,0.0,0.0,70,0.00,,,0.00,0.00,VWS V14.01,2013-08-24 01:31:00,
2013-08-23 21:32:00,63.9,53.1,30.15,ESE,111,0.0,0.0,68,0.00,,,0.00,0.00,VWS V14.01,2013-08-24 01:32:00,
2013-08-23 21:33:00,63.9,52.8,30.14,ESE,111,0.0,0.0,67,0.00,,,0.00,0.43,VWS V14.01,2013-08-24 01:33:00,
2013-08-23 21:34:00,61.3,50.8,30.14,ESE,111,0.0,0.0,68,0.00,,,0.00,0.00,VWS V14.01,2013-08-24 01:34:00,
2013-08-23 21:35:00,60.5,51.3,30.14,ESE,111,0.0,0.0,72,0.00,,,0.00,0.00,VWS V14.01,2013-08-24 01:35:00,
2013-08-23 21:36:00,62.8,53.4,30.14,ESE,111,0.0,0.0,71,0.00,,,0.00,0.00,VWS V14.01,2013-08-24 01:36:00,
2013-08-23 21:37:00,62.8,53.4,30.14,ESE,111,0.0,0.0,71,0.00,,,0.00,0.00,VWS V14.01,2013-08-24 01:37:00,
2013-08-23 21:38:00,62.2,52.8,30.15,ESE,111,0.0,0.0,72,0.00,,,0.00,0.00,VWS V14.01,2013-08-24 01:38:00,
2013-08-23 21:39:00,62.6,53.3,30.14,ESE,111,0.0,0.0,72,0.00,,,0.00,0.00,VWS V14.01,2013-08-24 01:39:00,
2013-08-23 21:40:00,60.0,51.6,30.15,ESE,111,0.0,0.0,74,0.00,,,0.00,0.12,VWS V14.01,2013-08-24 01:40:00,
2013-08-23 21:41:00,61.2,52.5,30.16,ESE,111,0.0,0.0,73,0.00,,,0.00,0.00,VWS V14.01,2013-08-24 01:41:00,
2013-08-23 21:42:00,61.3,52.7,30.17,ESE,111,0.0,0.0,73,0.00,,,0.00,0.43,VWS V14.01,2013-08-24 01:42:00,
2013-08-23 21:43:00,61.1,52.9,30.15,NE,40,0.0,0.0,74,0.00,,,0.00,0.00,VWS V14.01,2013-08-24 01:43:00,
2013-08-23 21:44:00,60.4,53.4,30.13,North,10,0.0,0.0,78,0.00,,,0.00,0.00,VWS V14.01,2013-08-24 01:44:00,
2013-08-23 21:45:00,60.2,53.6,30.13,North,10,0.0,0.0,79,0.00,,,0.00,0.00,VWS V14.01,2013-08-24 01:45:00,
2013-08-23 21:46:00,59.3,52.5,30.14,North,10,0.0,0.0,78,0.00,,,0.00,0.00,VWS V14.01,2013-08-24 01:46:00,
2013-08-23 21:47:00,59.3,52.5,30.14,North,10,0.0,0.0,78,0.00,,,0.00,0.00,VWS V14.01,2013-08-24 01:47:00,
2013-08-23 21:48:00,59.5,52.9,30.14,North,10,0.0,0.0,79,0.00,,,0.00,0.00,VWS V14.01,2013-08-24 01:48:00,
2013-08-23 21:49:00,59.5,53.1,30.15,North,10,0.0,0.0,79,0.00,,,0.00,0.00,VWS V14.01,2013-08-24 01:49:00,
2013-08-23 21:50:00,59.7,54.3,30.15,North,10,0.0,0.0,82,0.00,,,0.00,0.00,VWS V14.01,2013-08-24 01:50:00,
2013-08-23 21:51:00,59.6,54.0,30.15,North,10,0.0,0.0,82,0.00,,,0.00,0.00,VWS V14.01,2013-08-24 01:51:00,
2013-08-23 21:52:00,59.3,53.7,30.15,North,10,0.0,0.0,82,0.00,,,0.00,0.43,VWS V14.01,2013-08-24 01:52:00,
2013-08-23 21:53:00,59.6,52.3,30.15,North,10,0.0,0.0,77,0.00,,,0.00,0.00,VWS V14.01,2013-08-24 01:53:00,
2013-08-23 21:54:00,59.5,55.3,30.15,North,10,0.0,0.0,86,0.00,,,0.00,0.00,VWS V14.01,2013-08-24 01:54:00,
2013-08-23 21:55:00,59.4,54.1,30.14,North,10,0.0,0.0,82,0.00,,,0.00,0.12,VWS V14.01,2013-08-24 01:55:00,
2013-08-23 21:56:00,59.0,55.3,30.15,North,10,0.0,0.0,88,0.00,,,0.00,0.00,VWS V14.01,2013-08-24 01:56:00,
2013-08-23 21:57:00,59.5,55.9,30.15,North,10,0.0,0.0,88,0.00,,,0.00,0.00,VWS V14.01,2013-08-24 01:57:00,
2013-08-23 21:58:00,59.5,55.8,30.14,North,10,0.0,0.0,87,0.00,,,0.00,0.00,VWS V14.01,2013-08-24 01:58:00,
2013-08-23 21:59:00,59.8,56.0,30.16,North,10,0.0,0.0,87,0.00,,,0.00,0.00,VWS V14.01,2013-08-24 01:59:00,
2013-08-23 22:00:00,59.7,55.7,30.15,North,10,0.0,0.0,87,0.00,,,0.00,0.00,VWS V14.01,2013-08-24 02:00:00,
2013-08-23 22:01:00,59.8,55.7,30.15,North,10,0.0,0.0,86,0.00,,,0.00,0.00,VWS V14.01,2013-08-24 02:01:00,
2013-08-23 22:02:00,59.3,55.3,30.15,North,10,0.0,0.0,86,0.00,,,0.00,0.00,VWS V14.01,2013-08-24 02:02:00,
2013-08-23 22:03:00,60.0,55.9,30.16,North,10,0.0,0.0,86,0.00,,,0.00,0.00,VWS V14.01,2013-08-24 02:03:00,
2013-08-23 22:04:00,60.0,55.7,30.15,North,10,0.0,0.0,86,0.00,,,0.00,0.12,VWS V14.01,2013-08-24 02:04:00,
2013-08-23 22:05:00,60.7,56.0,30.16,North,10,0.0,0.0,85,0.00,,,0.00,0.00,VWS V14.01,2013-08-24 02:05:00,
2013-08-23 22:06:00,60.0,55.2,30.16,North,10,0.0,0.0,84,0.00,,,0.00,0.00,VWS V14.01,2013-08-24 02:06:00,
2013-08-23 22:07:00,60.8,55.2,30.19,North,10,0.0,0.0,82,0.00,,,0.00,0.43,VWS V14.01,2013-08-24 02:07:00,
2013-08-23 22:08:00,60.6,54.6,30.16,North,10,0.0,0.0,81,0.00,,,0.00,0.00,VWS V14.01,2013-08-24 02:08:00,
2013-08-23 22:09:00,60.2,54.4,30.15,North,10,0.0,0.0,81,0.00,,,0.00,0.00,VWS V14.01,2013-08-24 02:09:00,
2013-08-23 22:10:00,61.1,55.3,30.15,North,10,0.0,0.0,81,0.00,,,0.00,0.00,VWS V14.01,2013-08-24 02:10:00,
2013-08-23 22:11:00,61.5,54.7,30.15,North,10,0.0,0.0,78,0.00,,,0.00,0.00,VWS V14.01,2013-08-24 02:11:00,
2013-08-23 22:12:00,61.8,53.4,30.16,North,10,2.0,2.0,74,0.00,,,0.00,0.12,VWS V14.01,2013-08-24 02:12:00,
2013-08-23 22:13:00,61.8,53.1,30.19,North,10,1.1,2.0,73,0.00,,,0.00,0.00,VWS V14.01,2013-08-24 02:13:00,
2013-08-23 22:14:00,60.7,52.5,30.16,North,10,0.0,1.1,74,0.00,,,0.00,0.73,VWS V14.01,2013-08-24 02:14:00,
2013-08-23 22:15:00,61.4,52.9,30.16,North,10,0.0,0.0,74,0.00,,,0.00,0.00,VWS V14.01,2013-08-24 02:15:00,
2013-08-23 22:16:00,61.1,52.6,30.15,North,10,0.0,0.0,74,0.00,,,0.00,0.43,VWS V14.01,2013-08-24 02:16:00,
2013-08-23 22:17:00,59.7,52.1,30.16,North,10,0.0,0.0,76,0.00,,,0.00,0.00,VWS V14.01,2013-08-24 02:17:00,
2013-08-23 22:18:00,59.7,52.5,30.16,North,11,0.0,0.0,77,0.00,,,0.00,0.00,VWS V14.01,2013-08-24 02:18:00,
2013-08-23 22:19:00,59.3,52.6,30.15,North,10,0.0,0.0,78,0.00,,,0.00,0.00,VWS V14.01,2013-08-24 02:19:00,
2013-08-23 22:20:00,59.4,53.4,30.15,North,10,0.0,0.0,80,0.00,,,0.00,0.00,VWS V14.01,2013-08-24 02:20:00,
2013-08-23 22:21:00,60.4,54.3,30.19,North,10,0.0,0.0,80,0.00,,,0.00,0.00,VWS V14.01,2013-08-24 02:21:00,
2013-08-23 22:22:00,60.1,54.0,30.17,North,10,0.0,0.0,80,0.00,,,0.00,0.00,VWS V14.01,2013-08-24 02:22:00,
2013-08-23 22:23:00,59.3,50.9,30.16,North,10,0.0,0.0,74,0.00,,,0.00,0.00,VWS V14.01,2013-08-24 02:23:00,
2013-08-23 22:24:00,60.0,53.5,30.17,North,10,0.0,0.0,79,0.00,,,0.00,0.00,VWS V14.01,2013-08-24 02:24:00,
2013-08-23 22:25:00,59.5,53.1,30.17,North,10,0.0,0.0,79,0.00,,,0.00,0.43,VWS V14.01,2013-08-24 02:25:00,
2013-08-23 22:26:00,59.2,52.8,30.17,North,10,0.0,0.0,80,0.00,,,0.00,0.00,VWS V14.01,2013-08-24 02:26:00,
2013-08-23 22:27:00,58.8,53.0,30.17,North,10,0.0,0.0,81,0.00,,,0.00,0.00,VWS V14.01,2013-08-24 02:27:00,
2013-08-23 22:28:00,58.1,53.4,30.16,North,10,0.0,0.0,84,0.00,,,0.00,0.00,VWS V14.01,2013-08-24 02:28:00,
2013-08-23 22:29:00,58.0,53.6,30.16,North,10,0.0,0.0,85,0.00,,,0.00,0.00,VWS V14.01,2013-08-24 02:29:00,
2013-08-23 22:30:00,57.8,54.0,30.17,North,10,0.0,0.0,87,0.00,,,0.00,0.00,VWS V14.01,2013-08-24 02:30:00,
2013-08-23 22:31:00,57.4,53.8,30.16,North,10,0.0,0.0,88,0.00,,,0.00,0.00,VWS V14.01,2013-08-24 02:31:00,
2013-08-23 22:32:00,57.4,53.8,30.16,North,10,0.0,0.0,88,0.00,,,0.00,0.00,VWS V14.01,2013-08-24 02:32:00,
2013-08-23 22:33:00,57.5,53.9,30.17,North,360,0.0,0.0,88,0.00,,,0.00,0.00,VWS V14.01,2013-08-24 02:33:00,
2013-08-23 22:34:00,57.8,54.4,30.17,North,360,0.0,0.0,88,0.00,,,0.00,0.00,VWS V14.01,2013-08-24 02:34:00,
2013-08-23 22:35:00,57.6,52.6,30.17,North,360,0.0,0.0,83,0.00,,,0.00,0.00,VWS V14.01,2013-08-24 02:35:00,
2013-08-23 22:36:00,57.6,54.6,30.17,NW,319,0.0,0.0,90,0.00,,,0.00,0.00,VWS V14.01,2013-08-24 02:36:00,
2013-08-23 22:37:00,57.5,54.6,30.17,NW,319,0.0,0.0,90,0.00,,,0.00,0.00,VWS V14.01,2013-08-24 02:37:00,
2013-08-23 22:38:00,57.5,53.4,30.17,NW,306,1.1,1.1,86,0.00,,,0.00,0.00,VWS V14.01,2013-08-24 02:38:00,
2013-08-23 22:39:00,57.9,55.0,30.17,WNW,296,2.2,2.2,90,0.00,,,0.00,0.00,VWS V14.01,2013-08-24 02:39:00,
2013-08-23 22:40:00,58.6,55.5,30.17,WNW,296,3.0,3.0,89,0.00,,,0.00,0.43,VWS V14.01,2013-08-24 02:40:00,
2013-08-23 22:41:00,58.1,54.9,30.17,WNW,296,2.5,3.0,89,0.00,,,0.00,0.00,VWS V14.01,2013-08-24 02:41:00,
2013-08-23 22:42:00,58.6,54.9,30.17,WNW,296,2.3,2.3,87,0.00,,,0.00,0.00,VWS V14.01,2013-08-24 02:42:00,
2013-08-23 22:43:00,57.8,53.8,30.16,WNW,296,0.0,2.0,86,0.00,,,0.00,0.00,VWS V14.01,2013-08-24 02:43:00,
2013-08-23 22:44:00,57.6,53.6,30.16,WNW,296,0.0,0.0,87,0.00,,,0.00,0.00,VWS V14.01,2013-08-24 02:44:00,
2013-08-23 22:45:00,57.1,53.3,30.17,WNW,296,0.0,0.0,87,0.00,,,0.00,0.00,VWS V14.01,2013-08-24 02:45:00,
2013-08-23 22:46:00,56.9,53.3,30.17,WNW,296,0.0,0.0,88,0.00,,,0.00,0.00,VWS V14.01,2013-08-24 02:46:00,
2013-08-23 22:47:00,56.9,53.3,30.17,WNW,296,0.0,0.0,88,0.00,,,0.00,0.00,VWS V14.01,2013-08-24 02:47:00,
2013-08-23 22:48:00,56.7,53.4,30.16,WNW,296,0.0,0.0,89,0.00,,,0.00,0.00,VWS V14.01,2013-08-24 02:48:00,
2013-08-23 22:49:00,56.9,53.7,30.16,WNW,296,0.0,0.0,89,0.00,,,0.00,0.00,VWS V14.01,2013-08-24 02:49:00,
2013-08-23 22:50:00,57.2,54.2,30.16,WNW,296,0.0,0.0,90,0.00,,,0.00,0.00,VWS V14.01,2013-08-24 02:50:00,
2013-08-23 22:51:00,57.4,54.6,30.16,WNW,296,0.0,0.0,90,0.00,,,0.00,0.00,VWS V14.01,2013-08-24 02:51:00,
2013-08-23 22:52:00,57.4,54.7,30.16,WNW,296,0.0,0.0,90,0.00,,,0.00,0.00,VWS V14.01,2013-08-24 02:52:00,
2013-08-23 22:53:00,57.4,54.6,30.17,WNW,296,1.0,1.0,90,0.00,,,0.00,0.00,VWS V14.01,2013-08-24 02:53:00,
2013-08-23 22:54:00,57.3,54.5,30.17,WNW,296,0.0,1.0,90,0.00,,,0.00,0.00,VWS V14.01,2013-08-24 02:54:00,
2013-08-23 22:55:00,57.3,54.4,30.17,WNW,296,1.0,1.0,90,0.00,,,0.00,0.00,VWS V14.01,2013-08-24 02:55:00,
2013-08-23 22:56:00,57.4,54.5,30.17,WNW,296,0.0,0.0,90,0.00,,,0.00,0.00,VWS V14.01,2013-08-24 02:56:00,
2013-08-23 22:57:00,57.3,54.4,30.16,WNW,296,0.0,0.0,90,0.00,,,0.00,0.73,VWS V14.01,2013-08-24 02:57:00,
2013-08-23 22:58:00,57.7,54.7,30.17,WNW,296,1.0,1.0,90,0.00,,,0.00,0.00,VWS V14.01,2013-08-24 02:58:00,
2013-08-23 22:59:00,57.4,54.4,30.16,WNW,296,0.0,1.1,90,0.00,,,0.00,0.43,VWS V14.01,2013-08-24 02:59:00,
2013-08-23 23:00:00,57.7,54.7,30.17,WNW,296,0.0,0.0,90,0.00,,,0.00,0.00,VWS V14.01,2013-08-24 03:00:00,
2013-08-23 23:01:00,57.5,54.5,30.17,WNW,296,0.0,1.0,89,0.00,,,0.00,0.00,VWS V14.01,2013-08-24 03:01:00,
2013-08-23 23:02:00,57.5,54.5,30.17,WNW,296,1.8,1.8,90,0.00,,,0.00,0.00,VWS V14.01,2013-08-24 03:02:00,
2013-08-23 23:03:00,57.4,54.5,30.17,WNW,296,1.6,1.8,90,0.00,,,0.00,0.43,VWS V14.01,2013-08-24 03:03:00,
2013-08-23 23:04:00,57.4,54.5,30.17,WNW,296,1.6,1.8,90,0.00,,,0.00,0.43,VWS V14.01,2013-08-24 03:04:00,
2013-08-23 23:05:00,57.0,54.3,30.20,WNW,296,1.6,2.0,91,0.00,,,0.00,0.00,VWS V14.01,2013-08-24 03:05:00,
2013-08-23 23:06:00,57.5,54.8,30.18,WNW,296,1.8,2.0,91,0.00,,,0.00,0.43,VWS V14.01,2013-08-24 03:06:00,
2013-08-23 23:07:00,57.6,54.8,30.18,WNW,296,1.8,1.8,91,0.00,,,0.00,0.00,VWS V14.01,2013-08-24 03:07:00,
2013-08-23 23:08:00,57.5,54.8,30.17,WNW,296,0.0,2.0,91,0.00,,,0.00,0.00,VWS V14.01,2013-08-24 03:08:00,
2013-08-23 23:09:00,57.5,54.7,30.19,WNW,296,0.0,1.6,90,0.00,,,0.00,0.43,VWS V14.01,2013-08-24 03:09:00,
2013-08-23 23:10:00,57.6,54.7,30.17,WNW,296,0.0,1.1,90,0.00,,,0.00,0.00,VWS V14.01,2013-08-24 03:10:00,
2013-08-23 23:11:00,56.9,54.1,30.17,WNW,296,0.0,0.0,90,0.00,,,0.00,0.06,VWS V14.01,2013-08-24 03:11:00,
2013-08-23 23:12:00,56.9,54.1,30.17,WNW,296,0.0,0.0,90,0.00,,,0.00,0.06,VWS V14.01,2013-08-24 03:12:00,
2013-08-23 23:13:00,56.9,54.3,30.18,WNW,296,0.0,0.0,91,0.00,,,0.00,0.12,VWS V14.01,2013-08-24 03:13:00,
2013-08-23 23:14:00,56.9,54.5,30.17,WNW,296,0.0,0.0,91,0.00,,,0.00,0.73,VWS V14.01,2013-08-24 03:14:00,
2013-08-23 23:15:00,57.1,54.7,30.17,WNW,296,0.0,0.0,92,0.00,,,0.00,0.00,VWS V14.01,2013-08-24 03:15:00,
2013-08-23 23:16:00,57.2,54.9,30.17,WNW,296,0.0,0.0,92,0.00,,,0.00,0.00,VWS V14.01,2013-08-24 03:16:00,
2013-08-23 23:17:00,57.2,54.9,30.17,WNW,296,0.0,0.0,92,0.00,,,0.00,0.00,VWS V14.01,2013-08-24 03:17:00,
2013-08-23 23:18:00,57.2,54.9,30.17,WNW,296,0.0,0.0,92,0.00,,,0.00,0.00,VWS V14.01,2013-08-24 03:18:00,
2013-08-23 23:19:00,57.2,55.0,30.17,WNW,296,0.0,0.0,92,0.00,,,0.00,0.00,VWS V14.01,2013-08-24 03:19:00,
2013-08-23 23:20:00,57.2,55.0,30.18,WNW,296,0.0,0.0,92,0.00,,,0.00,0.43,VWS V14.01,2013-08-24 03:20:00,
2013-08-23 23:21:00,57.3,55.1,30.18,WNW,296,0.0,0.0,92,0.00,,,0.00,0.00,VWS V14.01,2013-08-24 03:21:00,
2013-08-23 23:22:00,57.3,55.1,30.18,WNW,296,0.0,0.0,92,0.00,,,0.00,0.00,VWS V14.01,2013-08-24 03:22:00,
2013-08-23 23:23:00,57.3,55.1,30.18,WNW,296,0.0,0.0,92,0.00,,,0.00,0.00,VWS V14.01,2013-08-24 03:23:00,
2013-08-23 23:24:00,57.2,55.0,30.17,WNW,296,0.0,0.0,92,0.00,,,0.00,0.43,VWS V14.01,2013-08-24 03:24:00,
2013-08-23 23:25:00,57.0,54.8,30.17,WNW,296,0.0,0.0,92,0.00,,,0.00,0.00,VWS V14.01,2013-08-24 03:25:00,
2013-08-23 23:26:00,56.9,54.8,30.17,WNW,296,0.0,0.0,93,0.00,,,0.00,0.00,VWS V14.01,2013-08-24 03:26:00,
2013-08-23 23:27:00,57.1,55.0,30.17,WNW,296,0.0,0.0,93,0.00,,,0.00,0.00,VWS V14.01,2013-08-24 03:27:00,
2013-08-23 23:28:00,56.7,54.7,30.18,WNW,296,0.0,0.0,93,0.00,,,0.00,0.00,VWS V14.01,2013-08-24 03:28:00,
2013-08-23 23:29:00,56.5,54.7,30.18,WNW,296,0.0,0.0,93,0.00,,,0.00,0.00,VWS V14.01,2013-08-24 03:29:00,
2013-08-23 23:30:00,56.3,54.4,30.17,WNW,296,0.0,0.0,93,0.00,,,0.00,0.00,VWS V14.01,2013-08-24 03:30:00,
2013-08-23 23:31:00,56.7,54.9,30.18,WNW,296,0.0,0.0,94,0.00,,,0.00,0.00,VWS V14.01,2013-08-24 03:31:00,
2013-08-23 23:32:00,57.0,55.3,30.17,WNW,296,0.0,0.0,94,0.00,,,0.00,0.00,VWS V14.01,2013-08-24 03:32:00,
2013-08-23 23:33:00,56.5,54.9,30.17,WNW,296,0.0,0.0,94,0.00,,,0.00,0.00,VWS V14.01,2013-08-24 03:33:00,
2013-08-23 23:34:00,56.0,54.2,30.16,WNW,296,0.0,0.0,94,0.00,,,0.00,0.00,VWS V14.01,2013-08-24 03:34:00,
2013-08-23 23:35:00,55.7,53.9,30.17,WNW,296,0.0,0.0,94,0.00,,,0.00,0.00,VWS V14.01,2013-08-24 03:35:00,
2013-08-23 23:36:00,55.8,54.1,30.16,WNW,296,0.0,0.0,94,0.00,,,0.00,0.00,VWS V14.01,2013-08-24 03:36:00,
2013-08-23 23:37:00,55.8,54.2,30.17,WNW,296,0.0,0.0,94,0.00,,,0.00,0.00,VWS V14.01,2013-08-24 03:37:00,
2013-08-23 23:38:00,56.4,54.9,30.16,WNW,296,0.0,0.0,95,0.00,,,0.00,0.00,VWS V14.01,2013-08-24 03:38:00,
2013-08-23 23:39:00,56.6,55.2,30.17,WNW,296,0.0,0.0,95,0.00,,,0.00,0.00,VWS V14.01,2013-08-24 03:39:00,
2013-08-23 23:40:00,56.9,55.7,30.17,WNW,296,0.0,0.0,96,0.00,,,0.00,0.00,VWS V14.01,2013-08-24 03:40:00,
2013-08-23 23:41:00,56.7,55.5,30.17,WNW,296,0.0,0.0,96,0.00,,,0.00,0.73,VWS V14.01,2013-08-24 03:41:00,
2013-08-23 23:42:00,56.5,55.3,30.18,WNW,296,0.0,0.0,96,0.00,,,0.00,0.00,VWS V14.01,2013-08-24 03:42:00,
2013-08-23 23:43:00,56.5,55.3,30.18,WNW,296,0.0,0.0,96,0.00,,,0.00,0.00,VWS V14.01,2013-08-24 03:43:00,
2013-08-23 23:44:00,56.6,55.5,30.17,WNW,296,0.0,0.0,96,0.00,,,0.00,0.00,VWS V14.01,2013-08-24 03:44:00,
2013-08-23 23:45:00,56.6,55.5,30.17,WNW,296,0.0,0.0,96,0.00,,,0.00,0.00,VWS V14.01,2013-08-24 03:45:00,
2013-08-23 23:46:00,56.4,55.2,30.17,WNW,296,0.0,0.0,96,0.00,,,0.00,0.00,VWS V14.01,2013-08-24 03:46:00,
2013-08-23 23:47:00,56.4,55.3,30.17,WNW,296,0.0,0.0,96,0.00,,,0.00,0.06,VWS V14.01,2013-08-24 03:47:00,
2013-08-23 23:48:00,55.8,54.6,30.17,WNW,296,0.0,0.0,96,0.00,,,0.00,0.00,VWS V14.01,2013-08-24 03:48:00,
2013-08-23 23:49:00,55.7,54.4,30.17,WNW,296,0.0,0.0,95,0.00,,,0.00,0.00,VWS V14.01,2013-08-24 03:49:00,
2013-08-23 23:50:00,56.0,54.8,30.18,WNW,296,0.0,0.0,96,0.00,,,0.00,0.12,VWS V14.01,2013-08-24 03:50:00,
2013-08-23 23:51:00,56.0,54.8,30.18,WNW,296,0.0,0.0,96,0.00,,,0.00,0.00,VWS V14.01,2013-08-24 03:51:00,
2013-08-23 23:52:00,55.9,54.8,30.18,WNW,296,0.0,0.0,96,0.00,,,0.00,0.00,VWS V14.01,2013-08-24 03:52:00,
2013-08-23 23:53:00,55.6,54.5,30.17,WNW,296,0.0,0.0,96,0.00,,,0.00,0.73,VWS V14.01,2013-08-24 03:53:00,
2013-08-23 23:54:00,55.9,54.8,30.18,WNW,296,0.0,0.0,96,0.00,,,0.00,0.12,VWS V14.01,2013-08-24 03:54:00,
2013-08-23 23:55:00,55.9,54.9,30.18,WNW,296,0.0,0.0,96,0.00,,,0.00,0.00,VWS V14.01,2013-08-24 03:55:00,
2013-08-23 23:56:00,56.1,55.2,30.18,WNW,296,0.0,0.0,96,0.00,,,0.00,0.00,VWS V14.01,2013-08-24 03:56:00,
2013-08-23 23:57:00,55.6,54.6,30.18,WNW,296,0.0,0.0,97,0.00,,,0.00,0.06,VWS V14.01,2013-08-24 03:57:00,
2013-08-23 23:58:00,55.4,54.5,30.18,WNW,296,0.0,0.0,96,0.00,,,0.00,0.12,VWS V14.01,2013-08-24 03:58:00,
2013-08-23 23:59:00,55.2,54.2,30.17,WNW,296,0.0,0.0,97,0.00,,,0.00,0.00,VWS V14.01,2013-08-24 03:59:00,